<?xml version="1.0" encoding="UTF-8" standalone="no" ?><gpx xmlns="http://www.topografix.com/GPX/1/1" xmlns:gpxx="http://www.garmin.com/xmlschemas/GpxExtensions/v3" xmlns:wptx1="http://www.garmin.com/xmlschemas/WaypointExtension/v1" xmlns:gpxtpx="http://www.garmin.com/xmlschemas/TrackPointExtension/v1" creator="GuideVTT.com" version="1.1" xmlns:xsi="http://www.w3.org/2001/XMLSchema-instance" xsi:schemaLocation="http://www.topografix.com/GPX/1/1 http://www.topografix.com/GPX/1/1/gpx.xsd http://www.garmin.com/xmlschemas/GpxExtensions/v3 http://www8.garmin.com/xmlschemas/GpxExtensionsv3.xsd http://www.garmin.com/xmlschemas/WaypointExtension/v1 http://www8.garmin.com/xmlschemas/WaypointExtensionv1.xsd http://www.garmin.com/xmlschemas/TrackPointExtension/v1 http://www.garmin.com/xmlschemas/TrackPointExtensionv1.xsd">
<metadata><link href="http://www.garmin.com"><text>Garmin International</text></link><time>2013-06-22T15:13:50Z</time></metadata>
<trk><name>stlouet.gpx</name><extensions><gpxx:TrackExtension><gpxx:DisplayColor>Cyan</gpxx:DisplayColor></gpxx:TrackExtension></extensions><trkseg>
<trkpt lat="48.91689994" lon="-1.08313982"><ele></ele><time>2014-7-6T3:32:27Z</time></trkpt>
<trkpt lat="48.91635146" lon="-1.08344480"><ele></ele><time>2014-7-6T3:32:30Z</time></trkpt>
<trkpt lat="48.91593381" lon="-1.08232531"><ele></ele><time>2014-7-6T3:32:33Z</time></trkpt>
<trkpt lat="48.91563328" lon="-1.08025818"><ele></ele><time>2014-7-6T3:32:36Z</time></trkpt>
<trkpt lat="48.91575432" lon="-1.07917429"><ele></ele><time>2014-7-6T3:32:39Z</time></trkpt>
<trkpt lat="48.91529369" lon="-1.07798378"><ele></ele><time>2014-7-6T3:32:42Z</time></trkpt>
<trkpt lat="48.91431581" lon="-1.07757806"><ele></ele><time>2014-7-6T3:32:45Z</time></trkpt>
<trkpt lat="48.91440361" lon="-1.08079118"><ele></ele><time>2014-7-6T3:32:48Z</time></trkpt>
<trkpt lat="48.91439958" lon="-1.08406648"><ele></ele><time>2014-7-6T3:32:51Z</time></trkpt>
<trkpt lat="48.91401088" lon="-1.08820348"><ele></ele><time>2014-7-6T3:32:54Z</time></trkpt>
<trkpt lat="48.91377256" lon="-1.09023492"><ele></ele><time>2014-7-6T3:32:57Z</time></trkpt>
<trkpt lat="48.91302114" lon="-1.08977574"><ele></ele><time>2014-7-6T3:33:0Z</time></trkpt>
<trkpt lat="48.91258577" lon="-1.09083874"><ele></ele><time>2014-7-6T3:33:3Z</time></trkpt>
<trkpt lat="48.91174456" lon="-1.09037362"><ele></ele><time>2014-7-6T3:33:6Z</time></trkpt>
<trkpt lat="48.91090728" lon="-1.08977229"><ele></ele><time>2014-7-6T3:33:9Z</time></trkpt>
<trkpt lat="48.91047402" lon="-1.08919773"><ele></ele><time>2014-7-6T3:33:12Z</time></trkpt>
<trkpt lat="48.90973420" lon="-1.08989935"><ele></ele><time>2014-7-6T3:33:15Z</time></trkpt>
<trkpt lat="48.90916023" lon="-1.09108958"><ele></ele><time>2014-7-6T3:33:18Z</time></trkpt>
<trkpt lat="48.90877365" lon="-1.09201926"><ele></ele><time>2014-7-6T3:33:21Z</time></trkpt>
<trkpt lat="48.90815280" lon="-1.09327457"><ele></ele><time>2014-7-6T3:33:24Z</time></trkpt>
<trkpt lat="48.90768381" lon="-1.09706453"><ele></ele><time>2014-7-6T3:33:27Z</time></trkpt>
<trkpt lat="48.90743688" lon="-1.10250675"><ele></ele><time>2014-7-6T3:33:30Z</time></trkpt>
<trkpt lat="48.90763971" lon="-1.10327079"><ele></ele><time>2014-7-6T3:33:33Z</time></trkpt>
<trkpt lat="48.90853918" lon="-1.10483171"><ele></ele><time>2014-7-6T3:33:36Z</time></trkpt>
<trkpt lat="48.91644650" lon="-1.09109440"><ele></ele><time>2014-7-6T3:33:39Z</time></trkpt>
<trkpt lat="48.91690734" lon="-1.08914582"><ele></ele><time>2014-7-6T3:33:42Z</time></trkpt>
<trkpt lat="48.91772141" lon="-1.08742531"><ele></ele><time>2014-7-6T3:33:45Z</time></trkpt>
<trkpt lat="48.91748923" lon="-1.08611330"><ele></ele><time>2014-7-6T3:33:48Z</time></trkpt>
<trkpt lat="48.91699943" lon="-1.08437479"><ele></ele><time>2014-7-6T3:33:51Z</time></trkpt>
<trkpt lat="48.91689994" lon="-1.08313982"><ele></ele><time>2014-7-6T3:33:54Z</time></trkpt>
<trkpt lat="48.93165708" lon="-1.09536697"><ele></ele><time>2014-7-6T3:33:57Z</time></trkpt>
<trkpt lat="48.93167644" lon="-1.09537359"><ele></ele><time>2014-7-6T3:34:0Z</time></trkpt>
<trkpt lat="48.93169513" lon="-1.09537904"><ele></ele><time>2014-7-6T3:34:3Z</time></trkpt>
<trkpt lat="48.93180552" lon="-1.09542766"><ele></ele><time>2014-7-6T3:34:6Z</time></trkpt>
<trkpt lat="48.93189345" lon="-1.09547770"><ele></ele><time>2014-7-6T3:34:9Z</time></trkpt>
<trkpt lat="48.93196779" lon="-1.09551868"><ele></ele><time>2014-7-6T3:34:12Z</time></trkpt>
<trkpt lat="48.93201138" lon="-1.09555414"><ele></ele><time>2014-7-6T3:34:15Z</time></trkpt>
<trkpt lat="48.93203317" lon="-1.09556160"><ele></ele><time>2014-7-6T3:34:18Z</time></trkpt>
<trkpt lat="48.93212956" lon="-1.09565414"><ele></ele><time>2014-7-6T3:34:21Z</time></trkpt>
<trkpt lat="48.93237147" lon="-1.09582982"><ele></ele><time>2014-7-6T3:34:24Z</time></trkpt>
<trkpt lat="48.93255947" lon="-1.09601858"><ele></ele><time>2014-7-6T3:34:27Z</time></trkpt>
<trkpt lat="48.93260767" lon="-1.09627079"><ele></ele><time>2014-7-6T3:34:30Z</time></trkpt>
<trkpt lat="48.93263399" lon="-1.09657925"><ele></ele><time>2014-7-6T3:34:33Z</time></trkpt>
<trkpt lat="48.93263432" lon="-1.09677195"><ele></ele><time>2014-7-6T3:34:36Z</time></trkpt>
<trkpt lat="48.93263617" lon="-1.09686582"><ele></ele><time>2014-7-6T3:34:39Z</time></trkpt>
<trkpt lat="48.93263860" lon="-1.09695836"><ele></ele><time>2014-7-6T3:34:42Z</time></trkpt>
<trkpt lat="48.93263885" lon="-1.09700597"><ele></ele><time>2014-7-6T3:34:45Z</time></trkpt>
<trkpt lat="48.93266726" lon="-1.09743940"><ele></ele><time>2014-7-6T3:34:48Z</time></trkpt>
<trkpt lat="48.93277757" lon="-1.09796695"><ele></ele><time>2014-7-6T3:34:51Z</time></trkpt>
<trkpt lat="48.93287304" lon="-1.09835160"><ele></ele><time>2014-7-6T3:34:54Z</time></trkpt>
<trkpt lat="48.93302576" lon="-1.09889626"><ele></ele><time>2014-7-6T3:34:57Z</time></trkpt>
<trkpt lat="48.93314327" lon="-1.09932097"><ele></ele><time>2014-7-6T3:35:0Z</time></trkpt>
<trkpt lat="48.93324545" lon="-1.09982380"><ele></ele><time>2014-7-6T3:35:3Z</time></trkpt>
<trkpt lat="48.93321594" lon="-1.10016813"><ele></ele><time>2014-7-6T3:35:6Z</time></trkpt>
<trkpt lat="48.93313983" lon="-1.10059259"><ele></ele><time>2014-7-6T3:35:9Z</time></trkpt>
<trkpt lat="48.93305928" lon="-1.10111335"><ele></ele><time>2014-7-6T3:35:12Z</time></trkpt>
<trkpt lat="48.93300715" lon="-1.10164334"><ele></ele><time>2014-7-6T3:35:15Z</time></trkpt>
<trkpt lat="48.93300036" lon="-1.10221574"><ele></ele><time>2014-7-6T3:35:18Z</time></trkpt>
<trkpt lat="48.93307923" lon="-1.10281253"><ele></ele><time>2014-7-6T3:35:21Z</time></trkpt>
<trkpt lat="48.93304177" lon="-1.10312040"><ele></ele><time>2014-7-6T3:35:24Z</time></trkpt>
<trkpt lat="48.93296448" lon="-1.10340446"><ele></ele><time>2014-7-6T3:35:27Z</time></trkpt>
<trkpt lat="48.93303003" lon="-1.10357805"><ele></ele><time>2014-7-6T3:35:30Z</time></trkpt>
<trkpt lat="48.93319675" lon="-1.10385122"><ele></ele><time>2014-7-6T3:35:33Z</time></trkpt>
<trkpt lat="48.93339037" lon="-1.10409035"><ele></ele><time>2014-7-6T3:35:36Z</time></trkpt>
<trkpt lat="48.93358164" lon="-1.10424944"><ele></ele><time>2014-7-6T3:35:39Z</time></trkpt>
<trkpt lat="48.93376973" lon="-1.10437006"><ele></ele><time>2014-7-6T3:35:42Z</time></trkpt>
<trkpt lat="48.93390368" lon="-1.10453024"><ele></ele><time>2014-7-6T3:35:45Z</time></trkpt>
<trkpt lat="48.93407542" lon="-1.10473945"><ele></ele><time>2014-7-6T3:35:48Z</time></trkpt>
<trkpt lat="48.93420224" lon="-1.10488756"><ele></ele><time>2014-7-6T3:35:51Z</time></trkpt>
<trkpt lat="48.93439578" lon="-1.10511378"><ele></ele><time>2014-7-6T3:35:54Z</time></trkpt>
<trkpt lat="48.93455788" lon="-1.10529165"><ele></ele><time>2014-7-6T3:35:57Z</time></trkpt>
<trkpt lat="48.93469417" lon="-1.10544654"><ele></ele><time>2014-7-6T3:36:0Z</time></trkpt>
<trkpt lat="48.93478914" lon="-1.10555174"><ele></ele><time>2014-7-6T3:36:3Z</time></trkpt>
<trkpt lat="48.93497572" lon="-1.10575165"><ele></ele><time>2014-7-6T3:36:6Z</time></trkpt>
<trkpt lat="48.93517672" lon="-1.10597452"><ele></ele><time>2014-7-6T3:36:9Z</time></trkpt>
<trkpt lat="48.93537864" lon="-1.10620997"><ele></ele><time>2014-7-6T3:36:12Z</time></trkpt>
<trkpt lat="48.93557293" lon="-1.10649135"><ele></ele><time>2014-7-6T3:36:15Z</time></trkpt>
<trkpt lat="48.93582355" lon="-1.10683073"><ele></ele><time>2014-7-6T3:36:18Z</time></trkpt>
<trkpt lat="48.93604483" lon="-1.10719677"><ele></ele><time>2014-7-6T3:36:21Z</time></trkpt>
<trkpt lat="48.93622496" lon="-1.10757278"><ele></ele><time>2014-7-6T3:36:24Z</time></trkpt>
<trkpt lat="48.93636519" lon="-1.10803010"><ele></ele><time>2014-7-6T3:36:27Z</time></trkpt>
<trkpt lat="48.93639344" lon="-1.10817972"><ele></ele><time>2014-7-6T3:36:30Z</time></trkpt>
<trkpt lat="48.93649997" lon="-1.10832179"><ele></ele><time>2014-7-6T3:36:33Z</time></trkpt>
<trkpt lat="48.93660877" lon="-1.10818978"><ele></ele><time>2014-7-6T3:36:36Z</time></trkpt>
<trkpt lat="48.93688487" lon="-1.10765216"><ele></ele><time>2014-7-6T3:36:39Z</time></trkpt>
<trkpt lat="48.93716457" lon="-1.10715453"><ele></ele><time>2014-7-6T3:36:42Z</time></trkpt>
<trkpt lat="48.93720087" lon="-1.10710097"><ele></ele><time>2014-7-6T3:36:45Z</time></trkpt>
<trkpt lat="48.93737999" lon="-1.10667609"><ele></ele><time>2014-7-6T3:36:48Z</time></trkpt>
<trkpt lat="48.93747412" lon="-1.10633017"><ele></ele><time>2014-7-6T3:36:51Z</time></trkpt>
<trkpt lat="48.93752759" lon="-1.10599414"><ele></ele><time>2014-7-6T3:36:54Z</time></trkpt>
<trkpt lat="48.93760387" lon="-1.10565727"><ele></ele><time>2014-7-6T3:36:57Z</time></trkpt>
<trkpt lat="48.93761309" lon="-1.10561410"><ele></ele><time>2014-7-6T3:37:0Z</time></trkpt>
<trkpt lat="48.93762734" lon="-1.10548778"><ele></ele><time>2014-7-6T3:37:3Z</time></trkpt>
<trkpt lat="48.93766355" lon="-1.10533490"><ele></ele><time>2014-7-6T3:37:6Z</time></trkpt>
<trkpt lat="48.93767897" lon="-1.10519467"><ele></ele><time>2014-7-6T3:37:9Z</time></trkpt>
<trkpt lat="48.93770294" lon="-1.10505260"><ele></ele><time>2014-7-6T3:37:12Z</time></trkpt>
<trkpt lat="48.93771200" lon="-1.10498068"><ele></ele><time>2014-7-6T3:37:15Z</time></trkpt>
<trkpt lat="48.93770956" lon="-1.10494774"><ele></ele><time>2014-7-6T3:37:18Z</time></trkpt>
<trkpt lat="48.93771753" lon="-1.10491664"><ele></ele><time>2014-7-6T3:37:21Z</time></trkpt>
<trkpt lat="48.93774393" lon="-1.10478178"><ele></ele><time>2014-7-6T3:37:24Z</time></trkpt>
<trkpt lat="48.93775449" lon="-1.10453392"><ele></ele><time>2014-7-6T3:37:27Z</time></trkpt>
<trkpt lat="48.93776522" lon="-1.10448279"><ele></ele><time>2014-7-6T3:37:30Z</time></trkpt>
<trkpt lat="48.93780319" lon="-1.10431926"><ele></ele><time>2014-7-6T3:37:33Z</time></trkpt>
<trkpt lat="48.93783714" lon="-1.10413486"><ele></ele><time>2014-7-6T3:37:36Z</time></trkpt>
<trkpt lat="48.93787393" lon="-1.10400695"><ele></ele><time>2014-7-6T3:37:39Z</time></trkpt>
<trkpt lat="48.93792355" lon="-1.10380118"><ele></ele><time>2014-7-6T3:37:42Z</time></trkpt>
<trkpt lat="48.93805775" lon="-1.10359658"><ele></ele><time>2014-7-6T3:37:45Z</time></trkpt>
<trkpt lat="48.93810485" lon="-1.10345442"><ele></ele><time>2014-7-6T3:37:48Z</time></trkpt>
<trkpt lat="48.93814643" lon="-1.10332416"><ele></ele><time>2014-7-6T3:37:51Z</time></trkpt>
<trkpt lat="48.93820317" lon="-1.10314379"><ele></ele><time>2014-7-6T3:37:54Z</time></trkpt>
<trkpt lat="48.93827685" lon="-1.10290792"><ele></ele><time>2014-7-6T3:37:57Z</time></trkpt>
<trkpt lat="48.93833594" lon="-1.10269552"><ele></ele><time>2014-7-6T3:38:0Z</time></trkpt>
<trkpt lat="48.93839244" lon="-1.10258589"><ele></ele><time>2014-7-6T3:38:3Z</time></trkpt>
<trkpt lat="48.93852387" lon="-1.10257918"><ele></ele><time>2014-7-6T3:38:6Z</time></trkpt>
<trkpt lat="48.93856368" lon="-1.10247323"><ele></ele><time>2014-7-6T3:38:9Z</time></trkpt>
<trkpt lat="48.93861313" lon="-1.10211943"><ele></ele><time>2014-7-6T3:38:12Z</time></trkpt>
<trkpt lat="48.93866745" lon="-1.10167989"><ele></ele><time>2014-7-6T3:38:15Z</time></trkpt>
<trkpt lat="48.93867499" lon="-1.10145249"><ele></ele><time>2014-7-6T3:38:18Z</time></trkpt>
<trkpt lat="48.93863258" lon="-1.10110539"><ele></ele><time>2014-7-6T3:38:21Z</time></trkpt>
<trkpt lat="48.93857516" lon="-1.10071798"><ele></ele><time>2014-7-6T3:38:24Z</time></trkpt>
<trkpt lat="48.93854105" lon="-1.10032235"><ele></ele><time>2014-7-6T3:38:27Z</time></trkpt>
<trkpt lat="48.93851263" lon="-1.10010543"><ele></ele><time>2014-7-6T3:38:30Z</time></trkpt>
<trkpt lat="48.93846025" lon="-1.09989094"><ele></ele><time>2014-7-6T3:38:33Z</time></trkpt>
<trkpt lat="48.93845497" lon="-1.09985506"><ele></ele><time>2014-7-6T3:38:36Z</time></trkpt>
<trkpt lat="48.93844692" lon="-1.09977736"><ele></ele><time>2014-7-6T3:38:39Z</time></trkpt>
<trkpt lat="48.93840627" lon="-1.09943488"><ele></ele><time>2014-7-6T3:38:42Z</time></trkpt>
<trkpt lat="48.93835145" lon="-1.09899994"><ele></ele><time>2014-7-6T3:38:45Z</time></trkpt>
<trkpt lat="48.93831625" lon="-1.09866165"><ele></ele><time>2014-7-6T3:38:48Z</time></trkpt>
<trkpt lat="48.93830116" lon="-1.09848957"><ele></ele><time>2014-7-6T3:38:51Z</time></trkpt>
<trkpt lat="48.93835573" lon="-1.09840374"><ele></ele><time>2014-7-6T3:38:54Z</time></trkpt>
<trkpt lat="48.93852999" lon="-1.09833769"><ele></ele><time>2014-7-6T3:38:57Z</time></trkpt>
<trkpt lat="48.93865219" lon="-1.09836392"><ele></ele><time>2014-7-6T3:39:0Z</time></trkpt>
<trkpt lat="48.93876753" lon="-1.09849853"><ele></ele><time>2014-7-6T3:39:3Z</time></trkpt>
<trkpt lat="48.93897389" lon="-1.09883239"><ele></ele><time>2014-7-6T3:39:6Z</time></trkpt>
<trkpt lat="48.93899677" lon="-1.09888687"><ele></ele><time>2014-7-6T3:39:9Z</time></trkpt>
<trkpt lat="48.93907724" lon="-1.09903188"><ele></ele><time>2014-7-6T3:39:12Z</time></trkpt>
<trkpt lat="48.93921185" lon="-1.09921938"><ele></ele><time>2014-7-6T3:39:15Z</time></trkpt>
<trkpt lat="48.93931202" lon="-1.09942985"><ele></ele><time>2014-7-6T3:39:18Z</time></trkpt>
<trkpt lat="48.93937773" lon="-1.09961794"><ele></ele><time>2014-7-6T3:39:21Z</time></trkpt>
<trkpt lat="48.93944202" lon="-1.09986009"><ele></ele><time>2014-7-6T3:39:24Z</time></trkpt>
<trkpt lat="48.93951192" lon="-1.10008632"><ele></ele><time>2014-7-6T3:39:27Z</time></trkpt>
<trkpt lat="48.93959583" lon="-1.10043920"><ele></ele><time>2014-7-6T3:39:30Z</time></trkpt>
<trkpt lat="48.93968778" lon="-1.10074329"><ele></ele><time>2014-7-6T3:39:33Z</time></trkpt>
<trkpt lat="48.93974427" lon="-1.10105024"><ele></ele><time>2014-7-6T3:39:36Z</time></trkpt>
<trkpt lat="48.93976045" lon="-1.10120983"><ele></ele><time>2014-7-6T3:39:39Z</time></trkpt>
<trkpt lat="48.93983035" lon="-1.10144218"><ele></ele><time>2014-7-6T3:39:42Z</time></trkpt>
<trkpt lat="48.93997754" lon="-1.10152080"><ele></ele><time>2014-7-6T3:39:45Z</time></trkpt>
<trkpt lat="48.94003152" lon="-1.10153513"><ele></ele><time>2014-7-6T3:39:48Z</time></trkpt>
<trkpt lat="48.94007343" lon="-1.10145475"><ele></ele><time>2014-7-6T3:39:51Z</time></trkpt>
<trkpt lat="48.94011324" lon="-1.10125752"><ele></ele><time>2014-7-6T3:39:54Z</time></trkpt>
<trkpt lat="48.94016596" lon="-1.10096600"><ele></ele><time>2014-7-6T3:39:57Z</time></trkpt>
<trkpt lat="48.94015976" lon="-1.10073709"><ele></ele><time>2014-7-6T3:40:0Z</time></trkpt>
<trkpt lat="48.94015716" lon="-1.10042889"><ele></ele><time>2014-7-6T3:40:3Z</time></trkpt>
<trkpt lat="48.94015867" lon="-1.10010929"><ele></ele><time>2014-7-6T3:40:6Z</time></trkpt>
<trkpt lat="48.94012607" lon="-1.09979237"><ele></ele><time>2014-7-6T3:40:9Z</time></trkpt>
<trkpt lat="48.94003973" lon="-1.09944862"><ele></ele><time>2014-7-6T3:40:12Z</time></trkpt>
<trkpt lat="48.93994284" lon="-1.09927160"><ele></ele><time>2014-7-6T3:40:15Z</time></trkpt>
<trkpt lat="48.93989129" lon="-1.09916439"><ele></ele><time>2014-7-6T3:40:18Z</time></trkpt>
<trkpt lat="48.93981032" lon="-1.09897882"><ele></ele><time>2014-7-6T3:40:21Z</time></trkpt>
<trkpt lat="48.93972550" lon="-1.09876826"><ele></ele><time>2014-7-6T3:40:24Z</time></trkpt>
<trkpt lat="48.93962173" lon="-1.09856995"><ele></ele><time>2014-7-6T3:40:27Z</time></trkpt>
<trkpt lat="48.93955694" lon="-1.09830852"><ele></ele><time>2014-7-6T3:40:30Z</time></trkpt>
<trkpt lat="48.93946717" lon="-1.09803845"><ele></ele><time>2014-7-6T3:40:33Z</time></trkpt>
<trkpt lat="48.93945074" lon="-1.09799118"><ele></ele><time>2014-7-6T3:40:36Z</time></trkpt>
<trkpt lat="48.93942333" lon="-1.09787065"><ele></ele><time>2014-7-6T3:40:39Z</time></trkpt>
<trkpt lat="48.93932384" lon="-1.09744937"><ele></ele><time>2014-7-6T3:40:42Z</time></trkpt>
<trkpt lat="48.93925938" lon="-1.09704687"><ele></ele><time>2014-7-6T3:40:45Z</time></trkpt>
<trkpt lat="48.93921437" lon="-1.09677463"><ele></ele><time>2014-7-6T3:40:48Z</time></trkpt>
<trkpt lat="48.93909358" lon="-1.09642326"><ele></ele><time>2014-7-6T3:40:51Z</time></trkpt>
<trkpt lat="48.93907003" lon="-1.09636953"><ele></ele><time>2014-7-6T3:40:54Z</time></trkpt>
<trkpt lat="48.93894724" lon="-1.09602822"><ele></ele><time>2014-7-6T3:40:57Z</time></trkpt>
<trkpt lat="48.93884757" lon="-1.09572765"><ele></ele><time>2014-7-6T3:41:0Z</time></trkpt>
<trkpt lat="48.93874557" lon="-1.09534593"><ele></ele><time>2014-7-6T3:41:3Z</time></trkpt>
<trkpt lat="48.93868865" lon="-1.09508634"><ele></ele><time>2014-7-6T3:41:6Z</time></trkpt>
<trkpt lat="48.93860660" lon="-1.09475568"><ele></ele><time>2014-7-6T3:41:9Z</time></trkpt>
<trkpt lat="48.93848900" lon="-1.09453473"><ele></ele><time>2014-7-6T3:41:12Z</time></trkpt>
<trkpt lat="48.93842840" lon="-1.09442476"><ele></ele><time>2014-7-6T3:41:15Z</time></trkpt>
<trkpt lat="48.93833745" lon="-1.09422762"><ele></ele><time>2014-7-6T3:41:18Z</time></trkpt>
<trkpt lat="48.93829948" lon="-1.09410667"><ele></ele><time>2014-7-6T3:41:21Z</time></trkpt>
<trkpt lat="48.93834298" lon="-1.09387357"><ele></ele><time>2014-7-6T3:41:24Z</time></trkpt>
<trkpt lat="48.93837274" lon="-1.09376418"><ele></ele><time>2014-7-6T3:41:27Z</time></trkpt>
<trkpt lat="48.93844625" lon="-1.09337702"><ele></ele><time>2014-7-6T3:41:30Z</time></trkpt>
<trkpt lat="48.93846234" lon="-1.09317259"><ele></ele><time>2014-7-6T3:41:33Z</time></trkpt>
<trkpt lat="48.93847835" lon="-1.09306086"><ele></ele><time>2014-7-6T3:41:36Z</time></trkpt>
<trkpt lat="48.93854633" lon="-1.09269356"><ele></ele><time>2014-7-6T3:41:39Z</time></trkpt>
<trkpt lat="48.93863333" lon="-1.09248737"><ele></ele><time>2014-7-6T3:41:42Z</time></trkpt>
<trkpt lat="48.93871707" lon="-1.09233742"><ele></ele><time>2014-7-6T3:41:45Z</time></trkpt>
<trkpt lat="48.93879125" lon="-1.09217632"><ele></ele><time>2014-7-6T3:41:48Z</time></trkpt>
<trkpt lat="48.93903147" lon="-1.09189024"><ele></ele><time>2014-7-6T3:41:51Z</time></trkpt>
<trkpt lat="48.93914186" lon="-1.09184573"><ele></ele><time>2014-7-6T3:41:54Z</time></trkpt>
<trkpt lat="48.93932367" lon="-1.09176728"><ele></ele><time>2014-7-6T3:41:57Z</time></trkpt>
<trkpt lat="48.93947722" lon="-1.09156368"><ele></ele><time>2014-7-6T3:42:0Z</time></trkpt>
<trkpt lat="48.93961787" lon="-1.09127669"><ele></ele><time>2014-7-6T3:42:3Z</time></trkpt>
<trkpt lat="48.93983312" lon="-1.09102875"><ele></ele><time>2014-7-6T3:42:6Z</time></trkpt>
<trkpt lat="48.93987528" lon="-1.09097603"><ele></ele><time>2014-7-6T3:42:9Z</time></trkpt>
<trkpt lat="48.94001928" lon="-1.09070923"><ele></ele><time>2014-7-6T3:42:12Z</time></trkpt>
<trkpt lat="48.94018709" lon="-1.09042257"><ele></ele><time>2014-7-6T3:42:15Z</time></trkpt>
<trkpt lat="48.94045238" lon="-1.08990189"><ele></ele><time>2014-7-6T3:42:18Z</time></trkpt>
<trkpt lat="48.94049990" lon="-1.08977624"><ele></ele><time>2014-7-6T3:42:21Z</time></trkpt>
<trkpt lat="48.94051960" lon="-1.08971355"><ele></ele><time>2014-7-6T3:42:24Z</time></trkpt>
<trkpt lat="48.94063242" lon="-1.08935572"><ele></ele><time>2014-7-6T3:42:27Z</time></trkpt>
<trkpt lat="48.94068615" lon="-1.08922656"><ele></ele><time>2014-7-6T3:42:30Z</time></trkpt>
<trkpt lat="48.94074163" lon="-1.08919320"><ele></ele><time>2014-7-6T3:42:33Z</time></trkpt>
<trkpt lat="48.94079662" lon="-1.08920460"><ele></ele><time>2014-7-6T3:42:36Z</time></trkpt>
<trkpt lat="48.94081078" lon="-1.08921792"><ele></ele><time>2014-7-6T3:42:39Z</time></trkpt>
<trkpt lat="48.94081565" lon="-1.08926084"><ele></ele><time>2014-7-6T3:42:42Z</time></trkpt>
<trkpt lat="48.94092117" lon="-1.08941406"><ele></ele><time>2014-7-6T3:42:45Z</time></trkpt>
<trkpt lat="48.94093526" lon="-1.08941104"><ele></ele><time>2014-7-6T3:42:48Z</time></trkpt>
<trkpt lat="48.94098412" lon="-1.08940425"><ele></ele><time>2014-7-6T3:42:51Z</time></trkpt>
<trkpt lat="48.94110826" lon="-1.08930836"><ele></ele><time>2014-7-6T3:42:54Z</time></trkpt>
<trkpt lat="48.94110273" lon="-1.08919043"><ele></ele><time>2014-7-6T3:42:57Z</time></trkpt>
<trkpt lat="48.94107548" lon="-1.08913310"><ele></ele><time>2014-7-6T3:43:0Z</time></trkpt>
<trkpt lat="48.94103995" lon="-1.08899446"><ele></ele><time>2014-7-6T3:43:3Z</time></trkpt>
<trkpt lat="48.94101287" lon="-1.08887753"><ele></ele><time>2014-7-6T3:43:6Z</time></trkpt>
<trkpt lat="48.94101899" lon="-1.08875507"><ele></ele><time>2014-7-6T3:43:9Z</time></trkpt>
<trkpt lat="48.94104372" lon="-1.08859079"><ele></ele><time>2014-7-6T3:43:12Z</time></trkpt>
<trkpt lat="48.94108772" lon="-1.08840195"><ele></ele><time>2014-7-6T3:43:15Z</time></trkpt>
<trkpt lat="48.94112938" lon="-1.08826063"><ele></ele><time>2014-7-6T3:43:18Z</time></trkpt>
<trkpt lat="48.94104497" lon="-1.08810816"><ele></ele><time>2014-7-6T3:43:21Z</time></trkpt>
<trkpt lat="48.94102243" lon="-1.08789727"><ele></ele><time>2014-7-6T3:43:24Z</time></trkpt>
<trkpt lat="48.94097440" lon="-1.08755579"><ele></ele><time>2014-7-6T3:43:27Z</time></trkpt>
<trkpt lat="48.94096904" lon="-1.08746787"><ele></ele><time>2014-7-6T3:43:30Z</time></trkpt>
<trkpt lat="48.94101136" lon="-1.08704584"><ele></ele><time>2014-7-6T3:43:33Z</time></trkpt>
<trkpt lat="48.94105470" lon="-1.08678734"><ele></ele><time>2014-7-6T3:43:36Z</time></trkpt>
<trkpt lat="48.94112737" lon="-1.08653647"><ele></ele><time>2014-7-6T3:43:39Z</time></trkpt>
<trkpt lat="48.94118294" lon="-1.08629306"><ele></ele><time>2014-7-6T3:43:42Z</time></trkpt>
<trkpt lat="48.94110507" lon="-1.08612358"><ele></ele><time>2014-7-6T3:43:45Z</time></trkpt>
<trkpt lat="48.94104414" lon="-1.08602224"><ele></ele><time>2014-7-6T3:43:48Z</time></trkpt>
<trkpt lat="48.94094255" lon="-1.08585720"><ele></ele><time>2014-7-6T3:43:51Z</time></trkpt>
<trkpt lat="48.94088899" lon="-1.08554858"><ele></ele><time>2014-7-6T3:43:54Z</time></trkpt>
<trkpt lat="48.94090407" lon="-1.08525085"><ele></ele><time>2014-7-6T3:43:57Z</time></trkpt>
<trkpt lat="48.94091246" lon="-1.08518732"><ele></ele><time>2014-7-6T3:44:0Z</time></trkpt>
<trkpt lat="48.94092696" lon="-1.08505974"><ele></ele><time>2014-7-6T3:44:3Z</time></trkpt>
<trkpt lat="48.94093182" lon="-1.08499537"><ele></ele><time>2014-7-6T3:44:6Z</time></trkpt>
<trkpt lat="48.94100349" lon="-1.08464677"><ele></ele><time>2014-7-6T3:44:9Z</time></trkpt>
<trkpt lat="48.94107389" lon="-1.08444535"><ele></ele><time>2014-7-6T3:44:12Z</time></trkpt>
<trkpt lat="48.94110214" lon="-1.08433228"><ele></ele><time>2014-7-6T3:44:15Z</time></trkpt>
<trkpt lat="48.94112829" lon="-1.08416037"><ele></ele><time>2014-7-6T3:44:18Z</time></trkpt>
<trkpt lat="48.94120817" lon="-1.08389248"><ele></ele><time>2014-7-6T3:44:21Z</time></trkpt>
<trkpt lat="48.94133365" lon="-1.08352108"><ele></ele><time>2014-7-6T3:44:24Z</time></trkpt>
<trkpt lat="48.94138126" lon="-1.08329234"><ele></ele><time>2014-7-6T3:44:27Z</time></trkpt>
<trkpt lat="48.94148570" lon="-1.08303426"><ele></ele><time>2014-7-6T3:44:30Z</time></trkpt>
<trkpt lat="48.94162207" lon="-1.08277165"><ele></ele><time>2014-7-6T3:44:33Z</time></trkpt>
<trkpt lat="48.94169533" lon="-1.08261189"><ele></ele><time>2014-7-6T3:44:36Z</time></trkpt>
<trkpt lat="48.94176976" lon="-1.08239313"><ele></ele><time>2014-7-6T3:44:39Z</time></trkpt>
<trkpt lat="48.94184528" lon="-1.08201418"><ele></ele><time>2014-7-6T3:44:42Z</time></trkpt>
<trkpt lat="48.94197713" lon="-1.08155695"><ele></ele><time>2014-7-6T3:44:45Z</time></trkpt>
<trkpt lat="48.94205097" lon="-1.08126903"><ele></ele><time>2014-7-6T3:44:48Z</time></trkpt>
<trkpt lat="48.94209573" lon="-1.08109033"><ele></ele><time>2014-7-6T3:44:51Z</time></trkpt>
<trkpt lat="48.94210688" lon="-1.08089788"><ele></ele><time>2014-7-6T3:44:54Z</time></trkpt>
<trkpt lat="48.94211962" lon="-1.08057199"><ele></ele><time>2014-7-6T3:44:57Z</time></trkpt>
<trkpt lat="48.94210663" lon="-1.08047376"><ele></ele><time>2014-7-6T3:45:0Z</time></trkpt>
<trkpt lat="48.94214334" lon="-1.08025298"><ele></ele><time>2014-7-6T3:45:3Z</time></trkpt>
<trkpt lat="48.94223303" lon="-1.07992466"><ele></ele><time>2014-7-6T3:45:6Z</time></trkpt>
<trkpt lat="48.94228860" lon="-1.07966834"><ele></ele><time>2014-7-6T3:45:9Z</time></trkpt>
<trkpt lat="48.94228298" lon="-1.07936902"><ele></ele><time>2014-7-6T3:45:12Z</time></trkpt>
<trkpt lat="48.94229715" lon="-1.07914103"><ele></ele><time>2014-7-6T3:45:15Z</time></trkpt>
<trkpt lat="48.94228667" lon="-1.07868933"><ele></ele><time>2014-7-6T3:45:18Z</time></trkpt>
<trkpt lat="48.94223009" lon="-1.07824618"><ele></ele><time>2014-7-6T3:45:21Z</time></trkpt>
<trkpt lat="48.94212523" lon="-1.07789766"><ele></ele><time>2014-7-6T3:45:24Z</time></trkpt>
<trkpt lat="48.94202868" lon="-1.07762500"><ele></ele><time>2014-7-6T3:45:27Z</time></trkpt>
<trkpt lat="48.94194075" lon="-1.07723013"><ele></ele><time>2014-7-6T3:45:30Z</time></trkpt>
<trkpt lat="48.94196598" lon="-1.07695528"><ele></ele><time>2014-7-6T3:45:33Z</time></trkpt>
<trkpt lat="48.94199783" lon="-1.07642287"><ele></ele><time>2014-7-6T3:45:36Z</time></trkpt>
<trkpt lat="48.94195517" lon="-1.07595432"><ele></ele><time>2014-7-6T3:45:39Z</time></trkpt>
<trkpt lat="48.94198844" lon="-1.07565416"><ele></ele><time>2014-7-6T3:45:42Z</time></trkpt>
<trkpt lat="48.94201619" lon="-1.07553455"><ele></ele><time>2014-7-6T3:45:45Z</time></trkpt>
<trkpt lat="48.94195424" lon="-1.07527119"><ele></ele><time>2014-7-6T3:45:48Z</time></trkpt>
<trkpt lat="48.94173648" lon="-1.07492385"><ele></ele><time>2014-7-6T3:45:51Z</time></trkpt>
<trkpt lat="48.94162483" lon="-1.07466015"><ele></ele><time>2014-7-6T3:45:54Z</time></trkpt>
<trkpt lat="48.94144622" lon="-1.07419957"><ele></ele><time>2014-7-6T3:45:57Z</time></trkpt>
<trkpt lat="48.94127196" lon="-1.07395054"><ele></ele><time>2014-7-6T3:46:0Z</time></trkpt>
<trkpt lat="48.94111228" lon="-1.07380855"><ele></ele><time>2014-7-6T3:46:3Z</time></trkpt>
<trkpt lat="48.94077759" lon="-1.07340530"><ele></ele><time>2014-7-6T3:46:6Z</time></trkpt>
<trkpt lat="48.94041776" lon="-1.07295586"><ele></ele><time>2014-7-6T3:46:9Z</time></trkpt>
<trkpt lat="48.94020938" lon="-1.07269342"><ele></ele><time>2014-7-6T3:46:12Z</time></trkpt>
<trkpt lat="48.94008474" lon="-1.07243258"><ele></ele><time>2014-7-6T3:46:15Z</time></trkpt>
<trkpt lat="48.93998072" lon="-1.07187753"><ele></ele><time>2014-7-6T3:46:18Z</time></trkpt>
<trkpt lat="48.93997762" lon="-1.07141937"><ele></ele><time>2014-7-6T3:46:21Z</time></trkpt>
<trkpt lat="48.93998718" lon="-1.07128610"><ele></ele><time>2014-7-6T3:46:24Z</time></trkpt>
<trkpt lat="48.93999908" lon="-1.07102282"><ele></ele><time>2014-7-6T3:46:27Z</time></trkpt>
<trkpt lat="48.93997192" lon="-1.07072049"><ele></ele><time>2014-7-6T3:46:30Z</time></trkpt>
<trkpt lat="48.93990168" lon="-1.07039686"><ele></ele><time>2014-7-6T3:46:33Z</time></trkpt>
<trkpt lat="48.93985173" lon="-1.07016225"><ele></ele><time>2014-7-6T3:46:36Z</time></trkpt>
<trkpt lat="48.93977093" lon="-1.06970376"><ele></ele><time>2014-7-6T3:46:39Z</time></trkpt>
<trkpt lat="48.93969767" lon="-1.06918593"><ele></ele><time>2014-7-6T3:46:42Z</time></trkpt>
<trkpt lat="48.93964084" lon="-1.06880564"><ele></ele><time>2014-7-6T3:46:45Z</time></trkpt>
<trkpt lat="48.93960572" lon="-1.06853709"><ele></ele><time>2014-7-6T3:46:48Z</time></trkpt>
<trkpt lat="48.93959465" lon="-1.06807977"><ele></ele><time>2014-7-6T3:46:51Z</time></trkpt>
<trkpt lat="48.93959583" lon="-1.06780987"><ele></ele><time>2014-7-6T3:46:54Z</time></trkpt>
<trkpt lat="48.93959172" lon="-1.06760527"><ele></ele><time>2014-7-6T3:46:57Z</time></trkpt>
<trkpt lat="48.93955895" lon="-1.06730444"><ele></ele><time>2014-7-6T3:47:0Z</time></trkpt>
<trkpt lat="48.93949784" lon="-1.06697680"><ele></ele><time>2014-7-6T3:47:3Z</time></trkpt>
<trkpt lat="48.93942475" lon="-1.06660808"><ele></ele><time>2014-7-6T3:47:6Z</time></trkpt>
<trkpt lat="48.93931487" lon="-1.06611589"><ele></ele><time>2014-7-6T3:47:9Z</time></trkpt>
<trkpt lat="48.93921185" lon="-1.06562329"><ele></ele><time>2014-7-6T3:47:12Z</time></trkpt>
<trkpt lat="48.93914513" lon="-1.06521425"><ele></ele><time>2014-7-6T3:47:15Z</time></trkpt>
<trkpt lat="48.93910264" lon="-1.06479029"><ele></ele><time>2014-7-6T3:47:18Z</time></trkpt>
<trkpt lat="48.93911278" lon="-1.06443917"><ele></ele><time>2014-7-6T3:47:21Z</time></trkpt>
<trkpt lat="48.93916416" lon="-1.06402947"><ele></ele><time>2014-7-6T3:47:24Z</time></trkpt>
<trkpt lat="48.93911848" lon="-1.06380047"><ele></ele><time>2014-7-6T3:47:27Z</time></trkpt>
<trkpt lat="48.93909333" lon="-1.06360249"><ele></ele><time>2014-7-6T3:47:30Z</time></trkpt>
<trkpt lat="48.93918042" lon="-1.06324442"><ele></ele><time>2014-7-6T3:47:33Z</time></trkpt>
<trkpt lat="48.93925393" lon="-1.06301492"><ele></ele><time>2014-7-6T3:47:36Z</time></trkpt>
<trkpt lat="48.93928838" lon="-1.06276128"><ele></ele><time>2014-7-6T3:47:39Z</time></trkpt>
<trkpt lat="48.93923130" lon="-1.06256682"><ele></ele><time>2014-7-6T3:47:42Z</time></trkpt>
<trkpt lat="48.93916399" lon="-1.06223700"><ele></ele><time>2014-7-6T3:47:45Z</time></trkpt>
<trkpt lat="48.93915117" lon="-1.06208746"><ele></ele><time>2014-7-6T3:47:48Z</time></trkpt>
<trkpt lat="48.93913918" lon="-1.06147617"><ele></ele><time>2014-7-6T3:47:51Z</time></trkpt>
<trkpt lat="48.93913843" lon="-1.06135857"><ele></ele><time>2014-7-6T3:47:54Z</time></trkpt>
<trkpt lat="48.93916324" lon="-1.06091534"><ele></ele><time>2014-7-6T3:47:57Z</time></trkpt>
<trkpt lat="48.93923574" lon="-1.06057989"><ele></ele><time>2014-7-6T3:48:0Z</time></trkpt>
<trkpt lat="48.93935778" lon="-1.06021243"><ele></ele><time>2014-7-6T3:48:3Z</time></trkpt>
<trkpt lat="48.93947924" lon="-1.05991655"><ele></ele><time>2014-7-6T3:48:6Z</time></trkpt>
<trkpt lat="48.93962307" lon="-1.05956954"><ele></ele><time>2014-7-6T3:48:9Z</time></trkpt>
<trkpt lat="48.93976112" lon="-1.05920635"><ele></ele><time>2014-7-6T3:48:12Z</time></trkpt>
<trkpt lat="48.93987855" lon="-1.05888826"><ele></ele><time>2014-7-6T3:48:15Z</time></trkpt>
<trkpt lat="48.93995038" lon="-1.05868466"><ele></ele><time>2014-7-6T3:48:18Z</time></trkpt>
<trkpt lat="48.94008106" lon="-1.05824235"><ele></ele><time>2014-7-6T3:48:21Z</time></trkpt>
<trkpt lat="48.94022355" lon="-1.05765025"><ele></ele><time>2014-7-6T3:48:24Z</time></trkpt>
<trkpt lat="48.94030452" lon="-1.05727667"><ele></ele><time>2014-7-6T3:48:27Z</time></trkpt>
<trkpt lat="48.94038884" lon="-1.05675825"><ele></ele><time>2014-7-6T3:48:30Z</time></trkpt>
<trkpt lat="48.94051742" lon="-1.05604210"><ele></ele><time>2014-7-6T3:48:33Z</time></trkpt>
<trkpt lat="48.94070928" lon="-1.05514297"><ele></ele><time>2014-7-6T3:48:36Z</time></trkpt>
<trkpt lat="48.94081137" lon="-1.05454476"><ele></ele><time>2014-7-6T3:48:39Z</time></trkpt>
<trkpt lat="48.94090399" lon="-1.05388133"><ele></ele><time>2014-7-6T3:48:42Z</time></trkpt>
<trkpt lat="48.94096015" lon="-1.05346919"><ele></ele><time>2014-7-6T3:48:45Z</time></trkpt>
<trkpt lat="48.94108563" lon="-1.05303166"><ele></ele><time>2014-7-6T3:48:48Z</time></trkpt>
<trkpt lat="48.94122753" lon="-1.05250745"><ele></ele><time>2014-7-6T3:48:51Z</time></trkpt>
<trkpt lat="48.94140037" lon="-1.05197964"><ele></ele><time>2014-7-6T3:48:54Z</time></trkpt>
<trkpt lat="48.94156843" lon="-1.05155636"><ele></ele><time>2014-7-6T3:48:57Z</time></trkpt>
<trkpt lat="48.94160145" lon="-1.05147505"><ele></ele><time>2014-7-6T3:49:0Z</time></trkpt>
<trkpt lat="48.94171419" lon="-1.05148880"><ele></ele><time>2014-7-6T3:49:3Z</time></trkpt>
<trkpt lat="48.94187093" lon="-1.05171804"><ele></ele><time>2014-7-6T3:49:6Z</time></trkpt>
<trkpt lat="48.94212356" lon="-1.05207545"><ele></ele><time>2014-7-6T3:49:9Z</time></trkpt>
<trkpt lat="48.94236328" lon="-1.05237393"><ele></ele><time>2014-7-6T3:49:12Z</time></trkpt>
<trkpt lat="48.94247250" lon="-1.05249454"><ele></ele><time>2014-7-6T3:49:15Z</time></trkpt>
<trkpt lat="48.94257023" lon="-1.05262488"><ele></ele><time>2014-7-6T3:49:18Z</time></trkpt>
<trkpt lat="48.94269277" lon="-1.05278648"><ele></ele><time>2014-7-6T3:49:21Z</time></trkpt>
<trkpt lat="48.94279210" lon="-1.05292579"><ele></ele><time>2014-7-6T3:49:24Z</time></trkpt>
<trkpt lat="48.94298069" lon="-1.05292923"><ele></ele><time>2014-7-6T3:49:27Z</time></trkpt>
<trkpt lat="48.94317188" lon="-1.05296552"><ele></ele><time>2014-7-6T3:49:30Z</time></trkpt>
<trkpt lat="48.94329887" lon="-1.05300173"><ele></ele><time>2014-7-6T3:49:33Z</time></trkpt>
<trkpt lat="48.94348025" lon="-1.05303744"><ele></ele><time>2014-7-6T3:49:36Z</time></trkpt>
<trkpt lat="48.94367069" lon="-1.05306636"><ele></ele><time>2014-7-6T3:49:39Z</time></trkpt>
<trkpt lat="48.94384738" lon="-1.05309024"><ele></ele><time>2014-7-6T3:49:42Z</time></trkpt>
<trkpt lat="48.94401988" lon="-1.05312922"><ele></ele><time>2014-7-6T3:49:45Z</time></trkpt>
<trkpt lat="48.94414963" lon="-1.05319217"><ele></ele><time>2014-7-6T3:49:48Z</time></trkpt>
<trkpt lat="48.94431098" lon="-1.05329116"><ele></ele><time>2014-7-6T3:49:51Z</time></trkpt>
<trkpt lat="48.94453537" lon="-1.05344379"><ele></ele><time>2014-7-6T3:49:54Z</time></trkpt>
<trkpt lat="48.94468314" lon="-1.05353968"><ele></ele><time>2014-7-6T3:49:57Z</time></trkpt>
<trkpt lat="48.94484424" lon="-1.05363834"><ele></ele><time>2014-7-6T3:50:0Z</time></trkpt>
<trkpt lat="48.94497257" lon="-1.05371302"><ele></ele><time>2014-7-6T3:50:3Z</time></trkpt>
<trkpt lat="48.94511942" lon="-1.05378779"><ele></ele><time>2014-7-6T3:50:6Z</time></trkpt>
<trkpt lat="48.94525093" lon="-1.05383087"><ele></ele><time>2014-7-6T3:50:9Z</time></trkpt>
<trkpt lat="48.94534858" lon="-1.05389558"><ele></ele><time>2014-7-6T3:50:12Z</time></trkpt>
<trkpt lat="48.94536132" lon="-1.05389608"><ele></ele><time>2014-7-6T3:50:15Z</time></trkpt>
<trkpt lat="48.94547054" lon="-1.05390438"><ele></ele><time>2014-7-6T3:50:18Z</time></trkpt>
<trkpt lat="48.94559643" lon="-1.05391595"><ele></ele><time>2014-7-6T3:50:21Z</time></trkpt>
<trkpt lat="48.94570196" lon="-1.05393087"><ele></ele><time>2014-7-6T3:50:24Z</time></trkpt>
<trkpt lat="48.94579827" lon="-1.05392014"><ele></ele><time>2014-7-6T3:50:27Z</time></trkpt>
<trkpt lat="48.94586868" lon="-1.05392760"><ele></ele><time>2014-7-6T3:50:30Z</time></trkpt>
<trkpt lat="48.94598929" lon="-1.05392818"><ele></ele><time>2014-7-6T3:50:33Z</time></trkpt>
<trkpt lat="48.94608309" lon="-1.05394587"><ele></ele><time>2014-7-6T3:50:36Z</time></trkpt>
<trkpt lat="48.94618157" lon="-1.05395366"><ele></ele><time>2014-7-6T3:50:39Z</time></trkpt>
<trkpt lat="48.94628316" lon="-1.05395920"><ele></ele><time>2014-7-6T3:50:42Z</time></trkpt>
<trkpt lat="48.94636857" lon="-1.05397563"><ele></ele><time>2014-7-6T3:50:45Z</time></trkpt>
<trkpt lat="48.94653755" lon="-1.05401988"><ele></ele><time>2014-7-6T3:50:48Z</time></trkpt>
<trkpt lat="48.94657317" lon="-1.05404645"><ele></ele><time>2014-7-6T3:50:51Z</time></trkpt>
<trkpt lat="48.94660134" lon="-1.05406129"><ele></ele><time>2014-7-6T3:50:54Z</time></trkpt>
<trkpt lat="48.94676713" lon="-1.05412859"><ele></ele><time>2014-7-6T3:50:57Z</time></trkpt>
<trkpt lat="48.94692957" lon="-1.05419112"><ele></ele><time>2014-7-6T3:51:0Z</time></trkpt>
<trkpt lat="48.94710325" lon="-1.05426388"><ele></ele><time>2014-7-6T3:51:3Z</time></trkpt>
<trkpt lat="48.94732696" lon="-1.05431300"><ele></ele><time>2014-7-6T3:51:6Z</time></trkpt>
<trkpt lat="48.94749753" lon="-1.05430369"><ele></ele><time>2014-7-6T3:51:9Z</time></trkpt>
<trkpt lat="48.94770507" lon="-1.05428467"><ele></ele><time>2014-7-6T3:51:12Z</time></trkpt>
<trkpt lat="48.94788469" lon="-1.05425432"><ele></ele><time>2014-7-6T3:51:15Z</time></trkpt>
<trkpt lat="48.94804873" lon="-1.05421878"><ele></ele><time>2014-7-6T3:51:18Z</time></trkpt>
<trkpt lat="48.94821863" lon="-1.05417595"><ele></ele><time>2014-7-6T3:51:21Z</time></trkpt>
<trkpt lat="48.94834377" lon="-1.05414486"><ele></ele><time>2014-7-6T3:51:24Z</time></trkpt>
<trkpt lat="48.94854426" lon="-1.05408945"><ele></ele><time>2014-7-6T3:51:27Z</time></trkpt>
<trkpt lat="48.94877904" lon="-1.05402818"><ele></ele><time>2014-7-6T3:51:30Z</time></trkpt>
<trkpt lat="48.94894115" lon="-1.05403740"><ele></ele><time>2014-7-6T3:51:33Z</time></trkpt>
<trkpt lat="48.94908607" lon="-1.05403983"><ele></ele><time>2014-7-6T3:51:36Z</time></trkpt>
<trkpt lat="48.94926687" lon="-1.05398770"><ele></ele><time>2014-7-6T3:51:39Z</time></trkpt>
<trkpt lat="48.94941196" lon="-1.05388502"><ele></ele><time>2014-7-6T3:51:42Z</time></trkpt>
<trkpt lat="48.94953844" lon="-1.05375912"><ele></ele><time>2014-7-6T3:51:45Z</time></trkpt>
<trkpt lat="48.94972636" lon="-1.05365745"><ele></ele><time>2014-7-6T3:51:48Z</time></trkpt>
<trkpt lat="48.94987967" lon="-1.05361738"><ele></ele><time>2014-7-6T3:51:51Z</time></trkpt>
<trkpt lat="48.95006667" lon="-1.05358210"><ele></ele><time>2014-7-6T3:51:54Z</time></trkpt>
<trkpt lat="48.95024864" lon="-1.05354840"><ele></ele><time>2014-7-6T3:51:57Z</time></trkpt>
<trkpt lat="48.95033925" lon="-1.05351202"><ele></ele><time>2014-7-6T3:52:0Z</time></trkpt>
<trkpt lat="48.95045567" lon="-1.05346785"><ele></ele><time>2014-7-6T3:52:3Z</time></trkpt>
<trkpt lat="48.95062599" lon="-1.05343793"><ele></ele><time>2014-7-6T3:52:6Z</time></trkpt>
<trkpt lat="48.95076002" lon="-1.05344765"><ele></ele><time>2014-7-6T3:52:9Z</time></trkpt>
<trkpt lat="48.95086790" lon="-1.05355578"><ele></ele><time>2014-7-6T3:52:12Z</time></trkpt>
<trkpt lat="48.95098709" lon="-1.05369315"><ele></ele><time>2014-7-6T3:52:15Z</time></trkpt>
<trkpt lat="48.95106638" lon="-1.05379860"><ele></ele><time>2014-7-6T3:52:18Z</time></trkpt>
<trkpt lat="48.95124894" lon="-1.05394436"><ele></ele><time>2014-7-6T3:52:21Z</time></trkpt>
<trkpt lat="48.95139277" lon="-1.05408886"><ele></ele><time>2014-7-6T3:52:24Z</time></trkpt>
<trkpt lat="48.95149084" lon="-1.05420512"><ele></ele><time>2014-7-6T3:52:27Z</time></trkpt>
<trkpt lat="48.95160332" lon="-1.05437896"><ele></ele><time>2014-7-6T3:52:30Z</time></trkpt>
<trkpt lat="48.95173559" lon="-1.05451718"><ele></ele><time>2014-7-6T3:52:33Z</time></trkpt>
<trkpt lat="48.95183139" lon="-1.05462137"><ele></ele><time>2014-7-6T3:52:36Z</time></trkpt>
<trkpt lat="48.95205896" lon="-1.05475648"><ele></ele><time>2014-7-6T3:52:39Z</time></trkpt>
<trkpt lat="48.95228737" lon="-1.05495094"><ele></ele><time>2014-7-6T3:52:42Z</time></trkpt>
<trkpt lat="48.95259440" lon="-1.05512118"><ele></ele><time>2014-7-6T3:52:45Z</time></trkpt>
<trkpt lat="48.95293739" lon="-1.05523978"><ele></ele><time>2014-7-6T3:52:48Z</time></trkpt>
<trkpt lat="48.95311014" lon="-1.05531556"><ele></ele><time>2014-7-6T3:52:51Z</time></trkpt>
<trkpt lat="48.95331809" lon="-1.05535612"><ele></ele><time>2014-7-6T3:52:54Z</time></trkpt>
<trkpt lat="48.95363594" lon="-1.05533509"><ele></ele><time>2014-7-6T3:52:57Z</time></trkpt>
<trkpt lat="48.95403215" lon="-1.05538555"><ele></ele><time>2014-7-6T3:53:0Z</time></trkpt>
<trkpt lat="48.95470446" lon="-1.05553265"><ele></ele><time>2014-7-6T3:53:3Z</time></trkpt>
<trkpt lat="48.95493194" lon="-1.05552896"><ele></ele><time>2014-7-6T3:53:6Z</time></trkpt>
<trkpt lat="48.95523847" lon="-1.05563935"><ele></ele><time>2014-7-6T3:53:9Z</time></trkpt>
<trkpt lat="48.95557769" lon="-1.05588888"><ele></ele><time>2014-7-6T3:53:12Z</time></trkpt>
<trkpt lat="48.95573418" lon="-1.05587128"><ele></ele><time>2014-7-6T3:53:15Z</time></trkpt>
<trkpt lat="48.95611857" lon="-1.05581973"><ele></ele><time>2014-7-6T3:53:18Z</time></trkpt>
<trkpt lat="48.95656574" lon="-1.05587077"><ele></ele><time>2014-7-6T3:53:21Z</time></trkpt>
<trkpt lat="48.95692323" lon="-1.05595652"><ele></ele><time>2014-7-6T3:53:24Z</time></trkpt>
<trkpt lat="48.95697218" lon="-1.05596482"><ele></ele><time>2014-7-6T3:53:27Z</time></trkpt>
<trkpt lat="48.95702323" lon="-1.05595468"><ele></ele><time>2014-7-6T3:53:30Z</time></trkpt>
<trkpt lat="48.95704293" lon="-1.05596054"><ele></ele><time>2014-7-6T3:53:33Z</time></trkpt>
<trkpt lat="48.95716572" lon="-1.05598686"><ele></ele><time>2014-7-6T3:53:36Z</time></trkpt>
<trkpt lat="48.95735415" lon="-1.05609868"><ele></ele><time>2014-7-6T3:53:39Z</time></trkpt>
<trkpt lat="48.95747384" lon="-1.05612449"><ele></ele><time>2014-7-6T3:53:42Z</time></trkpt>
<trkpt lat="48.95791649" lon="-1.05616825"><ele></ele><time>2014-7-6T3:53:45Z</time></trkpt>
<trkpt lat="48.95812025" lon="-1.05619356"><ele></ele><time>2014-7-6T3:53:48Z</time></trkpt>
<trkpt lat="48.95814984" lon="-1.05619256"><ele></ele><time>2014-7-6T3:53:51Z</time></trkpt>
<trkpt lat="48.95819485" lon="-1.05610237"><ele></ele><time>2014-7-6T3:53:54Z</time></trkpt>
<trkpt lat="48.95818664" lon="-1.05606205"><ele></ele><time>2014-7-6T3:53:57Z</time></trkpt>
<trkpt lat="48.95811833" lon="-1.05581294"><ele></ele><time>2014-7-6T3:54:0Z</time></trkpt>
<trkpt lat="48.95805018" lon="-1.05560775"><ele></ele><time>2014-7-6T3:54:3Z</time></trkpt>
<trkpt lat="48.95794935" lon="-1.05530608"><ele></ele><time>2014-7-6T3:54:6Z</time></trkpt>
<trkpt lat="48.95780786" lon="-1.05487735"><ele></ele><time>2014-7-6T3:54:9Z</time></trkpt>
<trkpt lat="48.95765975" lon="-1.05441542"><ele></ele><time>2014-7-6T3:54:12Z</time></trkpt>
<trkpt lat="48.95765028" lon="-1.05437083"><ele></ele><time>2014-7-6T3:54:15Z</time></trkpt>
<trkpt lat="48.95772697" lon="-1.05417034"><ele></ele><time>2014-7-6T3:54:18Z</time></trkpt>
<trkpt lat="48.95793879" lon="-1.05397956"><ele></ele><time>2014-7-6T3:54:21Z</time></trkpt>
<trkpt lat="48.95811606" lon="-1.05392793"><ele></ele><time>2014-7-6T3:54:24Z</time></trkpt>
<trkpt lat="48.95819100" lon="-1.05391117"><ele></ele><time>2014-7-6T3:54:27Z</time></trkpt>
<trkpt lat="48.95820709" lon="-1.05392282"><ele></ele><time>2014-7-6T3:54:30Z</time></trkpt>
<trkpt lat="48.95823542" lon="-1.05393112"><ele></ele><time>2014-7-6T3:54:33Z</time></trkpt>
<trkpt lat="48.95837867" lon="-1.05384369"><ele></ele><time>2014-7-6T3:54:36Z</time></trkpt>
<trkpt lat="48.95849249" lon="-1.05370883"><ele></ele><time>2014-7-6T3:54:39Z</time></trkpt>
<trkpt lat="48.95855050" lon="-1.05341429"><ele></ele><time>2014-7-6T3:54:42Z</time></trkpt>
<trkpt lat="48.95858704" lon="-1.05333013"><ele></ele><time>2014-7-6T3:54:45Z</time></trkpt>
<trkpt lat="48.95871210" lon="-1.05332569"><ele></ele><time>2014-7-6T3:54:48Z</time></trkpt>
<trkpt lat="48.95882986" lon="-1.05323215"><ele></ele><time>2014-7-6T3:54:51Z</time></trkpt>
<trkpt lat="48.95886306" lon="-1.05312763"><ele></ele><time>2014-7-6T3:54:54Z</time></trkpt>
<trkpt lat="48.95896155" lon="-1.05263134"><ele></ele><time>2014-7-6T3:54:57Z</time></trkpt>
<trkpt lat="48.95902106" lon="-1.05235012"><ele></ele><time>2014-7-6T3:55:0Z</time></trkpt>
<trkpt lat="48.95906498" lon="-1.05211333"><ele></ele><time>2014-7-6T3:55:3Z</time></trkpt>
<trkpt lat="48.95914134" lon="-1.05175383"><ele></ele><time>2014-7-6T3:55:6Z</time></trkpt>
<trkpt lat="48.95916564" lon="-1.05164177"><ele></ele><time>2014-7-6T3:55:9Z</time></trkpt>
<trkpt lat="48.95917445" lon="-1.05160363"><ele></ele><time>2014-7-6T3:55:12Z</time></trkpt>
<trkpt lat="48.95924184" lon="-1.05133432"><ele></ele><time>2014-7-6T3:55:15Z</time></trkpt>
<trkpt lat="48.95933404" lon="-1.05092646"><ele></ele><time>2014-7-6T3:55:18Z</time></trkpt>
<trkpt lat="48.95934376" lon="-1.05088622"><ele></ele><time>2014-7-6T3:55:21Z</time></trkpt>
<trkpt lat="48.95947024" lon="-1.05050116"><ele></ele><time>2014-7-6T3:55:24Z</time></trkpt>
<trkpt lat="48.95966093" lon="-1.05015247"><ele></ele><time>2014-7-6T3:55:27Z</time></trkpt>
<trkpt lat="48.95984248" lon="-1.04991702"><ele></ele><time>2014-7-6T3:55:30Z</time></trkpt>
<trkpt lat="48.95997567" lon="-1.04977822"><ele></ele><time>2014-7-6T3:55:33Z</time></trkpt>
<trkpt lat="48.96011825" lon="-1.04967705"><ele></ele><time>2014-7-6T3:55:36Z</time></trkpt>
<trkpt lat="48.96021749" lon="-1.04962634"><ele></ele><time>2014-7-6T3:55:39Z</time></trkpt>
<trkpt lat="48.96032369" lon="-1.04958183"><ele></ele><time>2014-7-6T3:55:42Z</time></trkpt>
<trkpt lat="48.96040583" lon="-1.04955870"><ele></ele><time>2014-7-6T3:55:45Z</time></trkpt>
<trkpt lat="48.96044020" lon="-1.04954596"><ele></ele><time>2014-7-6T3:55:48Z</time></trkpt>
<trkpt lat="48.96042402" lon="-1.04955149"><ele></ele><time>2014-7-6T3:55:51Z</time></trkpt>
<trkpt lat="48.96026082" lon="-1.04961829"><ele></ele><time>2014-7-6T3:55:54Z</time></trkpt>
<trkpt lat="48.96009193" lon="-1.04970580"><ele></ele><time>2014-7-6T3:55:57Z</time></trkpt>
<trkpt lat="48.95991440" lon="-1.04985148"><ele></ele><time>2014-7-6T3:56:0Z</time></trkpt>
<trkpt lat="48.95972648" lon="-1.05005683"><ele></ele><time>2014-7-6T3:56:3Z</time></trkpt>
<trkpt lat="48.95952347" lon="-1.05039362"><ele></ele><time>2014-7-6T3:56:6Z</time></trkpt>
<trkpt lat="48.95939154" lon="-1.05074046"><ele></ele><time>2014-7-6T3:56:9Z</time></trkpt>
<trkpt lat="48.95929062" lon="-1.05111505"><ele></ele><time>2014-7-6T3:56:12Z</time></trkpt>
<trkpt lat="48.95917855" lon="-1.05158552"><ele></ele><time>2014-7-6T3:56:15Z</time></trkpt>
<trkpt lat="48.95909867" lon="-1.05203915"><ele></ele><time>2014-7-6T3:56:18Z</time></trkpt>
<trkpt lat="48.95902047" lon="-1.05233730"><ele></ele><time>2014-7-6T3:56:21Z</time></trkpt>
<trkpt lat="48.95894730" lon="-1.05267727"><ele></ele><time>2014-7-6T3:56:24Z</time></trkpt>
<trkpt lat="48.95891729" lon="-1.05292747"><ele></ele><time>2014-7-6T3:56:27Z</time></trkpt>
<trkpt lat="48.95880363" lon="-1.05332368"><ele></ele><time>2014-7-6T3:56:30Z</time></trkpt>
<trkpt lat="48.95864379" lon="-1.05333382"><ele></ele><time>2014-7-6T3:56:33Z</time></trkpt>
<trkpt lat="48.95854144" lon="-1.05348076"><ele></ele><time>2014-7-6T3:56:36Z</time></trkpt>
<trkpt lat="48.95844740" lon="-1.05377513"><ele></ele><time>2014-7-6T3:56:39Z</time></trkpt>
<trkpt lat="48.95826300" lon="-1.05391402"><ele></ele><time>2014-7-6T3:56:42Z</time></trkpt>
<trkpt lat="48.95820348" lon="-1.05393673"><ele></ele><time>2014-7-6T3:56:45Z</time></trkpt>
<trkpt lat="48.95815822" lon="-1.05396045"><ele></ele><time>2014-7-6T3:56:48Z</time></trkpt>
<trkpt lat="48.95807625" lon="-1.05396255"><ele></ele><time>2014-7-6T3:56:51Z</time></trkpt>
<trkpt lat="48.95803199" lon="-1.05397973"><ele></ele><time>2014-7-6T3:56:54Z</time></trkpt>
<trkpt lat="48.95812386" lon="-1.05395425"><ele></ele><time>2014-7-6T3:56:57Z</time></trkpt>
<trkpt lat="48.95816116" lon="-1.05395702"><ele></ele><time>2014-7-6T3:57:0Z</time></trkpt>
<trkpt lat="48.95821958" lon="-1.05404696"><ele></ele><time>2014-7-6T3:57:3Z</time></trkpt>
<trkpt lat="48.95831304" lon="-1.05425365"><ele></ele><time>2014-7-6T3:57:6Z</time></trkpt>
<trkpt lat="48.95839099" lon="-1.05451190"><ele></ele><time>2014-7-6T3:57:9Z</time></trkpt>
<trkpt lat="48.95846517" lon="-1.05507952"><ele></ele><time>2014-7-6T3:57:12Z</time></trkpt>
<trkpt lat="48.95852694" lon="-1.05590547"><ele></ele><time>2014-7-6T3:57:15Z</time></trkpt>
<trkpt lat="48.95858503" lon="-1.05636648"><ele></ele><time>2014-7-6T3:57:18Z</time></trkpt>
<trkpt lat="48.95860816" lon="-1.05648425"><ele></ele><time>2014-7-6T3:57:21Z</time></trkpt>
<trkpt lat="48.95869165" lon="-1.05683092"><ele></ele><time>2014-7-6T3:57:24Z</time></trkpt>
<trkpt lat="48.95889759" lon="-1.05720358"><ele></ele><time>2014-7-6T3:57:27Z</time></trkpt>
<trkpt lat="48.95898493" lon="-1.05730592"><ele></ele><time>2014-7-6T3:57:30Z</time></trkpt>
<trkpt lat="48.95917989" lon="-1.05747197"><ele></ele><time>2014-7-6T3:57:33Z</time></trkpt>
<trkpt lat="48.95937259" lon="-1.05759778"><ele></ele><time>2014-7-6T3:57:36Z</time></trkpt>
<trkpt lat="48.95956404" lon="-1.05767489"><ele></ele><time>2014-7-6T3:57:39Z</time></trkpt>
<trkpt lat="48.95988884" lon="-1.05785737"><ele></ele><time>2014-7-6T3:57:42Z</time></trkpt>
<trkpt lat="48.96013585" lon="-1.05804588"><ele></ele><time>2014-7-6T3:57:45Z</time></trkpt>
<trkpt lat="48.96031874" lon="-1.05815300"><ele></ele><time>2014-7-6T3:57:48Z</time></trkpt>
<trkpt lat="48.96053835" lon="-1.05830974"><ele></ele><time>2014-7-6T3:57:51Z</time></trkpt>
<trkpt lat="48.96085518" lon="-1.05851954"><ele></ele><time>2014-7-6T3:57:54Z</time></trkpt>
<trkpt lat="48.96108376" lon="-1.05867058"><ele></ele><time>2014-7-6T3:57:57Z</time></trkpt>
<trkpt lat="48.96124193" lon="-1.05880067"><ele></ele><time>2014-7-6T3:58:0Z</time></trkpt>
<trkpt lat="48.96140244" lon="-1.05890293"><ele></ele><time>2014-7-6T3:58:3Z</time></trkpt>
<trkpt lat="48.96171852" lon="-1.05910443"><ele></ele><time>2014-7-6T3:58:6Z</time></trkpt>
<trkpt lat="48.96202220" lon="-1.05927508"><ele></ele><time>2014-7-6T3:58:9Z</time></trkpt>
<trkpt lat="48.96226326" lon="-1.05936527"><ele></ele><time>2014-7-6T3:58:12Z</time></trkpt>
<trkpt lat="48.96250499" lon="-1.05944649"><ele></ele><time>2014-7-6T3:58:15Z</time></trkpt>
<trkpt lat="48.96277254" lon="-1.05955135"><ele></ele><time>2014-7-6T3:58:18Z</time></trkpt>
<trkpt lat="48.96298218" lon="-1.05964833"><ele></ele><time>2014-7-6T3:58:21Z</time></trkpt>
<trkpt lat="48.96316289" lon="-1.05970734"><ele></ele><time>2014-7-6T3:58:24Z</time></trkpt>
<trkpt lat="48.96330488" lon="-1.05977356"><ele></ele><time>2014-7-6T3:58:27Z</time></trkpt>
<trkpt lat="48.96346372" lon="-1.05984698"><ele></ele><time>2014-7-6T3:58:30Z</time></trkpt>
<trkpt lat="48.96361736" lon="-1.05991705"><ele></ele><time>2014-7-6T3:58:33Z</time></trkpt>
<trkpt lat="48.96378273" lon="-1.05999283"><ele></ele><time>2014-7-6T3:58:36Z</time></trkpt>
<trkpt lat="48.96395263" lon="-1.06006935"><ele></ele><time>2014-7-6T3:58:39Z</time></trkpt>
<trkpt lat="48.96415204" lon="-1.06014714"><ele></ele><time>2014-7-6T3:58:42Z</time></trkpt>
<trkpt lat="48.96435932" lon="-1.06021352"><ele></ele><time>2014-7-6T3:58:45Z</time></trkpt>
<trkpt lat="48.96451523" lon="-1.06025786"><ele></ele><time>2014-7-6T3:58:48Z</time></trkpt>
<trkpt lat="48.96472620" lon="-1.06030773"><ele></ele><time>2014-7-6T3:58:51Z</time></trkpt>
<trkpt lat="48.96488629" lon="-1.06032944"><ele></ele><time>2014-7-6T3:58:54Z</time></trkpt>
<trkpt lat="48.96510523" lon="-1.06034143"><ele></ele><time>2014-7-6T3:58:57Z</time></trkpt>
<trkpt lat="48.96531452" lon="-1.06033732"><ele></ele><time>2014-7-6T3:59:0Z</time></trkpt>
<trkpt lat="48.96551133" lon="-1.06035928"><ele></ele><time>2014-7-6T3:59:3Z</time></trkpt>
<trkpt lat="48.96570906" lon="-1.06040136"><ele></ele><time>2014-7-6T3:59:6Z</time></trkpt>
<trkpt lat="48.96594778" lon="-1.06045978"><ele></ele><time>2014-7-6T3:59:9Z</time></trkpt>
<trkpt lat="48.96614852" lon="-1.06049884"><ele></ele><time>2014-7-6T3:59:12Z</time></trkpt>
<trkpt lat="48.96634265" lon="-1.06051837"><ele></ele><time>2014-7-6T3:59:15Z</time></trkpt>
<trkpt lat="48.96652638" lon="-1.06049792"><ele></ele><time>2014-7-6T3:59:18Z</time></trkpt>
<trkpt lat="48.96668790" lon="-1.06047562"><ele></ele><time>2014-7-6T3:59:21Z</time></trkpt>
<trkpt lat="48.96689619" lon="-1.06044595"><ele></ele><time>2014-7-6T3:59:24Z</time></trkpt>
<trkpt lat="48.96708093" lon="-1.06041108"><ele></ele><time>2014-7-6T3:59:27Z</time></trkpt>
<trkpt lat="48.96728762" lon="-1.06037982"><ele></ele><time>2014-7-6T3:59:30Z</time></trkpt>
<trkpt lat="48.96750044" lon="-1.06033388"><ele></ele><time>2014-7-6T3:59:33Z</time></trkpt>
<trkpt lat="48.96763598" lon="-1.06029717"><ele></ele><time>2014-7-6T3:59:36Z</time></trkpt>
<trkpt lat="48.96785550" lon="-1.06023112"><ele></ele><time>2014-7-6T3:59:39Z</time></trkpt>
<trkpt lat="48.96805599" lon="-1.06010648"><ele></ele><time>2014-7-6T3:59:42Z</time></trkpt>
<trkpt lat="48.96822606" lon="-1.05991714"><ele></ele><time>2014-7-6T3:59:45Z</time></trkpt>
<trkpt lat="48.96843687" lon="-1.05967507"><ele></ele><time>2014-7-6T3:59:48Z</time></trkpt>
<trkpt lat="48.96862479" lon="-1.05947600"><ele></ele><time>2014-7-6T3:59:51Z</time></trkpt>
<trkpt lat="48.96881078" lon="-1.05927886"><ele></ele><time>2014-7-6T3:59:54Z</time></trkpt>
<trkpt lat="48.96884154" lon="-1.05924365"><ele></ele><time>2014-7-6T3:59:57Z</time></trkpt>
<trkpt lat="48.96900298" lon="-1.05906160"><ele></ele><time>2014-7-6T4:0:0Z</time></trkpt>
<trkpt lat="48.96921898" lon="-1.05887007"><ele></ele><time>2014-7-6T4:0:3Z</time></trkpt>
<trkpt lat="48.96938168" lon="-1.05872448"><ele></ele><time>2014-7-6T4:0:6Z</time></trkpt>
<trkpt lat="48.96960832" lon="-1.05852013"><ele></ele><time>2014-7-6T4:0:9Z</time></trkpt>
<trkpt lat="48.96983430" lon="-1.05833438"><ele></ele><time>2014-7-6T4:0:12Z</time></trkpt>
<trkpt lat="48.97002507" lon="-1.05819357"><ele></ele><time>2014-7-6T4:0:15Z</time></trkpt>
<trkpt lat="48.97021065" lon="-1.05806130"><ele></ele><time>2014-7-6T4:0:18Z</time></trkpt>
<trkpt lat="48.97037837" lon="-1.05795167"><ele></ele><time>2014-7-6T4:0:21Z</time></trkpt>
<trkpt lat="48.97054668" lon="-1.05782879"><ele></ele><time>2014-7-6T4:0:24Z</time></trkpt>
<trkpt lat="48.97074357" lon="-1.05769736"><ele></ele><time>2014-7-6T4:0:27Z</time></trkpt>
<trkpt lat="48.97100785" lon="-1.05751413"><ele></ele><time>2014-7-6T4:0:30Z</time></trkpt>
<trkpt lat="48.97118932" lon="-1.05735202"><ele></ele><time>2014-7-6T4:0:33Z</time></trkpt>
<trkpt lat="48.97131085" lon="-1.05721665"><ele></ele><time>2014-7-6T4:0:36Z</time></trkpt>
<trkpt lat="48.97141655" lon="-1.05704583"><ele></ele><time>2014-7-6T4:0:39Z</time></trkpt>
<trkpt lat="48.97151512" lon="-1.05687912"><ele></ele><time>2014-7-6T4:0:42Z</time></trkpt>
<trkpt lat="48.97167647" lon="-1.05666328"><ele></ele><time>2014-7-6T4:0:45Z</time></trkpt>
<trkpt lat="48.97186138" lon="-1.05655977"><ele></ele><time>2014-7-6T4:0:48Z</time></trkpt>
<trkpt lat="48.97206824" lon="-1.05646103"><ele></ele><time>2014-7-6T4:0:51Z</time></trkpt>
<trkpt lat="48.97235214" lon="-1.05633245"><ele></ele><time>2014-7-6T4:0:54Z</time></trkpt>
<trkpt lat="48.97267325" lon="-1.05621309"><ele></ele><time>2014-7-6T4:0:57Z</time></trkpt>
<trkpt lat="48.97295169" lon="-1.05609658"><ele></ele><time>2014-7-6T4:1:0Z</time></trkpt>
<trkpt lat="48.97321556" lon="-1.05599273"><ele></ele><time>2014-7-6T4:1:3Z</time></trkpt>
<trkpt lat="48.97346442" lon="-1.05590422"><ele></ele><time>2014-7-6T4:1:6Z</time></trkpt>
<trkpt lat="48.97348948" lon="-1.05590506"><ele></ele><time>2014-7-6T4:1:9Z</time></trkpt>
<trkpt lat="48.97353365" lon="-1.05602576"><ele></ele><time>2014-7-6T4:1:12Z</time></trkpt>
<trkpt lat="48.97354983" lon="-1.05655289"><ele></ele><time>2014-7-6T4:1:15Z</time></trkpt>
<trkpt lat="48.97359752" lon="-1.05690049"><ele></ele><time>2014-7-6T4:1:18Z</time></trkpt>
<trkpt lat="48.97362828" lon="-1.05714222"><ele></ele><time>2014-7-6T4:1:21Z</time></trkpt>
<trkpt lat="48.97370540" lon="-1.05738262"><ele></ele><time>2014-7-6T4:1:24Z</time></trkpt>
<trkpt lat="48.97372778" lon="-1.05741329"><ele></ele><time>2014-7-6T4:1:27Z</time></trkpt>
<trkpt lat="48.97379902" lon="-1.05740198"><ele></ele><time>2014-7-6T4:1:30Z</time></trkpt>
<trkpt lat="48.97387203" lon="-1.05731715"><ele></ele><time>2014-7-6T4:1:33Z</time></trkpt>
<trkpt lat="48.97404084" lon="-1.05714248"><ele></ele><time>2014-7-6T4:1:36Z</time></trkpt>
<trkpt lat="48.97420697" lon="-1.05691256"><ele></ele><time>2014-7-6T4:1:39Z</time></trkpt>
<trkpt lat="48.97430403" lon="-1.05677736"><ele></ele><time>2014-7-6T4:1:42Z</time></trkpt>
<trkpt lat="48.97448885" lon="-1.05645994"><ele></ele><time>2014-7-6T4:1:45Z</time></trkpt>
<trkpt lat="48.97474576" lon="-1.05605082"><ele></ele><time>2014-7-6T4:1:48Z</time></trkpt>
<trkpt lat="48.97486084" lon="-1.05583414"><ele></ele><time>2014-7-6T4:1:51Z</time></trkpt>
<trkpt lat="48.97495866" lon="-1.05541413"><ele></ele><time>2014-7-6T4:1:54Z</time></trkpt>
<trkpt lat="48.97501658" lon="-1.05497525"><ele></ele><time>2014-7-6T4:1:57Z</time></trkpt>
<trkpt lat="48.97496142" lon="-1.05471935"><ele></ele><time>2014-7-6T4:2:0Z</time></trkpt>
<trkpt lat="48.97493536" lon="-1.05472555"><ele></ele><time>2014-7-6T4:2:3Z</time></trkpt>
<trkpt lat="48.97474945" lon="-1.05471843"><ele></ele><time>2014-7-6T4:2:6Z</time></trkpt>
<trkpt lat="48.97464073" lon="-1.05466395"><ele></ele><time>2014-7-6T4:2:9Z</time></trkpt>
<trkpt lat="48.97458776" lon="-1.05464039"><ele></ele><time>2014-7-6T4:2:12Z</time></trkpt>
<trkpt lat="48.97448592" lon="-1.05469429"><ele></ele><time>2014-7-6T4:2:15Z</time></trkpt>
<trkpt lat="48.97428827" lon="-1.05475933"><ele></ele><time>2014-7-6T4:2:18Z</time></trkpt>
<trkpt lat="48.97410136" lon="-1.05474299"><ele></ele><time>2014-7-6T4:2:21Z</time></trkpt>
<trkpt lat="48.97393984" lon="-1.05476269"><ele></ele><time>2014-7-6T4:2:24Z</time></trkpt>
<trkpt lat="48.97377689" lon="-1.05470519"><ele></ele><time>2014-7-6T4:2:27Z</time></trkpt>
<trkpt lat="48.97369199" lon="-1.05465322"><ele></ele><time>2014-7-6T4:2:30Z</time></trkpt>
<trkpt lat="48.97356139" lon="-1.05456102"><ele></ele><time>2014-7-6T4:2:33Z</time></trkpt>
<trkpt lat="48.97339426" lon="-1.05453998"><ele></ele><time>2014-7-6T4:2:36Z</time></trkpt>
<trkpt lat="48.97324012" lon="-1.05451584"><ele></ele><time>2014-7-6T4:2:39Z</time></trkpt>
<trkpt lat="48.97311799" lon="-1.05452799"><ele></ele><time>2014-7-6T4:2:42Z</time></trkpt>
<trkpt lat="48.97299319" lon="-1.05458365"><ele></ele><time>2014-7-6T4:2:45Z</time></trkpt>
<trkpt lat="48.97286704" lon="-1.05458457"><ele></ele><time>2014-7-6T4:2:48Z</time></trkpt>
<trkpt lat="48.97275254" lon="-1.05460703"><ele></ele><time>2014-7-6T4:2:51Z</time></trkpt>
<trkpt lat="48.97263846" lon="-1.05460946"><ele></ele><time>2014-7-6T4:2:54Z</time></trkpt>
<trkpt lat="48.97260829" lon="-1.05461894"><ele></ele><time>2014-7-6T4:2:57Z</time></trkpt>
<trkpt lat="48.97245557" lon="-1.05467233"><ele></ele><time>2014-7-6T4:3:0Z</time></trkpt>
<trkpt lat="48.97229405" lon="-1.05463972"><ele></ele><time>2014-7-6T4:3:3Z</time></trkpt>
<trkpt lat="48.97220068" lon="-1.05455909"><ele></ele><time>2014-7-6T4:3:6Z</time></trkpt>
<trkpt lat="48.97202424" lon="-1.05450008"><ele></ele><time>2014-7-6T4:3:9Z</time></trkpt>
<trkpt lat="48.97197428" lon="-1.05446613"><ele></ele><time>2014-7-6T4:3:12Z</time></trkpt>
<trkpt lat="48.97198149" lon="-1.05440067"><ele></ele><time>2014-7-6T4:3:15Z</time></trkpt>
<trkpt lat="48.97196590" lon="-1.05433060"><ele></ele><time>2014-7-6T4:3:18Z</time></trkpt>
<trkpt lat="48.97190597" lon="-1.05428877"><ele></ele><time>2014-7-6T4:3:21Z</time></trkpt>
<trkpt lat="48.97188543" lon="-1.05428073"><ele></ele><time>2014-7-6T4:3:24Z</time></trkpt>
<trkpt lat="48.97183053" lon="-1.05426648"><ele></ele><time>2014-7-6T4:3:27Z</time></trkpt>
<trkpt lat="48.97175585" lon="-1.05423848"><ele></ele><time>2014-7-6T4:3:30Z</time></trkpt>
<trkpt lat="48.97173179" lon="-1.05423345"><ele></ele><time>2014-7-6T4:3:33Z</time></trkpt>
<trkpt lat="48.97164177" lon="-1.05422348"><ele></ele><time>2014-7-6T4:3:36Z</time></trkpt>
<trkpt lat="48.97149894" lon="-1.05422356"><ele></ele><time>2014-7-6T4:3:39Z</time></trkpt>
<trkpt lat="48.97130784" lon="-1.05424435"><ele></ele><time>2014-7-6T4:3:42Z</time></trkpt>
<trkpt lat="48.97113752" lon="-1.05425634"><ele></ele><time>2014-7-6T4:3:45Z</time></trkpt>
<trkpt lat="48.97098715" lon="-1.05426706"><ele></ele><time>2014-7-6T4:3:48Z</time></trkpt>
<trkpt lat="48.97077852" lon="-1.05429749"><ele></ele><time>2014-7-6T4:3:51Z</time></trkpt>
<trkpt lat="48.97059135" lon="-1.05433672"><ele></ele><time>2014-7-6T4:3:54Z</time></trkpt>
<trkpt lat="48.97041055" lon="-1.05435868"><ele></ele><time>2014-7-6T4:3:57Z</time></trkpt>
<trkpt lat="48.97038784" lon="-1.05434317"><ele></ele><time>2014-7-6T4:4:0Z</time></trkpt>
<trkpt lat="48.97035624" lon="-1.05415382"><ele></ele><time>2014-7-6T4:4:3Z</time></trkpt>
<trkpt lat="48.97036018" lon="-1.05385442"><ele></ele><time>2014-7-6T4:4:6Z</time></trkpt>
<trkpt lat="48.97036353" lon="-1.05357975"><ele></ele><time>2014-7-6T4:4:9Z</time></trkpt>
<trkpt lat="48.97036554" lon="-1.05320072"><ele></ele><time>2014-7-6T4:4:12Z</time></trkpt>
<trkpt lat="48.97035892" lon="-1.05289922"><ele></ele><time>2014-7-6T4:4:15Z</time></trkpt>
<trkpt lat="48.97036085" lon="-1.05267266"><ele></ele><time>2014-7-6T4:4:18Z</time></trkpt>
<trkpt lat="48.97037032" lon="-1.05247258"><ele></ele><time>2014-7-6T4:4:21Z</time></trkpt>
<trkpt lat="48.97036378" lon="-1.05217754"><ele></ele><time>2014-7-6T4:4:24Z</time></trkpt>
<trkpt lat="48.97036496" lon="-1.05198735"><ele></ele><time>2014-7-6T4:4:27Z</time></trkpt>
<trkpt lat="48.97036462" lon="-1.05170547"><ele></ele><time>2014-7-6T4:4:30Z</time></trkpt>
<trkpt lat="48.97035339" lon="-1.05147187"><ele></ele><time>2014-7-6T4:4:33Z</time></trkpt>
<trkpt lat="48.97034794" lon="-1.05123575"><ele></ele><time>2014-7-6T4:4:36Z</time></trkpt>
<trkpt lat="48.97034995" lon="-1.05101866"><ele></ele><time>2014-7-6T4:4:39Z</time></trkpt>
<trkpt lat="48.97034534" lon="-1.05080140"><ele></ele><time>2014-7-6T4:4:42Z</time></trkpt>
<trkpt lat="48.97034434" lon="-1.05057358"><ele></ele><time>2014-7-6T4:4:45Z</time></trkpt>
<trkpt lat="48.97034316" lon="-1.05032698"><ele></ele><time>2014-7-6T4:4:48Z</time></trkpt>
<trkpt lat="48.97034283" lon="-1.05005993"><ele></ele><time>2014-7-6T4:4:51Z</time></trkpt>
<trkpt lat="48.97035674" lon="-1.04972357"><ele></ele><time>2014-7-6T4:4:54Z</time></trkpt>
<trkpt lat="48.97039169" lon="-1.04936273"><ele></ele><time>2014-7-6T4:4:57Z</time></trkpt>
<trkpt lat="48.97044039" lon="-1.04903676"><ele></ele><time>2014-7-6T4:5:0Z</time></trkpt>
<trkpt lat="48.97052723" lon="-1.04889343"><ele></ele><time>2014-7-6T4:5:3Z</time></trkpt>
<trkpt lat="48.97068447" lon="-1.04892125"><ele></ele><time>2014-7-6T4:5:6Z</time></trkpt>
<trkpt lat="48.97095789" lon="-1.04900809"><ele></ele><time>2014-7-6T4:5:9Z</time></trkpt>
<trkpt lat="48.97109854" lon="-1.04905729"><ele></ele><time>2014-7-6T4:5:12Z</time></trkpt>
<trkpt lat="48.97126090" lon="-1.04911412"><ele></ele><time>2014-7-6T4:5:15Z</time></trkpt>
<trkpt lat="48.97142032" lon="-1.04905042"><ele></ele><time>2014-7-6T4:5:18Z</time></trkpt>
<trkpt lat="48.97145377" lon="-1.04890994"><ele></ele><time>2014-7-6T4:5:21Z</time></trkpt>
<trkpt lat="48.97141655" lon="-1.04847232"><ele></ele><time>2014-7-6T4:5:24Z</time></trkpt>
<trkpt lat="48.97138755" lon="-1.04788064"><ele></ele><time>2014-7-6T4:5:27Z</time></trkpt>
<trkpt lat="48.97138503" lon="-1.04737890"><ele></ele><time>2014-7-6T4:5:30Z</time></trkpt>
<trkpt lat="48.97141102" lon="-1.04676417"><ele></ele><time>2014-7-6T4:5:33Z</time></trkpt>
<trkpt lat="48.97144530" lon="-1.04625514"><ele></ele><time>2014-7-6T4:5:36Z</time></trkpt>
<trkpt lat="48.97147288" lon="-1.04568014"><ele></ele><time>2014-7-6T4:5:39Z</time></trkpt>
<trkpt lat="48.97152082" lon="-1.04512174"><ele></ele><time>2014-7-6T4:5:42Z</time></trkpt>
<trkpt lat="48.97159223" lon="-1.04451497"><ele></ele><time>2014-7-6T4:5:45Z</time></trkpt>
<trkpt lat="48.97165543" lon="-1.04393109"><ele></ele><time>2014-7-6T4:5:48Z</time></trkpt>
<trkpt lat="48.97169055" lon="-1.04364057"><ele></ele><time>2014-7-6T4:5:51Z</time></trkpt>
<trkpt lat="48.97172987" lon="-1.04340269"><ele></ele><time>2014-7-6T4:5:54Z</time></trkpt>
<trkpt lat="48.97190295" lon="-1.04340554"><ele></ele><time>2014-7-6T4:5:57Z</time></trkpt>
<trkpt lat="48.97234946" lon="-1.04364007"><ele></ele><time>2014-7-6T4:6:0Z</time></trkpt>
<trkpt lat="48.97280049" lon="-1.04366848"><ele></ele><time>2014-7-6T4:6:3Z</time></trkpt>
<trkpt lat="48.97319485" lon="-1.04380494"><ele></ele><time>2014-7-6T4:6:6Z</time></trkpt>
<trkpt lat="48.97360305" lon="-1.04385205"><ele></ele><time>2014-7-6T4:6:9Z</time></trkpt>
<trkpt lat="48.97368436" lon="-1.04383956"><ele></ele><time>2014-7-6T4:6:12Z</time></trkpt>
<trkpt lat="48.97399734" lon="-1.04376798"><ele></ele><time>2014-7-6T4:6:15Z</time></trkpt>
<trkpt lat="48.97422968" lon="-1.04376965"><ele></ele><time>2014-7-6T4:6:18Z</time></trkpt>
<trkpt lat="48.97477233" lon="-1.04366823"><ele></ele><time>2014-7-6T4:6:21Z</time></trkpt>
<trkpt lat="48.97495916" lon="-1.04362414"><ele></ele><time>2014-7-6T4:6:24Z</time></trkpt>
<trkpt lat="48.97498942" lon="-1.04361719"><ele></ele><time>2014-7-6T4:6:27Z</time></trkpt>
<trkpt lat="48.97509160" lon="-1.04358802"><ele></ele><time>2014-7-6T4:6:30Z</time></trkpt>
<trkpt lat="48.97523275" lon="-1.04360755"><ele></ele><time>2014-7-6T4:6:33Z</time></trkpt>
<trkpt lat="48.97546534" lon="-1.04363395"><ele></ele><time>2014-7-6T4:6:36Z</time></trkpt>
<trkpt lat="48.97571672" lon="-1.04368097"><ele></ele><time>2014-7-6T4:6:39Z</time></trkpt>
<trkpt lat="48.97608837" lon="-1.04371106"><ele></ele><time>2014-7-6T4:6:42Z</time></trkpt>
<trkpt lat="48.97644728" lon="-1.04377368"><ele></ele><time>2014-7-6T4:6:45Z</time></trkpt>
<trkpt lat="48.97672053" lon="-1.04380628"><ele></ele><time>2014-7-6T4:6:48Z</time></trkpt>
<trkpt lat="48.97681927" lon="-1.04380435"><ele></ele><time>2014-7-6T4:6:51Z</time></trkpt>
<trkpt lat="48.97695464" lon="-1.04379044"><ele></ele><time>2014-7-6T4:6:54Z</time></trkpt>
<trkpt lat="48.97702262" lon="-1.04374987"><ele></ele><time>2014-7-6T4:6:57Z</time></trkpt>
<trkpt lat="48.97708314" lon="-1.04364635"><ele></ele><time>2014-7-6T4:7:0Z</time></trkpt>
<trkpt lat="48.97711046" lon="-1.04340873"><ele></ele><time>2014-7-6T4:7:3Z</time></trkpt>
<trkpt lat="48.97711817" lon="-1.04310262"><ele></ele><time>2014-7-6T4:7:6Z</time></trkpt>
<trkpt lat="48.97709604" lon="-1.04273147"><ele></ele><time>2014-7-6T4:7:9Z</time></trkpt>
<trkpt lat="48.97706922" lon="-1.04244405"><ele></ele><time>2014-7-6T4:7:12Z</time></trkpt>
<trkpt lat="48.97707886" lon="-1.04212504"><ele></ele><time>2014-7-6T4:7:15Z</time></trkpt>
<trkpt lat="48.97708305" lon="-1.04182874"><ele></ele><time>2014-7-6T4:7:18Z</time></trkpt>
<trkpt lat="48.97711105" lon="-1.04165783"><ele></ele><time>2014-7-6T4:7:21Z</time></trkpt>
<trkpt lat="48.97717944" lon="-1.04150637"><ele></ele><time>2014-7-6T4:7:24Z</time></trkpt>
<trkpt lat="48.97722395" lon="-1.04142138"><ele></ele><time>2014-7-6T4:7:27Z</time></trkpt>
<trkpt lat="48.97729436" lon="-1.04134535"><ele></ele><time>2014-7-6T4:7:30Z</time></trkpt>
<trkpt lat="48.97731909" lon="-1.04129833"><ele></ele><time>2014-7-6T4:7:33Z</time></trkpt>
<trkpt lat="48.97738673" lon="-1.04115659"><ele></ele><time>2014-7-6T4:7:36Z</time></trkpt>
<trkpt lat="48.97744658" lon="-1.04105559"><ele></ele><time>2014-7-6T4:7:39Z</time></trkpt>
<trkpt lat="48.97751464" lon="-1.04095702"><ele></ele><time>2014-7-6T4:7:42Z</time></trkpt>
<trkpt lat="48.97761564" lon="-1.04081118"><ele></ele><time>2014-7-6T4:7:45Z</time></trkpt>
<trkpt lat="48.97765537" lon="-1.04073138"><ele></ele><time>2014-7-6T4:7:48Z</time></trkpt>
<trkpt lat="48.97771186" lon="-1.04063080"><ele></ele><time>2014-7-6T4:7:51Z</time></trkpt>
<trkpt lat="48.97780775" lon="-1.04049367"><ele></ele><time>2014-7-6T4:7:54Z</time></trkpt>
<trkpt lat="48.97788076" lon="-1.04039124"><ele></ele><time>2014-7-6T4:7:57Z</time></trkpt>
<trkpt lat="48.97790599" lon="-1.04035813"><ele></ele><time>2014-7-6T4:8:0Z</time></trkpt>
<trkpt lat="48.97796776" lon="-1.04029879"><ele></ele><time>2014-7-6T4:8:3Z</time></trkpt>
<trkpt lat="48.97801965" lon="-1.04023375"><ele></ele><time>2014-7-6T4:8:6Z</time></trkpt>
<trkpt lat="48.97813138" lon="-1.04014800"><ele></ele><time>2014-7-6T4:8:9Z</time></trkpt>
<trkpt lat="48.97821276" lon="-1.04007415"><ele></ele><time>2014-7-6T4:8:12Z</time></trkpt>
<trkpt lat="48.97832718" lon="-1.03998539"><ele></ele><time>2014-7-6T4:8:15Z</time></trkpt>
<trkpt lat="48.97845400" lon="-1.03990518"><ele></ele><time>2014-7-6T4:8:18Z</time></trkpt>
<trkpt lat="48.97857545" lon="-1.03981968"><ele></ele><time>2014-7-6T4:8:21Z</time></trkpt>
<trkpt lat="48.97868140" lon="-1.03976327"><ele></ele><time>2014-7-6T4:8:24Z</time></trkpt>
<trkpt lat="48.97877100" lon="-1.03968616"><ele></ele><time>2014-7-6T4:8:27Z</time></trkpt>
<trkpt lat="48.97892129" lon="-1.03956093"><ele></ele><time>2014-7-6T4:8:30Z</time></trkpt>
<trkpt lat="48.97909035" lon="-1.03941182"><ele></ele><time>2014-7-6T4:8:33Z</time></trkpt>
<trkpt lat="48.97927794" lon="-1.03930092"><ele></ele><time>2014-7-6T4:8:36Z</time></trkpt>
<trkpt lat="48.97939654" lon="-1.03920654"><ele></ele><time>2014-7-6T4:8:39Z</time></trkpt>
<trkpt lat="48.97956200" lon="-1.03907805"><ele></ele><time>2014-7-6T4:8:42Z</time></trkpt>
<trkpt lat="48.97977934" lon="-1.03888686"><ele></ele><time>2014-7-6T4:8:45Z</time></trkpt>
<trkpt lat="48.97999635" lon="-1.03866465"><ele></ele><time>2014-7-6T4:8:48Z</time></trkpt>
<trkpt lat="48.98016885" lon="-1.03843164"><ele></ele><time>2014-7-6T4:8:51Z</time></trkpt>
<trkpt lat="48.98033775" lon="-1.03820457"><ele></ele><time>2014-7-6T4:8:54Z</time></trkpt>
<trkpt lat="48.98055199" lon="-1.03791288"><ele></ele><time>2014-7-6T4:8:57Z</time></trkpt>
<trkpt lat="48.98074217" lon="-1.03771825"><ele></ele><time>2014-7-6T4:9:0Z</time></trkpt>
<trkpt lat="48.98089296" lon="-1.03759923"><ele></ele><time>2014-7-6T4:9:3Z</time></trkpt>
<trkpt lat="48.98105767" lon="-1.03746529"><ele></ele><time>2014-7-6T4:9:6Z</time></trkpt>
<trkpt lat="48.98114568" lon="-1.03731676"><ele></ele><time>2014-7-6T4:9:9Z</time></trkpt>
<trkpt lat="48.98131206" lon="-1.03695852"><ele></ele><time>2014-7-6T4:9:12Z</time></trkpt>
<trkpt lat="48.98143108" lon="-1.03664889"><ele></ele><time>2014-7-6T4:9:15Z</time></trkpt>
<trkpt lat="48.98158103" lon="-1.03622896"><ele></ele><time>2014-7-6T4:9:18Z</time></trkpt>
<trkpt lat="48.98175328" lon="-1.03582176"><ele></ele><time>2014-7-6T4:9:21Z</time></trkpt>
<trkpt lat="48.98193877" lon="-1.03543972"><ele></ele><time>2014-7-6T4:9:24Z</time></trkpt>
<trkpt lat="48.98218713" lon="-1.03508935"><ele></ele><time>2014-7-6T4:9:27Z</time></trkpt>
<trkpt lat="48.98237698" lon="-1.03481024"><ele></ele><time>2014-7-6T4:9:30Z</time></trkpt>
<trkpt lat="48.98259734" lon="-1.03448175"><ele></ele><time>2014-7-6T4:9:33Z</time></trkpt>
<trkpt lat="48.98262215" lon="-1.03444680"><ele></ele><time>2014-7-6T4:9:36Z</time></trkpt>
<trkpt lat="48.98285466" lon="-1.03405880"><ele></ele><time>2014-7-6T4:9:39Z</time></trkpt>
<trkpt lat="48.98288065" lon="-1.03380256"><ele></ele><time>2014-7-6T4:9:42Z</time></trkpt>
<trkpt lat="48.98293722" lon="-1.03350417"><ele></ele><time>2014-7-6T4:9:45Z</time></trkpt>
<trkpt lat="48.98302213" lon="-1.03314735"><ele></ele><time>2014-7-6T4:9:48Z</time></trkpt>
<trkpt lat="48.98306874" lon="-1.03292448"><ele></ele><time>2014-7-6T4:9:51Z</time></trkpt>
<trkpt lat="48.98312607" lon="-1.03268308"><ele></ele><time>2014-7-6T4:9:54Z</time></trkpt>
<trkpt lat="48.98318189" lon="-1.03240329"><ele></ele><time>2014-7-6T4:9:57Z</time></trkpt>
<trkpt lat="48.98324769" lon="-1.03211235"><ele></ele><time>2014-7-6T4:10:0Z</time></trkpt>
<trkpt lat="48.98326705" lon="-1.03188395"><ele></ele><time>2014-7-6T4:10:3Z</time></trkpt>
<trkpt lat="48.98331190" lon="-1.03167959"><ele></ele><time>2014-7-6T4:10:6Z</time></trkpt>
<trkpt lat="48.98335489" lon="-1.03136108"><ele></ele><time>2014-7-6T4:10:9Z</time></trkpt>
<trkpt lat="48.98337987" lon="-1.03111524"><ele></ele><time>2014-7-6T4:10:12Z</time></trkpt>
<trkpt lat="48.98340477" lon="-1.03085356"><ele></ele><time>2014-7-6T4:10:15Z</time></trkpt>
<trkpt lat="48.98343637" lon="-1.03055214"><ele></ele><time>2014-7-6T4:10:18Z</time></trkpt>
<trkpt lat="48.98346495" lon="-1.03025802"><ele></ele><time>2014-7-6T4:10:21Z</time></trkpt>
<trkpt lat="48.98350267" lon="-1.02995720"><ele></ele><time>2014-7-6T4:10:24Z</time></trkpt>
<trkpt lat="48.98355858" lon="-1.02971152"><ele></ele><time>2014-7-6T4:10:27Z</time></trkpt>
<trkpt lat="48.98363812" lon="-1.02948069"><ele></ele><time>2014-7-6T4:10:30Z</time></trkpt>
<trkpt lat="48.98373585" lon="-1.02922990"><ele></ele><time>2014-7-6T4:10:33Z</time></trkpt>
<trkpt lat="48.98381649" lon="-1.02912236"><ele></ele><time>2014-7-6T4:10:36Z</time></trkpt>
<trkpt lat="48.98394129" lon="-1.02888708"><ele></ele><time>2014-7-6T4:10:39Z</time></trkpt>
<trkpt lat="48.98398387" lon="-1.02866052"><ele></ele><time>2014-7-6T4:10:42Z</time></trkpt>
<trkpt lat="48.98400818" lon="-1.02843479"><ele></ele><time>2014-7-6T4:10:45Z</time></trkpt>
<trkpt lat="48.98402922" lon="-1.02826179"><ele></ele><time>2014-7-6T4:10:48Z</time></trkpt>
<trkpt lat="48.98405738" lon="-1.02805132"><ele></ele><time>2014-7-6T4:10:51Z</time></trkpt>
<trkpt lat="48.98409242" lon="-1.02786399"><ele></ele><time>2014-7-6T4:10:54Z</time></trkpt>
<trkpt lat="48.98414413" lon="-1.02769643"><ele></ele><time>2014-7-6T4:10:57Z</time></trkpt>
<trkpt lat="48.98415185" lon="-1.02766089"><ele></ele><time>2014-7-6T4:11:0Z</time></trkpt>
<trkpt lat="48.98415612" lon="-1.02763357"><ele></ele><time>2014-7-6T4:11:3Z</time></trkpt>
<trkpt lat="48.98419987" lon="-1.02751614"><ele></ele><time>2014-7-6T4:11:6Z</time></trkpt>
<trkpt lat="48.98424455" lon="-1.02740365"><ele></ele><time>2014-7-6T4:11:9Z</time></trkpt>
<trkpt lat="48.98427104" lon="-1.02729569"><ele></ele><time>2014-7-6T4:11:12Z</time></trkpt>
<trkpt lat="48.98430272" lon="-1.02719712"><ele></ele><time>2014-7-6T4:11:15Z</time></trkpt>
<trkpt lat="48.98436072" lon="-1.02708413"><ele></ele><time>2014-7-6T4:11:18Z</time></trkpt>
<trkpt lat="48.98439249" lon="-1.02699470"><ele></ele><time>2014-7-6T4:11:21Z</time></trkpt>
<trkpt lat="48.98443088" lon="-1.02685698"><ele></ele><time>2014-7-6T4:11:24Z</time></trkpt>
<trkpt lat="48.98445737" lon="-1.02673260"><ele></ele><time>2014-7-6T4:11:27Z</time></trkpt>
<trkpt lat="48.98448880" lon="-1.02661986"><ele></ele><time>2014-7-6T4:11:30Z</time></trkpt>
<trkpt lat="48.98452174" lon="-1.02650176"><ele></ele><time>2014-7-6T4:11:33Z</time></trkpt>
<trkpt lat="48.98454630" lon="-1.02643889"><ele></ele><time>2014-7-6T4:11:36Z</time></trkpt>
<trkpt lat="48.98460698" lon="-1.02623052"><ele></ele><time>2014-7-6T4:11:39Z</time></trkpt>
<trkpt lat="48.98464680" lon="-1.02603137"><ele></ele><time>2014-7-6T4:11:42Z</time></trkpt>
<trkpt lat="48.98465224" lon="-1.02598535"><ele></ele><time>2014-7-6T4:11:45Z</time></trkpt>
<trkpt lat="48.98467437" lon="-1.02586289"><ele></ele><time>2014-7-6T4:11:48Z</time></trkpt>
<trkpt lat="48.98469474" lon="-1.02572886"><ele></ele><time>2014-7-6T4:11:51Z</time></trkpt>
<trkpt lat="48.98474118" lon="-1.02557564"><ele></ele><time>2014-7-6T4:11:54Z</time></trkpt>
<trkpt lat="48.98479533" lon="-1.02535193"><ele></ele><time>2014-7-6T4:11:57Z</time></trkpt>
<trkpt lat="48.98480706" lon="-1.02514012"><ele></ele><time>2014-7-6T4:12:0Z</time></trkpt>
<trkpt lat="48.98482826" lon="-1.02493049"><ele></ele><time>2014-7-6T4:12:3Z</time></trkpt>
<trkpt lat="48.98488853" lon="-1.02472907"><ele></ele><time>2014-7-6T4:12:6Z</time></trkpt>
<trkpt lat="48.98496254" lon="-1.02445817"><ele></ele><time>2014-7-6T4:12:9Z</time></trkpt>
<trkpt lat="48.98502256" lon="-1.02427846"><ele></ele><time>2014-7-6T4:12:12Z</time></trkpt>
<trkpt lat="48.98510017" lon="-1.02413286"><ele></ele><time>2014-7-6T4:12:15Z</time></trkpt>
<trkpt lat="48.98517184" lon="-1.02399959"><ele></ele><time>2014-7-6T4:12:18Z</time></trkpt>
<trkpt lat="48.98525625" lon="-1.02387244"><ele></ele><time>2014-7-6T4:12:21Z</time></trkpt>
<trkpt lat="48.98537829" lon="-1.02373137"><ele></ele><time>2014-7-6T4:12:24Z</time></trkpt>
<trkpt lat="48.98550049" lon="-1.02360346"><ele></ele><time>2014-7-6T4:12:27Z</time></trkpt>
<trkpt lat="48.98563293" lon="-1.02349827"><ele></ele><time>2014-7-6T4:12:30Z</time></trkpt>
<trkpt lat="48.98569579" lon="-1.02340146"><ele></ele><time>2014-7-6T4:12:33Z</time></trkpt>
<trkpt lat="48.98572505" lon="-1.02322670"><ele></ele><time>2014-7-6T4:12:36Z</time></trkpt>
<trkpt lat="48.98572614" lon="-1.02318655"><ele></ele><time>2014-7-6T4:12:39Z</time></trkpt>
<trkpt lat="48.98569495" lon="-1.02306794"><ele></ele><time>2014-7-6T4:12:42Z</time></trkpt>
<trkpt lat="48.98568322" lon="-1.02297893"><ele></ele><time>2014-7-6T4:12:45Z</time></trkpt>
<trkpt lat="48.98568322" lon="-1.02278438"><ele></ele><time>2014-7-6T4:12:48Z</time></trkpt>
<trkpt lat="48.98566436" lon="-1.02261599"><ele></ele><time>2014-7-6T4:12:51Z</time></trkpt>
<trkpt lat="48.98566704" lon="-1.02234366"><ele></ele><time>2014-7-6T4:12:54Z</time></trkpt>
<trkpt lat="48.98565522" lon="-1.02217393"><ele></ele><time>2014-7-6T4:12:57Z</time></trkpt>
<trkpt lat="48.98565237" lon="-1.02212858"><ele></ele><time>2014-7-6T4:13:0Z</time></trkpt>
<trkpt lat="48.98564642" lon="-1.02206639"><ele></ele><time>2014-7-6T4:13:3Z</time></trkpt>
<trkpt lat="48.98560778" lon="-1.02194544"><ele></ele><time>2014-7-6T4:13:6Z</time></trkpt>
<trkpt lat="48.98552924" lon="-1.02176263"><ele></ele><time>2014-7-6T4:13:9Z</time></trkpt>
<trkpt lat="48.98552623" lon="-1.02173455"><ele></ele><time>2014-7-6T4:13:12Z</time></trkpt>
<trkpt lat="48.98550435" lon="-1.02160019"><ele></ele><time>2014-7-6T4:13:15Z</time></trkpt>
<trkpt lat="48.98550469" lon="-1.02147178"><ele></ele><time>2014-7-6T4:13:18Z</time></trkpt>
<trkpt lat="48.98549647" lon="-1.02132694"><ele></ele><time>2014-7-6T4:13:21Z</time></trkpt>
<trkpt lat="48.98547334" lon="-1.02120875"><ele></ele><time>2014-7-6T4:13:24Z</time></trkpt>
<trkpt lat="48.98544400" lon="-1.02109878"><ele></ele><time>2014-7-6T4:13:27Z</time></trkpt>
<trkpt lat="48.98539857" lon="-1.02098973"><ele></ele><time>2014-7-6T4:13:30Z</time></trkpt>
<trkpt lat="48.98539170" lon="-1.02097364"><ele></ele><time>2014-7-6T4:13:33Z</time></trkpt>
<trkpt lat="48.98538340" lon="-1.02091019"><ele></ele><time>2014-7-6T4:13:36Z</time></trkpt>
<trkpt lat="48.98537477" lon="-1.02073928"><ele></ele><time>2014-7-6T4:13:39Z</time></trkpt>
<trkpt lat="48.98537099" lon="-1.02063082"><ele></ele><time>2014-7-6T4:13:42Z</time></trkpt>
<trkpt lat="48.98536169" lon="-1.02051029"><ele></ele><time>2014-7-6T4:13:45Z</time></trkpt>
<trkpt lat="48.98537393" lon="-1.02031608"><ele></ele><time>2014-7-6T4:13:48Z</time></trkpt>
<trkpt lat="48.98539865" lon="-1.02020326"><ele></ele><time>2014-7-6T4:13:51Z</time></trkpt>
<trkpt lat="48.98542623" lon="-1.02003370"><ele></ele><time>2014-7-6T4:13:54Z</time></trkpt>
<trkpt lat="48.98546722" lon="-1.01978224"><ele></ele><time>2014-7-6T4:13:57Z</time></trkpt>
<trkpt lat="48.98551005" lon="-1.01956314"><ele></ele><time>2014-7-6T4:14:0Z</time></trkpt>
<trkpt lat="48.98553318" lon="-1.01934839"><ele></ele><time>2014-7-6T4:14:3Z</time></trkpt>
<trkpt lat="48.98556202" lon="-1.01914756"><ele></ele><time>2014-7-6T4:14:6Z</time></trkpt>
<trkpt lat="48.98559898" lon="-1.01894489"><ele></ele><time>2014-7-6T4:14:9Z</time></trkpt>
<trkpt lat="48.98565447" lon="-1.01865177"><ele></ele><time>2014-7-6T4:14:12Z</time></trkpt>
<trkpt lat="48.98569747" lon="-1.01842948"><ele></ele><time>2014-7-6T4:14:15Z</time></trkpt>
<trkpt lat="48.98577969" lon="-1.01813377"><ele></ele><time>2014-7-6T4:14:18Z</time></trkpt>
<trkpt lat="48.98582253" lon="-1.01789187"><ele></ele><time>2014-7-6T4:14:21Z</time></trkpt>
<trkpt lat="48.98587969" lon="-1.01759557"><ele></ele><time>2014-7-6T4:14:24Z</time></trkpt>
<trkpt lat="48.98591188" lon="-1.01737814"><ele></ele><time>2014-7-6T4:14:27Z</time></trkpt>
<trkpt lat="48.98592194" lon="-1.01713397"><ele></ele><time>2014-7-6T4:14:30Z</time></trkpt>
<trkpt lat="48.98590358" lon="-1.01692082"><ele></ele><time>2014-7-6T4:14:33Z</time></trkpt>
<trkpt lat="48.98590567" lon="-1.01666593"><ele></ele><time>2014-7-6T4:14:36Z</time></trkpt>
<trkpt lat="48.98590970" lon="-1.01636762"><ele></ele><time>2014-7-6T4:14:39Z</time></trkpt>
<trkpt lat="48.98593736" lon="-1.01627986"><ele></ele><time>2014-7-6T4:14:42Z</time></trkpt>
<trkpt lat="48.98602252" lon="-1.01636175"><ele></ele><time>2014-7-6T4:14:45Z</time></trkpt>
<trkpt lat="48.98613408" lon="-1.01651413"><ele></ele><time>2014-7-6T4:14:48Z</time></trkpt>
<trkpt lat="48.98622695" lon="-1.01642286"><ele></ele><time>2014-7-6T4:14:51Z</time></trkpt>
<trkpt lat="48.98629099" lon="-1.01611516"><ele></ele><time>2014-7-6T4:14:54Z</time></trkpt>
<trkpt lat="48.98635377" lon="-1.01580578"><ele></ele><time>2014-7-6T4:14:57Z</time></trkpt>
<trkpt lat="48.98641504" lon="-1.01553454"><ele></ele><time>2014-7-6T4:15:0Z</time></trkpt>
<trkpt lat="48.98641999" lon="-1.01548886"><ele></ele><time>2014-7-6T4:15:3Z</time></trkpt>
<trkpt lat="48.98646508" lon="-1.01532969"><ele></ele><time>2014-7-6T4:15:6Z</time></trkpt>
<trkpt lat="48.98647799" lon="-1.01525744"><ele></ele><time>2014-7-6T4:15:9Z</time></trkpt>
<trkpt lat="48.98652284" lon="-1.01507689"><ele></ele><time>2014-7-6T4:15:12Z</time></trkpt>
<trkpt lat="48.98657380" lon="-1.01488888"><ele></ele><time>2014-7-6T4:15:15Z</time></trkpt>
<trkpt lat="48.98659467" lon="-1.01481755"><ele></ele><time>2014-7-6T4:15:18Z</time></trkpt>
<trkpt lat="48.98665686" lon="-1.01458898"><ele></ele><time>2014-7-6T4:15:21Z</time></trkpt>
<trkpt lat="48.98671746" lon="-1.01440734"><ele></ele><time>2014-7-6T4:15:24Z</time></trkpt>
<trkpt lat="48.98675082" lon="-1.01428798"><ele></ele><time>2014-7-6T4:15:27Z</time></trkpt>
<trkpt lat="48.98679466" lon="-1.01417374"><ele></ele><time>2014-7-6T4:15:30Z</time></trkpt>
<trkpt lat="48.98682232" lon="-1.01407835"><ele></ele><time>2014-7-6T4:15:33Z</time></trkpt>
<trkpt lat="48.98682894" lon="-1.01405949"><ele></ele><time>2014-7-6T4:15:36Z</time></trkpt>
<trkpt lat="48.98688703" lon="-1.01393125"><ele></ele><time>2014-7-6T4:15:39Z</time></trkpt>
<trkpt lat="48.98693925" lon="-1.01377116"><ele></ele><time>2014-7-6T4:15:42Z</time></trkpt>
<trkpt lat="48.98696029" lon="-1.01368759"><ele></ele><time>2014-7-6T4:15:45Z</time></trkpt>
<trkpt lat="48.98696825" lon="-1.01366337"><ele></ele><time>2014-7-6T4:15:48Z</time></trkpt>
<trkpt lat="48.98700069" lon="-1.01359430"><ele></ele><time>2014-7-6T4:15:51Z</time></trkpt>
<trkpt lat="48.98703707" lon="-1.01350587"><ele></ele><time>2014-7-6T4:15:54Z</time></trkpt>
<trkpt lat="48.98709398" lon="-1.01332968"><ele></ele><time>2014-7-6T4:15:57Z</time></trkpt>
<trkpt lat="48.98715978" lon="-1.01318384"><ele></ele><time>2014-7-6T4:16:0Z</time></trkpt>
<trkpt lat="48.98724343" lon="-1.01294135"><ele></ele><time>2014-7-6T4:16:3Z</time></trkpt>
<trkpt lat="48.98732884" lon="-1.01271579"><ele></ele><time>2014-7-6T4:16:6Z</time></trkpt>
<trkpt lat="48.98740143" lon="-1.01251253"><ele></ele><time>2014-7-6T4:16:9Z</time></trkpt>
<trkpt lat="48.98747485" lon="-1.01236836"><ele></ele><time>2014-7-6T4:16:12Z</time></trkpt>
<trkpt lat="48.98761776" lon="-1.01223643"><ele></ele><time>2014-7-6T4:16:15Z</time></trkpt>
<trkpt lat="48.98779403" lon="-1.01212478"><ele></ele><time>2014-7-6T4:16:18Z</time></trkpt>
<trkpt lat="48.98797659" lon="-1.01201255"><ele></ele><time>2014-7-6T4:16:21Z</time></trkpt>
<trkpt lat="48.98810542" lon="-1.01161349"><ele></ele><time>2014-7-6T4:16:24Z</time></trkpt>
<trkpt lat="48.98810676" lon="-1.01152489"><ele></ele><time>2014-7-6T4:16:27Z</time></trkpt>
<trkpt lat="48.98810928" lon="-1.01149949"><ele></ele><time>2014-7-6T4:16:30Z</time></trkpt>
<trkpt lat="48.98815077" lon="-1.01127444"><ele></ele><time>2014-7-6T4:16:33Z</time></trkpt>
<trkpt lat="48.98821078" lon="-1.01101116"><ele></ele><time>2014-7-6T4:16:36Z</time></trkpt>
<trkpt lat="48.98825655" lon="-1.01080019"><ele></ele><time>2014-7-6T4:16:39Z</time></trkpt>
<trkpt lat="48.98835202" lon="-1.01073138"><ele></ele><time>2014-7-6T4:16:42Z</time></trkpt>
<trkpt lat="48.98852888" lon="-1.01069936"><ele></ele><time>2014-7-6T4:16:45Z</time></trkpt>
<trkpt lat="48.98870129" lon="-1.01069449"><ele></ele><time>2014-7-6T4:16:48Z</time></trkpt>
<trkpt lat="48.98892014" lon="-1.01056726"><ele></ele><time>2014-7-6T4:16:51Z</time></trkpt>
<trkpt lat="48.98908543" lon="-1.01047162"><ele></ele><time>2014-7-6T4:16:54Z</time></trkpt>
<trkpt lat="48.98930269" lon="-1.01057765"><ele></ele><time>2014-7-6T4:16:57Z</time></trkpt>
<trkpt lat="48.98960067" lon="-1.01078150"><ele></ele><time>2014-7-6T4:17:0Z</time></trkpt>
<trkpt lat="48.98985238" lon="-1.01093547"><ele></ele><time>2014-7-6T4:17:3Z</time></trkpt>
<trkpt lat="48.99011943" lon="-1.01108417"><ele></ele><time>2014-7-6T4:17:6Z</time></trkpt>
<trkpt lat="48.99040483" lon="-1.01120302"><ele></ele><time>2014-7-6T4:17:9Z</time></trkpt>
<trkpt lat="48.99069074" lon="-1.01140134"><ele></ele><time>2014-7-6T4:17:12Z</time></trkpt>
<trkpt lat="48.99099374" lon="-1.01169814"><ele></ele><time>2014-7-6T4:17:15Z</time></trkpt>
<trkpt lat="48.99119499" lon="-1.01197869"><ele></ele><time>2014-7-6T4:17:18Z</time></trkpt>
<trkpt lat="48.99138233" lon="-1.01226375"><ele></ele><time>2014-7-6T4:17:21Z</time></trkpt>
<trkpt lat="48.99141275" lon="-1.01231027"><ele></ele><time>2014-7-6T4:17:24Z</time></trkpt>
<trkpt lat="48.99155332" lon="-1.01230290"><ele></ele><time>2014-7-6T4:17:27Z</time></trkpt>
<trkpt lat="48.99157452" lon="-1.01226283"><ele></ele><time>2014-7-6T4:17:30Z</time></trkpt>
<trkpt lat="48.99161442" lon="-1.01218765"><ele></ele><time>2014-7-6T4:17:33Z</time></trkpt>
<trkpt lat="48.99173236" lon="-1.01197525"><ele></ele><time>2014-7-6T4:17:36Z</time></trkpt>
<trkpt lat="48.99180142" lon="-1.01180769"><ele></ele><time>2014-7-6T4:17:39Z</time></trkpt>
<trkpt lat="48.99185046" lon="-1.01169177"><ele></ele><time>2014-7-6T4:17:42Z</time></trkpt>
<trkpt lat="48.99189170" lon="-1.01160418"><ele></ele><time>2014-7-6T4:17:45Z</time></trkpt>
<trkpt lat="48.99201717" lon="-1.01131853"><ele></ele><time>2014-7-6T4:17:48Z</time></trkpt>
<trkpt lat="48.99211273" lon="-1.01112013"><ele></ele><time>2014-7-6T4:17:51Z</time></trkpt>
<trkpt lat="48.99222446" lon="-1.01089046"><ele></ele><time>2014-7-6T4:17:54Z</time></trkpt>
<trkpt lat="48.99230584" lon="-1.01073029"><ele></ele><time>2014-7-6T4:17:57Z</time></trkpt>
<trkpt lat="48.99237625" lon="-1.01058746"><ele></ele><time>2014-7-6T4:18:0Z</time></trkpt>
<trkpt lat="48.99249368" lon="-1.01034748"><ele></ele><time>2014-7-6T4:18:3Z</time></trkpt>
<trkpt lat="48.99264925" lon="-1.01000768"><ele></ele><time>2014-7-6T4:18:6Z</time></trkpt>
<trkpt lat="48.99282502" lon="-1.00963955"><ele></ele><time>2014-7-6T4:18:9Z</time></trkpt>
<trkpt lat="48.99291663" lon="-1.00941759"><ele></ele><time>2014-7-6T4:18:12Z</time></trkpt>
<trkpt lat="48.99299727" lon="-1.00924459"><ele></ele><time>2014-7-6T4:18:15Z</time></trkpt>
<trkpt lat="48.99316147" lon="-1.00885659"><ele></ele><time>2014-7-6T4:18:18Z</time></trkpt>
<trkpt lat="48.99329307" lon="-1.00851294"><ele></ele><time>2014-7-6T4:18:21Z</time></trkpt>
<trkpt lat="48.99347948" lon="-1.00791128"><ele></ele><time>2014-7-6T4:18:24Z</time></trkpt>
<trkpt lat="48.99361527" lon="-1.00749428"><ele></ele><time>2014-7-6T4:18:27Z</time></trkpt>
<trkpt lat="48.99370219" lon="-1.00721726"><ele></ele><time>2014-7-6T4:18:30Z</time></trkpt>
<trkpt lat="48.99383244" lon="-1.00699439"><ele></ele><time>2014-7-6T4:18:33Z</time></trkpt>
<trkpt lat="48.99405498" lon="-1.00675140"><ele></ele><time>2014-7-6T4:18:36Z</time></trkpt>
<trkpt lat="48.99434860" lon="-1.00630137"><ele></ele><time>2014-7-6T4:18:39Z</time></trkpt>
<trkpt lat="48.99455119" lon="-1.00593978"><ele></ele><time>2014-7-6T4:18:42Z</time></trkpt>
<trkpt lat="48.99487314" lon="-1.00564700"><ele></ele><time>2014-7-6T4:18:45Z</time></trkpt>
<trkpt lat="48.99491823" lon="-1.00559486"><ele></ele><time>2014-7-6T4:18:48Z</time></trkpt>
<trkpt lat="48.99501588" lon="-1.00529957"><ele></ele><time>2014-7-6T4:18:51Z</time></trkpt>
<trkpt lat="48.99502217" lon="-1.00522078"><ele></ele><time>2014-7-6T4:18:54Z</time></trkpt>
<trkpt lat="48.99496467" lon="-1.00481476"><ele></ele><time>2014-7-6T4:18:57Z</time></trkpt>
<trkpt lat="48.99494992" lon="-1.00465617"><ele></ele><time>2014-7-6T4:19:0Z</time></trkpt>
<trkpt lat="48.99498529" lon="-1.00431654"><ele></ele><time>2014-7-6T4:19:3Z</time></trkpt>
<trkpt lat="48.99516282" lon="-1.00376735"><ele></ele><time>2014-7-6T4:19:6Z</time></trkpt>
<trkpt lat="48.99536524" lon="-1.00340182"><ele></ele><time>2014-7-6T4:19:9Z</time></trkpt>
<trkpt lat="48.99551913" lon="-1.00312572"><ele></ele><time>2014-7-6T4:19:12Z</time></trkpt>
<trkpt lat="48.99577998" lon="-1.00271786"><ele></ele><time>2014-7-6T4:19:15Z</time></trkpt>
<trkpt lat="48.99609396" lon="-1.00225149"><ele></ele><time>2014-7-6T4:19:18Z</time></trkpt>
<trkpt lat="48.99640568" lon="-1.00186299"><ele></ele><time>2014-7-6T4:19:21Z</time></trkpt>
<trkpt lat="48.99653896" lon="-1.00169099"><ele></ele><time>2014-7-6T4:19:24Z</time></trkpt>
<trkpt lat="48.99655019" lon="-1.00167339"><ele></ele><time>2014-7-6T4:19:27Z</time></trkpt>
<trkpt lat="48.99667759" lon="-1.00161346"><ele></ele><time>2014-7-6T4:19:30Z</time></trkpt>
<trkpt lat="48.99689980" lon="-1.00156308"><ele></ele><time>2014-7-6T4:19:33Z</time></trkpt>
<trkpt lat="48.99692637" lon="-1.00139997"><ele></ele><time>2014-7-6T4:19:36Z</time></trkpt>
<trkpt lat="48.99689569" lon="-1.00119805"><ele></ele><time>2014-7-6T4:19:39Z</time></trkpt>
<trkpt lat="48.99689033" lon="-1.00117416"><ele></ele><time>2014-7-6T4:19:42Z</time></trkpt>
<trkpt lat="48.99686753" lon="-1.00100703"><ele></ele><time>2014-7-6T4:19:45Z</time></trkpt>
<trkpt lat="48.99686468" lon="-1.00094248"><ele></ele><time>2014-7-6T4:19:48Z</time></trkpt>
<trkpt lat="48.99685563" lon="-1.00087686"><ele></ele><time>2014-7-6T4:19:51Z</time></trkpt>
<trkpt lat="48.99684716" lon="-1.00074484"><ele></ele><time>2014-7-6T4:19:54Z</time></trkpt>
<trkpt lat="48.99682528" lon="-1.00058407"><ele></ele><time>2014-7-6T4:19:57Z</time></trkpt>
<trkpt lat="48.99680190" lon="-1.00039699"><ele></ele><time>2014-7-6T4:20:0Z</time></trkpt>
<trkpt lat="48.99678388" lon="-1.00027076"><ele></ele><time>2014-7-6T4:20:3Z</time></trkpt>
<trkpt lat="48.99673325" lon="-0.99982836"><ele></ele><time>2014-7-6T4:20:6Z</time></trkpt>
<trkpt lat="48.99671364" lon="-0.99964245"><ele></ele><time>2014-7-6T4:20:9Z</time></trkpt>
<trkpt lat="48.99669042" lon="-0.99957313"><ele></ele><time>2014-7-6T4:20:12Z</time></trkpt>
<trkpt lat="48.99664868" lon="-0.99948219"><ele></ele><time>2014-7-6T4:20:15Z</time></trkpt>
<trkpt lat="48.99663904" lon="-0.99944305"><ele></ele><time>2014-7-6T4:20:18Z</time></trkpt>
<trkpt lat="48.99644718" lon="-0.99910224"><ele></ele><time>2014-7-6T4:20:21Z</time></trkpt>
<trkpt lat="48.99638180" lon="-0.99901792"><ele></ele><time>2014-7-6T4:20:24Z</time></trkpt>
<trkpt lat="48.99637719" lon="-0.99900350"><ele></ele><time>2014-7-6T4:20:27Z</time></trkpt>
<trkpt lat="48.99629052" lon="-0.99892312"><ele></ele><time>2014-7-6T4:20:30Z</time></trkpt>
<trkpt lat="48.99622900" lon="-0.99886637"><ele></ele><time>2014-7-6T4:20:33Z</time></trkpt>
<trkpt lat="48.99615842" lon="-0.99880720"><ele></ele><time>2014-7-6T4:20:36Z</time></trkpt>
<trkpt lat="48.99606463" lon="-0.99867216"><ele></ele><time>2014-7-6T4:20:39Z</time></trkpt>
<trkpt lat="48.99604987" lon="-0.99856454"><ele></ele><time>2014-7-6T4:20:42Z</time></trkpt>
<trkpt lat="48.99604409" lon="-0.99846203"><ele></ele><time>2014-7-6T4:20:45Z</time></trkpt>
<trkpt lat="48.99606102" lon="-0.99822247"><ele></ele><time>2014-7-6T4:20:48Z</time></trkpt>
<trkpt lat="48.99611802" lon="-0.99802215"><ele></ele><time>2014-7-6T4:20:51Z</time></trkpt>
<trkpt lat="48.99616873" lon="-0.99783288"><ele></ele><time>2014-7-6T4:20:54Z</time></trkpt>
<trkpt lat="48.99619513" lon="-0.99768260"><ele></ele><time>2014-7-6T4:20:57Z</time></trkpt>
<trkpt lat="48.99625883" lon="-0.99754387"><ele></ele><time>2014-7-6T4:21:0Z</time></trkpt>
<trkpt lat="48.99636537" lon="-0.99742762"><ele></ele><time>2014-7-6T4:21:3Z</time></trkpt>
<trkpt lat="48.99652303" lon="-0.99732754"><ele></ele><time>2014-7-6T4:21:6Z</time></trkpt>
<trkpt lat="48.99669025" lon="-0.99727306"><ele></ele><time>2014-7-6T4:21:9Z</time></trkpt>
<trkpt lat="48.99688605" lon="-0.99715060"><ele></ele><time>2014-7-6T4:21:12Z</time></trkpt>
<trkpt lat="48.99690935" lon="-0.99713358"><ele></ele><time>2014-7-6T4:21:15Z</time></trkpt>
<trkpt lat="48.99693232" lon="-0.99711464"><ele></ele><time>2014-7-6T4:21:18Z</time></trkpt>
<trkpt lat="48.99705478" lon="-0.99695069"><ele></ele><time>2014-7-6T4:21:21Z</time></trkpt>
<trkpt lat="48.99719635" lon="-0.99674357"><ele></ele><time>2014-7-6T4:21:24Z</time></trkpt>
<trkpt lat="48.99730624" lon="-0.99655188"><ele></ele><time>2014-7-6T4:21:27Z</time></trkpt>
<trkpt lat="48.99740749" lon="-0.99632037"><ele></ele><time>2014-7-6T4:21:30Z</time></trkpt>
<trkpt lat="48.99746122" lon="-0.99617352"><ele></ele><time>2014-7-6T4:21:33Z</time></trkpt>
<trkpt lat="48.99753313" lon="-0.99592927"><ele></ele><time>2014-7-6T4:21:36Z</time></trkpt>
<trkpt lat="48.99757119" lon="-0.99572710"><ele></ele><time>2014-7-6T4:21:39Z</time></trkpt>
<trkpt lat="48.99761746" lon="-0.99543792"><ele></ele><time>2014-7-6T4:21:42Z</time></trkpt>
<trkpt lat="48.99766498" lon="-0.99509485"><ele></ele><time>2014-7-6T4:21:45Z</time></trkpt>
<trkpt lat="48.99767890" lon="-0.99487072"><ele></ele><time>2014-7-6T4:21:48Z</time></trkpt>
<trkpt lat="48.99765149" lon="-0.99464449"><ele></ele><time>2014-7-6T4:21:51Z</time></trkpt>
<trkpt lat="48.99757773" lon="-0.99454936"><ele></ele><time>2014-7-6T4:21:54Z</time></trkpt>
<trkpt lat="48.99751444" lon="-0.99451809"><ele></ele><time>2014-7-6T4:21:57Z</time></trkpt>
<trkpt lat="48.99750036" lon="-0.99451734"><ele></ele><time>2014-7-6T4:22:0Z</time></trkpt>
<trkpt lat="48.99745795" lon="-0.99449102"><ele></ele><time>2014-7-6T4:22:3Z</time></trkpt>
<trkpt lat="48.99737203" lon="-0.99443654"><ele></ele><time>2014-7-6T4:22:6Z</time></trkpt>
<trkpt lat="48.99727732" lon="-0.99437904"><ele></ele><time>2014-7-6T4:22:9Z</time></trkpt>
<trkpt lat="48.99716534" lon="-0.99431726"><ele></ele><time>2014-7-6T4:22:12Z</time></trkpt>
<trkpt lat="48.99704129" lon="-0.99424325"><ele></ele><time>2014-7-6T4:22:15Z</time></trkpt>
<trkpt lat="48.99702117" lon="-0.99422758"><ele></ele><time>2014-7-6T4:22:18Z</time></trkpt>
<trkpt lat="48.99696518" lon="-0.99420168"><ele></ele><time>2014-7-6T4:22:21Z</time></trkpt>
<trkpt lat="48.99689175" lon="-0.99417125"><ele></ele><time>2014-7-6T4:22:24Z</time></trkpt>
<trkpt lat="48.99679192" lon="-0.99411593"><ele></ele><time>2014-7-6T4:22:27Z</time></trkpt>
<trkpt lat="48.99671104" lon="-0.99405717"><ele></ele><time>2014-7-6T4:22:30Z</time></trkpt>
<trkpt lat="48.99659855" lon="-0.99395500"><ele></ele><time>2014-7-6T4:22:33Z</time></trkpt>
<trkpt lat="48.99654038" lon="-0.99391292"><ele></ele><time>2014-7-6T4:22:36Z</time></trkpt>
<trkpt lat="48.99650644" lon="-0.99389138"><ele></ele><time>2014-7-6T4:22:39Z</time></trkpt>
<trkpt lat="48.99640988" lon="-0.99380010"><ele></ele><time>2014-7-6T4:22:42Z</time></trkpt>
<trkpt lat="48.99631768" lon="-0.99375467"><ele></ele><time>2014-7-6T4:22:45Z</time></trkpt>
<trkpt lat="48.99630334" lon="-0.99374604"><ele></ele><time>2014-7-6T4:22:48Z</time></trkpt>
<trkpt lat="48.99619647" lon="-0.99368393"><ele></ele><time>2014-7-6T4:22:51Z</time></trkpt>
<trkpt lat="48.99610192" lon="-0.99361662"><ele></ele><time>2014-7-6T4:22:54Z</time></trkpt>
<trkpt lat="48.99597804" lon="-0.99353682"><ele></ele><time>2014-7-6T4:22:57Z</time></trkpt>
<trkpt lat="48.99578308" lon="-0.99343163"><ele></ele><time>2014-7-6T4:23:0Z</time></trkpt>
<trkpt lat="48.99565224" lon="-0.99337296"><ele></ele><time>2014-7-6T4:23:3Z</time></trkpt>
<trkpt lat="48.99550203" lon="-0.99329836"><ele></ele><time>2014-7-6T4:23:6Z</time></trkpt>
<trkpt lat="48.99548410" lon="-0.99328738"><ele></ele><time>2014-7-6T4:23:9Z</time></trkpt>
<trkpt lat="48.99533842" lon="-0.99323046"><ele></ele><time>2014-7-6T4:23:12Z</time></trkpt>
<trkpt lat="48.99516424" lon="-0.99316265"><ele></ele><time>2014-7-6T4:23:15Z</time></trkpt>
<trkpt lat="48.99491538" lon="-0.99307112"><ele></ele><time>2014-7-6T4:23:18Z</time></trkpt>
<trkpt lat="48.99479636" lon="-0.99303098"><ele></ele><time>2014-7-6T4:23:21Z</time></trkpt>
<trkpt lat="48.99476736" lon="-0.99302066"><ele></ele><time>2014-7-6T4:23:24Z</time></trkpt>
<trkpt lat="48.99460064" lon="-0.99295965"><ele></ele><time>2014-7-6T4:23:27Z</time></trkpt>
<trkpt lat="48.99439286" lon="-0.99286384"><ele></ele><time>2014-7-6T4:23:30Z</time></trkpt>
<trkpt lat="48.99417099" lon="-0.99275010"><ele></ele><time>2014-7-6T4:23:33Z</time></trkpt>
<trkpt lat="48.99395364" lon="-0.99262236"><ele></ele><time>2014-7-6T4:23:36Z</time></trkpt>
<trkpt lat="48.99379615" lon="-0.99254005"><ele></ele><time>2014-7-6T4:23:39Z</time></trkpt>
<trkpt lat="48.99359289" lon="-0.99241884"><ele></ele><time>2014-7-6T4:23:42Z</time></trkpt>
<trkpt lat="48.99344603" lon="-0.99231273"><ele></ele><time>2014-7-6T4:23:45Z</time></trkpt>
<trkpt lat="48.99330354" lon="-0.99221776"><ele></ele><time>2014-7-6T4:23:48Z</time></trkpt>
<trkpt lat="48.99318117" lon="-0.99208206"><ele></ele><time>2014-7-6T4:23:51Z</time></trkpt>
<trkpt lat="48.99305225" lon="-0.99198039"><ele></ele><time>2014-7-6T4:23:54Z</time></trkpt>
<trkpt lat="48.99283944" lon="-0.99185223"><ele></ele><time>2014-7-6T4:23:57Z</time></trkpt>
<trkpt lat="48.99279736" lon="-0.99184024"><ele></ele><time>2014-7-6T4:24:0Z</time></trkpt>
<trkpt lat="48.99252302" lon="-0.99180177"><ele></ele><time>2014-7-6T4:24:3Z</time></trkpt>
<trkpt lat="48.99243509" lon="-0.99180487"><ele></ele><time>2014-7-6T4:24:6Z</time></trkpt>
<trkpt lat="48.99220342" lon="-0.99171217"><ele></ele><time>2014-7-6T4:24:9Z</time></trkpt>
<trkpt lat="48.99204316" lon="-0.99159306"><ele></ele><time>2014-7-6T4:24:12Z</time></trkpt>
<trkpt lat="48.99187569" lon="-0.99161242"><ele></ele><time>2014-7-6T4:24:15Z</time></trkpt>
<trkpt lat="48.99169363" lon="-0.99183530"><ele></ele><time>2014-7-6T4:24:18Z</time></trkpt>
<trkpt lat="48.99155919" lon="-0.99198022"><ele></ele><time>2014-7-6T4:24:21Z</time></trkpt>
<trkpt lat="48.99136062" lon="-0.99219387"><ele></ele><time>2014-7-6T4:24:24Z</time></trkpt>
<trkpt lat="48.99127973" lon="-0.99227912"><ele></ele><time>2014-7-6T4:24:27Z</time></trkpt>
<trkpt lat="48.99126012" lon="-0.99230225"><ele></ele><time>2014-7-6T4:24:30Z</time></trkpt>
<trkpt lat="48.99108527" lon="-0.99255522"><ele></ele><time>2014-7-6T4:24:33Z</time></trkpt>
<trkpt lat="48.99095359" lon="-0.99282335"><ele></ele><time>2014-7-6T4:24:36Z</time></trkpt>
<trkpt lat="48.99085502" lon="-0.99309132"><ele></ele><time>2014-7-6T4:24:39Z</time></trkpt>
<trkpt lat="48.99072125" lon="-0.99339693"><ele></ele><time>2014-7-6T4:24:42Z</time></trkpt>
<trkpt lat="48.99057339" lon="-0.99363254"><ele></ele><time>2014-7-6T4:24:45Z</time></trkpt>
<trkpt lat="48.99040164" lon="-0.99382768"><ele></ele><time>2014-7-6T4:24:48Z</time></trkpt>
<trkpt lat="48.99024599" lon="-0.99398643"><ele></ele><time>2014-7-6T4:24:51Z</time></trkpt>
<trkpt lat="48.99006964" lon="-0.99415340"><ele></ele><time>2014-7-6T4:24:54Z</time></trkpt>
<trkpt lat="48.98990242" lon="-0.99432355"><ele></ele><time>2014-7-6T4:24:57Z</time></trkpt>
<trkpt lat="48.98971089" lon="-0.99450032"><ele></ele><time>2014-7-6T4:25:0Z</time></trkpt>
<trkpt lat="48.98953806" lon="-0.99465497"><ele></ele><time>2014-7-6T4:25:3Z</time></trkpt>
<trkpt lat="48.98937243" lon="-0.99480794"><ele></ele><time>2014-7-6T4:25:6Z</time></trkpt>
<trkpt lat="48.98929255" lon="-0.99488245"><ele></ele><time>2014-7-6T4:25:9Z</time></trkpt>
<trkpt lat="48.98917554" lon="-0.99499192"><ele></ele><time>2014-7-6T4:25:12Z</time></trkpt>
<trkpt lat="48.98906213" lon="-0.99511648"><ele></ele><time>2014-7-6T4:25:15Z</time></trkpt>
<trkpt lat="48.98893188" lon="-0.99525679"><ele></ele><time>2014-7-6T4:25:18Z</time></trkpt>
<trkpt lat="48.98882023" lon="-0.99539199"><ele></ele><time>2014-7-6T4:25:21Z</time></trkpt>
<trkpt lat="48.98871529" lon="-0.99551747"><ele></ele><time>2014-7-6T4:25:24Z</time></trkpt>
<trkpt lat="48.98857296" lon="-0.99569298"><ele></ele><time>2014-7-6T4:25:27Z</time></trkpt>
<trkpt lat="48.98843274" lon="-0.99590999"><ele></ele><time>2014-7-6T4:25:30Z</time></trkpt>
<trkpt lat="48.98832285" lon="-0.99618835"><ele></ele><time>2014-7-6T4:25:33Z</time></trkpt>
<trkpt lat="48.98823526" lon="-0.99651785"><ele></ele><time>2014-7-6T4:25:36Z</time></trkpt>
<trkpt lat="48.98814658" lon="-0.99700182"><ele></ele><time>2014-7-6T4:25:39Z</time></trkpt>
<trkpt lat="48.98807508" lon="-0.99752460"><ele></ele><time>2014-7-6T4:25:42Z</time></trkpt>
<trkpt lat="48.98797994" lon="-0.99803732"><ele></ele><time>2014-7-6T4:25:45Z</time></trkpt>
<trkpt lat="48.98785329" lon="-0.99855322"><ele></ele><time>2014-7-6T4:25:48Z</time></trkpt>
<trkpt lat="48.98766235" lon="-0.99923677"><ele></ele><time>2014-7-6T4:25:51Z</time></trkpt>
<trkpt lat="48.98754560" lon="-0.99951019"><ele></ele><time>2014-7-6T4:25:54Z</time></trkpt>
<trkpt lat="48.98740168" lon="-0.99958269"><ele></ele><time>2014-7-6T4:25:57Z</time></trkpt>
<trkpt lat="48.98716774" lon="-0.99969802"><ele></ele><time>2014-7-6T4:26:0Z</time></trkpt>
<trkpt lat="48.98695559" lon="-0.99980699"><ele></ele><time>2014-7-6T4:26:3Z</time></trkpt>
<trkpt lat="48.98674680" lon="-0.99994428"><ele></ele><time>2014-7-6T4:26:6Z</time></trkpt>
<trkpt lat="48.98654387" lon="-1.00006524"><ele></ele><time>2014-7-6T4:26:9Z</time></trkpt>
<trkpt lat="48.98635897" lon="-1.00019080"><ele></ele><time>2014-7-6T4:26:12Z</time></trkpt>
<trkpt lat="48.98610776" lon="-1.00035223"><ele></ele><time>2014-7-6T4:26:15Z</time></trkpt>
<trkpt lat="48.98585220" lon="-1.00053823"><ele></ele><time>2014-7-6T4:26:18Z</time></trkpt>
<trkpt lat="48.98571985" lon="-1.00072137"><ele></ele><time>2014-7-6T4:26:21Z</time></trkpt>
<trkpt lat="48.98556663" lon="-1.00089203"><ele></ele><time>2014-7-6T4:26:24Z</time></trkpt>
<trkpt lat="48.98539932" lon="-1.00107123"><ele></ele><time>2014-7-6T4:26:27Z</time></trkpt>
<trkpt lat="48.98517997" lon="-1.00133216"><ele></ele><time>2014-7-6T4:26:30Z</time></trkpt>
<trkpt lat="48.98499666" lon="-1.00163927"><ele></ele><time>2014-7-6T4:26:33Z</time></trkpt>
<trkpt lat="48.98484738" lon="-1.00191856"><ele></ele><time>2014-7-6T4:26:36Z</time></trkpt>
<trkpt lat="48.98468862" lon="-1.00215510"><ele></ele><time>2014-7-6T4:26:39Z</time></trkpt>
<trkpt lat="48.98447874" lon="-1.00247344"><ele></ele><time>2014-7-6T4:26:42Z</time></trkpt>
<trkpt lat="48.98432929" lon="-1.00268349"><ele></ele><time>2014-7-6T4:26:45Z</time></trkpt>
<trkpt lat="48.98417414" lon="-1.00290234"><ele></ele><time>2014-7-6T4:26:48Z</time></trkpt>
<trkpt lat="48.98399267" lon="-1.00311717"><ele></ele><time>2014-7-6T4:26:51Z</time></trkpt>
<trkpt lat="48.98396912" lon="-1.00314483"><ele></ele><time>2014-7-6T4:26:54Z</time></trkpt>
<trkpt lat="48.98376385" lon="-1.00338028"><ele></ele><time>2014-7-6T4:26:57Z</time></trkpt>
<trkpt lat="48.98353368" lon="-1.00363173"><ele></ele><time>2014-7-6T4:27:0Z</time></trkpt>
<trkpt lat="48.98330913" lon="-1.00387129"><ele></ele><time>2014-7-6T4:27:3Z</time></trkpt>
<trkpt lat="48.98314325" lon="-1.00409048"><ele></ele><time>2014-7-6T4:27:6Z</time></trkpt>
<trkpt lat="48.98295223" lon="-1.00433850"><ele></ele><time>2014-7-6T4:27:9Z</time></trkpt>
<trkpt lat="48.98279875" lon="-1.00452106"><ele></ele><time>2014-7-6T4:27:12Z</time></trkpt>
<trkpt lat="48.98260069" lon="-1.00474544"><ele></ele><time>2014-7-6T4:27:15Z</time></trkpt>
<trkpt lat="48.98240237" lon="-1.00498692"><ele></ele><time>2014-7-6T4:27:18Z</time></trkpt>
<trkpt lat="48.98226449" lon="-1.00513553"><ele></ele><time>2014-7-6T4:27:21Z</time></trkpt>
<trkpt lat="48.98211320" lon="-1.00530393"><ele></ele><time>2014-7-6T4:27:24Z</time></trkpt>
<trkpt lat="48.98193735" lon="-1.00543837"><ele></ele><time>2014-7-6T4:27:27Z</time></trkpt>
<trkpt lat="48.98178622" lon="-1.00553828"><ele></ele><time>2014-7-6T4:27:30Z</time></trkpt>
<trkpt lat="48.98156586" lon="-1.00571053"><ele></ele><time>2014-7-6T4:27:33Z</time></trkpt>
<trkpt lat="48.98135615" lon="-1.00583023"><ele></ele><time>2014-7-6T4:27:36Z</time></trkpt>
<trkpt lat="48.98117585" lon="-1.00584020"><ele></ele><time>2014-7-6T4:27:39Z</time></trkpt>
<trkpt lat="48.98099673" lon="-1.00589569"><ele></ele><time>2014-7-6T4:27:42Z</time></trkpt>
<trkpt lat="48.98069247" lon="-1.00604497"><ele></ele><time>2014-7-6T4:27:45Z</time></trkpt>
<trkpt lat="48.98045719" lon="-1.00615838"><ele></ele><time>2014-7-6T4:27:48Z</time></trkpt>
<trkpt lat="48.98015904" lon="-1.00629282"><ele></ele><time>2014-7-6T4:27:51Z</time></trkpt>
<trkpt lat="48.97985034" lon="-1.00643674"><ele></ele><time>2014-7-6T4:27:54Z</time></trkpt>
<trkpt lat="48.97956410" lon="-1.00656632"><ele></ele><time>2014-7-6T4:27:57Z</time></trkpt>
<trkpt lat="48.97915397" lon="-1.00678375"><ele></ele><time>2014-7-6T4:28:0Z</time></trkpt>
<trkpt lat="48.97904584" lon="-1.00685625"><ele></ele><time>2014-7-6T4:28:3Z</time></trkpt>
<trkpt lat="48.97877452" lon="-1.00713596"><ele></ele><time>2014-7-6T4:28:6Z</time></trkpt>
<trkpt lat="48.97847612" lon="-1.00749739"><ele></ele><time>2014-7-6T4:28:9Z</time></trkpt>
<trkpt lat="48.97825015" lon="-1.00800407"><ele></ele><time>2014-7-6T4:28:12Z</time></trkpt>
<trkpt lat="48.97799475" lon="-1.00872944"><ele></ele><time>2014-7-6T4:28:15Z</time></trkpt>
<trkpt lat="48.97765210" lon="-1.00969252"><ele></ele><time>2014-7-6T4:28:18Z</time></trkpt>
<trkpt lat="48.97725027" lon="-1.01068930"><ele></ele><time>2014-7-6T4:28:21Z</time></trkpt>
<trkpt lat="48.97692388" lon="-1.01149505"><ele></ele><time>2014-7-6T4:28:24Z</time></trkpt>
<trkpt lat="48.97688867" lon="-1.01158683"><ele></ele><time>2014-7-6T4:28:27Z</time></trkpt>
<trkpt lat="48.97648634" lon="-1.01274286"><ele></ele><time>2014-7-6T4:28:30Z</time></trkpt>
<trkpt lat="48.97613808" lon="-1.01375238"><ele></ele><time>2014-7-6T4:28:33Z</time></trkpt>
<trkpt lat="48.97606717" lon="-1.01393427"><ele></ele><time>2014-7-6T4:28:36Z</time></trkpt>
<trkpt lat="48.97588637" lon="-1.01404114"><ele></ele><time>2014-7-6T4:28:39Z</time></trkpt>
<trkpt lat="48.97549267" lon="-1.01395514"><ele></ele><time>2014-7-6T4:28:42Z</time></trkpt>
<trkpt lat="48.97540835" lon="-1.01394324"><ele></ele><time>2014-7-6T4:28:45Z</time></trkpt>
<trkpt lat="48.97501079" lon="-1.01385833"><ele></ele><time>2014-7-6T4:28:48Z</time></trkpt>
<trkpt lat="48.97466898" lon="-1.01363705"><ele></ele><time>2014-7-6T4:28:51Z</time></trkpt>
<trkpt lat="48.97448156" lon="-1.01343303"><ele></ele><time>2014-7-6T4:28:54Z</time></trkpt>
<trkpt lat="48.97436128" lon="-1.01305207"><ele></ele><time>2014-7-6T4:28:57Z</time></trkpt>
<trkpt lat="48.97436866" lon="-1.01294587"><ele></ele><time>2014-7-6T4:29:0Z</time></trkpt>
<trkpt lat="48.97439967" lon="-1.01266064"><ele></ele><time>2014-7-6T4:29:3Z</time></trkpt>
<trkpt lat="48.97436136" lon="-1.01217633"><ele></ele><time>2014-7-6T4:29:6Z</time></trkpt>
<trkpt lat="48.97427780" lon="-1.01175916"><ele></ele><time>2014-7-6T4:29:9Z</time></trkpt>
<trkpt lat="48.97424745" lon="-1.01157719"><ele></ele><time>2014-7-6T4:29:12Z</time></trkpt>
<trkpt lat="48.97421770" lon="-1.01130369"><ele></ele><time>2014-7-6T4:29:15Z</time></trkpt>
<trkpt lat="48.97418777" lon="-1.01112273"><ele></ele><time>2014-7-6T4:29:18Z</time></trkpt>
<trkpt lat="48.97414017" lon="-1.01093128"><ele></ele><time>2014-7-6T4:29:21Z</time></trkpt>
<trkpt lat="48.97411519" lon="-1.01078753"><ele></ele><time>2014-7-6T4:29:24Z</time></trkpt>
<trkpt lat="48.97410454" lon="-1.01073934"><ele></ele><time>2014-7-6T4:29:27Z</time></trkpt>
<trkpt lat="48.97410546" lon="-1.01071612"><ele></ele><time>2014-7-6T4:29:30Z</time></trkpt>
<trkpt lat="48.97411527" lon="-1.01060606"><ele></ele><time>2014-7-6T4:29:33Z</time></trkpt>
<trkpt lat="48.97411544" lon="-1.01047598"><ele></ele><time>2014-7-6T4:29:36Z</time></trkpt>
<trkpt lat="48.97413614" lon="-1.01030633"><ele></ele><time>2014-7-6T4:29:39Z</time></trkpt>
<trkpt lat="48.97417705" lon="-1.01021999"><ele></ele><time>2014-7-6T4:29:42Z</time></trkpt>
<trkpt lat="48.97419104" lon="-1.01016677"><ele></ele><time>2014-7-6T4:29:45Z</time></trkpt>
<trkpt lat="48.97418593" lon="-1.00996787"><ele></ele><time>2014-7-6T4:29:48Z</time></trkpt>
<trkpt lat="48.97416766" lon="-1.00990894"><ele></ele><time>2014-7-6T4:29:51Z</time></trkpt>
<trkpt lat="48.97412726" lon="-1.00988304"><ele></ele><time>2014-7-6T4:29:54Z</time></trkpt>
<trkpt lat="48.97406356" lon="-1.00990442"><ele></ele><time>2014-7-6T4:29:57Z</time></trkpt>
<trkpt lat="48.97395166" lon="-1.00995177"><ele></ele><time>2014-7-6T4:30:0Z</time></trkpt>
<trkpt lat="48.97381084" lon="-1.01003300"><ele></ele><time>2014-7-6T4:30:3Z</time></trkpt>
<trkpt lat="48.97360574" lon="-1.01009309"><ele></ele><time>2014-7-6T4:30:6Z</time></trkpt>
<trkpt lat="48.97341932" lon="-1.01002688"><ele></ele><time>2014-7-6T4:30:9Z</time></trkpt>
<trkpt lat="48.97325562" lon="-1.00999896"><ele></ele><time>2014-7-6T4:30:12Z</time></trkpt>
<trkpt lat="48.97312269" lon="-1.01010483"><ele></ele><time>2014-7-6T4:30:15Z</time></trkpt>
<trkpt lat="48.97294667" lon="-1.01039492"><ele></ele><time>2014-7-6T4:30:18Z</time></trkpt>
<trkpt lat="48.97278489" lon="-1.01071134"><ele></ele><time>2014-7-6T4:30:21Z</time></trkpt>
<trkpt lat="48.97267618" lon="-1.01086146"><ele></ele><time>2014-7-6T4:30:24Z</time></trkpt>
<trkpt lat="48.97260175" lon="-1.01087764"><ele></ele><time>2014-7-6T4:30:27Z</time></trkpt>
<trkpt lat="48.97248709" lon="-1.01080639"><ele></ele><time>2014-7-6T4:30:30Z</time></trkpt>
<trkpt lat="48.97237066" lon="-1.01072484"><ele></ele><time>2014-7-6T4:30:33Z</time></trkpt>
<trkpt lat="48.97219598" lon="-1.01059374"><ele></ele><time>2014-7-6T4:30:36Z</time></trkpt>
<trkpt lat="48.97202306" lon="-1.01056349"><ele></ele><time>2014-7-6T4:30:39Z</time></trkpt>
<trkpt lat="48.97186205" lon="-1.01068008"><ele></ele><time>2014-7-6T4:30:42Z</time></trkpt>
<trkpt lat="48.97175543" lon="-1.01086272"><ele></ele><time>2014-7-6T4:30:45Z</time></trkpt>
<trkpt lat="48.97167454" lon="-1.01102382"><ele></ele><time>2014-7-6T4:30:48Z</time></trkpt>
<trkpt lat="48.97154873" lon="-1.01122926"><ele></ele><time>2014-7-6T4:30:51Z</time></trkpt>
<trkpt lat="48.97144790" lon="-1.01122599"><ele></ele><time>2014-7-6T4:30:54Z</time></trkpt>
<trkpt lat="48.97139828" lon="-1.01118928"><ele></ele><time>2014-7-6T4:30:57Z</time></trkpt>
<trkpt lat="48.97128487" lon="-1.01129238"><ele></ele><time>2014-7-6T4:31:0Z</time></trkpt>
<trkpt lat="48.97126936" lon="-1.01133479"><ele></ele><time>2014-7-6T4:31:3Z</time></trkpt>
<trkpt lat="48.97108974" lon="-1.01176805"><ele></ele><time>2014-7-6T4:31:6Z</time></trkpt>
<trkpt lat="48.97089922" lon="-1.01226049"><ele></ele><time>2014-7-6T4:31:9Z</time></trkpt>
<trkpt lat="48.97084784" lon="-1.01236870"><ele></ele><time>2014-7-6T4:31:12Z</time></trkpt>
<trkpt lat="48.97081087" lon="-1.01263834"><ele></ele><time>2014-7-6T4:31:15Z</time></trkpt>
<trkpt lat="48.97086678" lon="-1.01311267"><ele></ele><time>2014-7-6T4:31:18Z</time></trkpt>
<trkpt lat="48.97095102" lon="-1.01365783"><ele></ele><time>2014-7-6T4:31:21Z</time></trkpt>
<trkpt lat="48.97105269" lon="-1.01431665"><ele></ele><time>2014-7-6T4:31:24Z</time></trkpt>
<trkpt lat="48.97117188" lon="-1.01513766"><ele></ele><time>2014-7-6T4:31:27Z</time></trkpt>
<trkpt lat="48.97123424" lon="-1.01597275"><ele></ele><time>2014-7-6T4:31:30Z</time></trkpt>
<trkpt lat="48.97119770" lon="-1.01669904"><ele></ele><time>2014-7-6T4:31:33Z</time></trkpt>
<trkpt lat="48.97102017" lon="-1.01730002"><ele></ele><time>2014-7-6T4:31:36Z</time></trkpt>
<trkpt lat="48.97080056" lon="-1.01762650"><ele></ele><time>2014-7-6T4:31:39Z</time></trkpt>
<trkpt lat="48.97040050" lon="-1.01857658"><ele></ele><time>2014-7-6T4:31:42Z</time></trkpt>
<trkpt lat="48.97023068" lon="-1.01901353"><ele></ele><time>2014-7-6T4:31:45Z</time></trkpt>
<trkpt lat="48.97015482" lon="-1.01923029"><ele></ele><time>2014-7-6T4:31:48Z</time></trkpt>
<trkpt lat="48.96978116" lon="-1.01988726"><ele></ele><time>2014-7-6T4:31:51Z</time></trkpt>
<trkpt lat="48.96972123" lon="-1.01997343"><ele></ele><time>2014-7-6T4:31:54Z</time></trkpt>
<trkpt lat="48.96950514" lon="-1.02009304"><ele></ele><time>2014-7-6T4:31:57Z</time></trkpt>
<trkpt lat="48.96932275" lon="-1.01993906"><ele></ele><time>2014-7-6T4:32:0Z</time></trkpt>
<trkpt lat="48.96915796" lon="-1.01987452"><ele></ele><time>2014-7-6T4:32:3Z</time></trkpt>
<trkpt lat="48.96905822" lon="-1.01997594"><ele></ele><time>2014-7-6T4:32:6Z</time></trkpt>
<trkpt lat="48.96872587" lon="-1.02036134"><ele></ele><time>2014-7-6T4:32:9Z</time></trkpt>
<trkpt lat="48.96850392" lon="-1.02041524"><ele></ele><time>2014-7-6T4:32:12Z</time></trkpt>
<trkpt lat="48.96845866" lon="-1.02038180"><ele></ele><time>2014-7-6T4:32:15Z</time></trkpt>
<trkpt lat="48.96825314" lon="-1.02019354"><ele></ele><time>2014-7-6T4:32:18Z</time></trkpt>
<trkpt lat="48.96819002" lon="-1.02013813"><ele></ele><time>2014-7-6T4:32:21Z</time></trkpt>
<trkpt lat="48.96805164" lon="-1.02002372"><ele></ele><time>2014-7-6T4:32:24Z</time></trkpt>
<trkpt lat="48.96789020" lon="-1.01986866"><ele></ele><time>2014-7-6T4:32:27Z</time></trkpt>
<trkpt lat="48.96786363" lon="-1.01983488"><ele></ele><time>2014-7-6T4:32:30Z</time></trkpt>
<trkpt lat="48.96767998" lon="-1.01966129"><ele></ele><time>2014-7-6T4:32:33Z</time></trkpt>
<trkpt lat="48.96750958" lon="-1.01950555"><ele></ele><time>2014-7-6T4:32:36Z</time></trkpt>
<trkpt lat="48.96730439" lon="-1.01931084"><ele></ele><time>2014-7-6T4:32:39Z</time></trkpt>
<trkpt lat="48.96708612" lon="-1.01910322"><ele></ele><time>2014-7-6T4:32:42Z</time></trkpt>
<trkpt lat="48.96685512" lon="-1.01884506"><ele></ele><time>2014-7-6T4:32:45Z</time></trkpt>
<trkpt lat="48.96659000" lon="-1.01845706"><ele></ele><time>2014-7-6T4:32:48Z</time></trkpt>
<trkpt lat="48.96639076" lon="-1.01817626"><ele></ele><time>2014-7-6T4:32:51Z</time></trkpt>
<trkpt lat="48.96623637" lon="-1.01796437"><ele></ele><time>2014-7-6T4:32:54Z</time></trkpt>
<trkpt lat="48.96609379" lon="-1.01776714"><ele></ele><time>2014-7-6T4:32:57Z</time></trkpt>
<trkpt lat="48.96592908" lon="-1.01753589"><ele></ele><time>2014-7-6T4:33:0Z</time></trkpt>
<trkpt lat="48.96584552" lon="-1.01717362"><ele></ele><time>2014-7-6T4:33:3Z</time></trkpt>
<trkpt lat="48.96586547" lon="-1.01706508"><ele></ele><time>2014-7-6T4:33:6Z</time></trkpt>
<trkpt lat="48.96611944" lon="-1.01614198"><ele></ele><time>2014-7-6T4:33:9Z</time></trkpt>
<trkpt lat="48.96619228" lon="-1.01585842"><ele></ele><time>2014-7-6T4:33:12Z</time></trkpt>
<trkpt lat="48.96619605" lon="-1.01545642"><ele></ele><time>2014-7-6T4:33:15Z</time></trkpt>
<trkpt lat="48.96610410" lon="-1.01534528"><ele></ele><time>2014-7-6T4:33:18Z</time></trkpt>
<trkpt lat="48.96603503" lon="-1.01531728"><ele></ele><time>2014-7-6T4:33:21Z</time></trkpt>
<trkpt lat="48.96589455" lon="-1.01537134"><ele></ele><time>2014-7-6T4:33:24Z</time></trkpt>
<trkpt lat="48.96586706" lon="-1.01540823"><ele></ele><time>2014-7-6T4:33:27Z</time></trkpt>
<trkpt lat="48.96575298" lon="-1.01562532"><ele></ele><time>2014-7-6T4:33:30Z</time></trkpt>
<trkpt lat="48.96562507" lon="-1.01586345"><ele></ele><time>2014-7-6T4:33:33Z</time></trkpt>
<trkpt lat="48.96552944" lon="-1.01601575"><ele></ele><time>2014-7-6T4:33:36Z</time></trkpt>
<trkpt lat="48.96542885" lon="-1.01619679"><ele></ele><time>2014-7-6T4:33:39Z</time></trkpt>
<trkpt lat="48.96528963" lon="-1.01640014"><ele></ele><time>2014-7-6T4:33:42Z</time></trkpt>
<trkpt lat="48.96517027" lon="-1.01657650"><ele></ele><time>2014-7-6T4:33:45Z</time></trkpt>
<trkpt lat="48.96503759" lon="-1.01676894"><ele></ele><time>2014-7-6T4:33:48Z</time></trkpt>
<trkpt lat="48.96488587" lon="-1.01702593"><ele></ele><time>2014-7-6T4:33:51Z</time></trkpt>
<trkpt lat="48.96485687" lon="-1.01706876"><ele></ele><time>2014-7-6T4:33:54Z</time></trkpt>
<trkpt lat="48.96466116" lon="-1.01707505"><ele></ele><time>2014-7-6T4:33:57Z</time></trkpt>
<trkpt lat="48.96462243" lon="-1.01706516"><ele></ele><time>2014-7-6T4:34:0Z</time></trkpt>
<trkpt lat="48.96438975" lon="-1.01695670"><ele></ele><time>2014-7-6T4:34:3Z</time></trkpt>
<trkpt lat="48.96424533" lon="-1.01687338"><ele></ele><time>2014-7-6T4:34:6Z</time></trkpt>
<trkpt lat="48.96419328" lon="-1.01687598"><ele></ele><time>2014-7-6T4:34:9Z</time></trkpt>
<trkpt lat="48.96410585" lon="-1.01697497"><ele></ele><time>2014-7-6T4:34:12Z</time></trkpt>
<trkpt lat="48.96401172" lon="-1.01697422"><ele></ele><time>2014-7-6T4:34:15Z</time></trkpt>
<trkpt lat="48.96398876" lon="-1.01695485"><ele></ele><time>2014-7-6T4:34:18Z</time></trkpt>
<trkpt lat="48.96381525" lon="-1.01676844"><ele></ele><time>2014-7-6T4:34:21Z</time></trkpt>
<trkpt lat="48.96364208" lon="-1.01656904"><ele></ele><time>2014-7-6T4:34:24Z</time></trkpt>
<trkpt lat="48.96349372" lon="-1.01636242"><ele></ele><time>2014-7-6T4:34:27Z</time></trkpt>
<trkpt lat="48.96338677" lon="-1.01621565"><ele></ele><time>2014-7-6T4:34:30Z</time></trkpt>
<trkpt lat="48.96327227" lon="-1.01605229"><ele></ele><time>2014-7-6T4:34:33Z</time></trkpt>
<trkpt lat="48.96314126" lon="-1.01589463"><ele></ele><time>2014-7-6T4:34:36Z</time></trkpt>
<trkpt lat="48.96302040" lon="-1.01578600"><ele></ele><time>2014-7-6T4:34:39Z</time></trkpt>
<trkpt lat="48.96290615" lon="-1.01570293"><ele></ele><time>2014-7-6T4:34:42Z</time></trkpt>
<trkpt lat="48.96282937" lon="-1.01565214"><ele></ele><time>2014-7-6T4:34:45Z</time></trkpt>
<trkpt lat="48.96271496" lon="-1.01559229"><ele></ele><time>2014-7-6T4:34:48Z</time></trkpt>
<trkpt lat="48.96259653" lon="-1.01555717"><ele></ele><time>2014-7-6T4:34:51Z</time></trkpt>
<trkpt lat="48.96244875" lon="-1.01552507"><ele></ele><time>2014-7-6T4:34:54Z</time></trkpt>
<trkpt lat="48.96232076" lon="-1.01550336"><ele></ele><time>2014-7-6T4:34:57Z</time></trkpt>
<trkpt lat="48.96217659" lon="-1.01549339"><ele></ele><time>2014-7-6T4:35:0Z</time></trkpt>
<trkpt lat="48.96207559" lon="-1.01550118"><ele></ele><time>2014-7-6T4:35:3Z</time></trkpt>
<trkpt lat="48.96195699" lon="-1.01549565"><ele></ele><time>2014-7-6T4:35:6Z</time></trkpt>
<trkpt lat="48.96179815" lon="-1.01550537"><ele></ele><time>2014-7-6T4:35:9Z</time></trkpt>
<trkpt lat="48.96165792" lon="-1.01551979"><ele></ele><time>2014-7-6T4:35:12Z</time></trkpt>
<trkpt lat="48.96155046" lon="-1.01553672"><ele></ele><time>2014-7-6T4:35:15Z</time></trkpt>
<trkpt lat="48.96139825" lon="-1.01554837"><ele></ele><time>2014-7-6T4:35:18Z</time></trkpt>
<trkpt lat="48.96127470" lon="-1.01557209"><ele></ele><time>2014-7-6T4:35:21Z</time></trkpt>
<trkpt lat="48.96115668" lon="-1.01562305"><ele></ele><time>2014-7-6T4:35:24Z</time></trkpt>
<trkpt lat="48.96104956" lon="-1.01566144"><ele></ele><time>2014-7-6T4:35:27Z</time></trkpt>
<trkpt lat="48.96091294" lon="-1.01570729"><ele></ele><time>2014-7-6T4:35:30Z</time></trkpt>
<trkpt lat="48.96079525" lon="-1.01575716"><ele></ele><time>2014-7-6T4:35:33Z</time></trkpt>
<trkpt lat="48.96069333" lon="-1.01587292"><ele></ele><time>2014-7-6T4:35:36Z</time></trkpt>
<trkpt lat="48.96070456" lon="-1.01603502"><ele></ele><time>2014-7-6T4:35:39Z</time></trkpt>
<trkpt lat="48.96074412" lon="-1.01631146"><ele></ele><time>2014-7-6T4:35:42Z</time></trkpt>
<trkpt lat="48.96077539" lon="-1.01677548"><ele></ele><time>2014-7-6T4:35:45Z</time></trkpt>
<trkpt lat="48.96078260" lon="-1.01740505"><ele></ele><time>2014-7-6T4:35:48Z</time></trkpt>
<trkpt lat="48.96076105" lon="-1.01795842"><ele></ele><time>2014-7-6T4:35:51Z</time></trkpt>
<trkpt lat="48.96069920" lon="-1.01852462"><ele></ele><time>2014-7-6T4:35:54Z</time></trkpt>
<trkpt lat="48.96056576" lon="-1.01929852"><ele></ele><time>2014-7-6T4:35:57Z</time></trkpt>
<trkpt lat="48.96064488" lon="-1.01975584"><ele></ele><time>2014-7-6T4:36:0Z</time></trkpt>
<trkpt lat="48.96082736" lon="-1.02007988"><ele></ele><time>2014-7-6T4:36:3Z</time></trkpt>
<trkpt lat="48.96107244" lon="-1.02076904"><ele></ele><time>2014-7-6T4:36:6Z</time></trkpt>
<trkpt lat="48.96111419" lon="-1.02091564"><ele></ele><time>2014-7-6T4:36:9Z</time></trkpt>
<trkpt lat="48.96114637" lon="-1.02106224"><ele></ele><time>2014-7-6T4:36:12Z</time></trkpt>
<trkpt lat="48.96111737" lon="-1.02159424"><ele></ele><time>2014-7-6T4:36:15Z</time></trkpt>
<trkpt lat="48.96092970" lon="-1.02236194"><ele></ele><time>2014-7-6T4:36:18Z</time></trkpt>
<trkpt lat="48.96076919" lon="-1.02294305"><ele></ele><time>2014-7-6T4:36:21Z</time></trkpt>
<trkpt lat="48.96054212" lon="-1.02366314"><ele></ele><time>2014-7-6T4:36:24Z</time></trkpt>
<trkpt lat="48.96030743" lon="-1.02423940"><ele></ele><time>2014-7-6T4:36:27Z</time></trkpt>
<trkpt lat="48.96003325" lon="-1.02488103"><ele></ele><time>2014-7-6T4:36:30Z</time></trkpt>
<trkpt lat="48.95981097" lon="-1.02540867"><ele></ele><time>2014-7-6T4:36:33Z</time></trkpt>
<trkpt lat="48.95948810" lon="-1.02619615"><ele></ele><time>2014-7-6T4:36:36Z</time></trkpt>
<trkpt lat="48.95922792" lon="-1.02682144"><ele></ele><time>2014-7-6T4:36:39Z</time></trkpt>
<trkpt lat="48.95890723" lon="-1.02758688"><ele></ele><time>2014-7-6T4:36:42Z</time></trkpt>
<trkpt lat="48.95865016" lon="-1.02820102"><ele></ele><time>2014-7-6T4:36:45Z</time></trkpt>
<trkpt lat="48.95862333" lon="-1.02826514"><ele></ele><time>2014-7-6T4:36:48Z</time></trkpt>
<trkpt lat="48.95859542" lon="-1.02832600"><ele></ele><time>2014-7-6T4:36:51Z</time></trkpt>
<trkpt lat="48.95850322" lon="-1.02846949"><ele></ele><time>2014-7-6T4:36:54Z</time></trkpt>
<trkpt lat="48.95851236" lon="-1.02846505"><ele></ele><time>2014-7-6T4:36:57Z</time></trkpt>
<trkpt lat="48.95851269" lon="-1.02849246"><ele></ele><time>2014-7-6T4:37:0Z</time></trkpt>
<trkpt lat="48.95846483" lon="-1.02860645"><ele></ele><time>2014-7-6T4:37:3Z</time></trkpt>
<trkpt lat="48.95844195" lon="-1.02874853"><ele></ele><time>2014-7-6T4:37:6Z</time></trkpt>
<trkpt lat="48.95841764" lon="-1.02888976"><ele></ele><time>2014-7-6T4:37:9Z</time></trkpt>
<trkpt lat="48.95838085" lon="-1.02923309"><ele></ele><time>2014-7-6T4:37:12Z</time></trkpt>
<trkpt lat="48.95836274" lon="-1.02940575"><ele></ele><time>2014-7-6T4:37:15Z</time></trkpt>
<trkpt lat="48.95834749" lon="-1.02959527"><ele></ele><time>2014-7-6T4:37:18Z</time></trkpt>
<trkpt lat="48.95829795" lon="-1.03015627"><ele></ele><time>2014-7-6T4:37:21Z</time></trkpt>
<trkpt lat="48.95823458" lon="-1.03096135"><ele></ele><time>2014-7-6T4:37:24Z</time></trkpt>
<trkpt lat="48.95818907" lon="-1.03191773"><ele></ele><time>2014-7-6T4:37:27Z</time></trkpt>
<trkpt lat="48.95809175" lon="-1.03316495"><ele></ele><time>2014-7-6T4:37:30Z</time></trkpt>
<trkpt lat="48.95788799" lon="-1.03430405"><ele></ele><time>2014-7-6T4:37:33Z</time></trkpt>
<trkpt lat="48.95754634" lon="-1.03580936"><ele></ele><time>2014-7-6T4:37:36Z</time></trkpt>
<trkpt lat="48.95746454" lon="-1.03654387"><ele></ele><time>2014-7-6T4:37:39Z</time></trkpt>
<trkpt lat="48.95744392" lon="-1.03694737"><ele></ele><time>2014-7-6T4:37:42Z</time></trkpt>
<trkpt lat="48.95741869" lon="-1.03732355"><ele></ele><time>2014-7-6T4:37:45Z</time></trkpt>
<trkpt lat="48.95740963" lon="-1.03739647"><ele></ele><time>2014-7-6T4:37:48Z</time></trkpt>
<trkpt lat="48.95727360" lon="-1.03755875"><ele></ele><time>2014-7-6T4:37:51Z</time></trkpt>
<trkpt lat="48.95721870" lon="-1.03755338"><ele></ele><time>2014-7-6T4:37:54Z</time></trkpt>
<trkpt lat="48.95691787" lon="-1.03748054"><ele></ele><time>2014-7-6T4:37:57Z</time></trkpt>
<trkpt lat="48.95672626" lon="-1.03742338"><ele></ele><time>2014-7-6T4:38:0Z</time></trkpt>
<trkpt lat="48.95627514" lon="-1.03723202"><ele></ele><time>2014-7-6T4:38:3Z</time></trkpt>
<trkpt lat="48.95570668" lon="-1.03687923"><ele></ele><time>2014-7-6T4:38:6Z</time></trkpt>
<trkpt lat="48.95533067" lon="-1.03652526"><ele></ele><time>2014-7-6T4:38:9Z</time></trkpt>
<trkpt lat="48.95517443" lon="-1.03634119"><ele></ele><time>2014-7-6T4:38:12Z</time></trkpt>
<trkpt lat="48.95495189" lon="-1.03607414"><ele></ele><time>2014-7-6T4:38:15Z</time></trkpt>
<trkpt lat="48.95481938" lon="-1.03593743"><ele></ele><time>2014-7-6T4:38:18Z</time></trkpt>
<trkpt lat="48.95468853" lon="-1.03581154"><ele></ele><time>2014-7-6T4:38:21Z</time></trkpt>
<trkpt lat="48.95437815" lon="-1.03556788"><ele></ele><time>2014-7-6T4:38:24Z</time></trkpt>
<trkpt lat="48.95402217" lon="-1.03532572"><ele></ele><time>2014-7-6T4:38:27Z</time></trkpt>
<trkpt lat="48.95382780" lon="-1.03522145"><ele></ele><time>2014-7-6T4:38:30Z</time></trkpt>
<trkpt lat="48.95362755" lon="-1.03498248"><ele></ele><time>2014-7-6T4:38:33Z</time></trkpt>
<trkpt lat="48.95358103" lon="-1.03491685"><ele></ele><time>2014-7-6T4:38:36Z</time></trkpt>
<trkpt lat="48.95326478" lon="-1.03462097"><ele></ele><time>2014-7-6T4:38:39Z</time></trkpt>
<trkpt lat="48.95288986" lon="-1.03419274"><ele></ele><time>2014-7-6T4:38:42Z</time></trkpt>
<trkpt lat="48.95246515" lon="-1.03367994"><ele></ele><time>2014-7-6T4:38:45Z</time></trkpt>
<trkpt lat="48.95223943" lon="-1.03334835"><ele></ele><time>2014-7-6T4:38:48Z</time></trkpt>
<trkpt lat="48.95199476" lon="-1.03306060"><ele></ele><time>2014-7-6T4:38:51Z</time></trkpt>
<trkpt lat="48.95150383" lon="-1.03256774"><ele></ele><time>2014-7-6T4:38:54Z</time></trkpt>
<trkpt lat="48.95107719" lon="-1.03224085"><ele></ele><time>2014-7-6T4:38:57Z</time></trkpt>
<trkpt lat="48.95095088" lon="-1.03214295"><ele></ele><time>2014-7-6T4:39:0Z</time></trkpt>
<trkpt lat="48.95050932" lon="-1.03178278"><ele></ele><time>2014-7-6T4:39:3Z</time></trkpt>
<trkpt lat="48.95005007" lon="-1.03124047"><ele></ele><time>2014-7-6T4:39:6Z</time></trkpt>
<trkpt lat="48.94991010" lon="-1.03104928"><ele></ele><time>2014-7-6T4:39:9Z</time></trkpt>
<trkpt lat="48.94969342" lon="-1.03091274"><ele></ele><time>2014-7-6T4:39:12Z</time></trkpt>
<trkpt lat="48.94923099" lon="-1.03084048"><ele></ele><time>2014-7-6T4:39:15Z</time></trkpt>
<trkpt lat="48.94876513" lon="-1.03076865"><ele></ele><time>2014-7-6T4:39:18Z</time></trkpt>
<trkpt lat="48.94851325" lon="-1.03057335"><ele></ele><time>2014-7-6T4:39:21Z</time></trkpt>
<trkpt lat="48.94847537" lon="-1.03051443"><ele></ele><time>2014-7-6T4:39:24Z</time></trkpt>
<trkpt lat="48.94836422" lon="-1.03033137"><ele></ele><time>2014-7-6T4:39:27Z</time></trkpt>
<trkpt lat="48.94805266" lon="-1.03004529"><ele></ele><time>2014-7-6T4:39:30Z</time></trkpt>
<trkpt lat="48.94769618" lon="-1.02989140"><ele></ele><time>2014-7-6T4:39:33Z</time></trkpt>
<trkpt lat="48.94740977" lon="-1.02977045"><ele></ele><time>2014-7-6T4:39:36Z</time></trkpt>
<trkpt lat="48.94705413" lon="-1.02953827"><ele></ele><time>2014-7-6T4:39:39Z</time></trkpt>
<trkpt lat="48.94671047" lon="-1.02928916"><ele></ele><time>2014-7-6T4:39:42Z</time></trkpt>
<trkpt lat="48.94654778" lon="-1.02921909"><ele></ele><time>2014-7-6T4:39:45Z</time></trkpt>
<trkpt lat="48.94633085" lon="-1.02912127"><ele></ele><time>2014-7-6T4:39:48Z</time></trkpt>
<trkpt lat="48.94608392" lon="-1.02907576"><ele></ele><time>2014-7-6T4:39:51Z</time></trkpt>
<trkpt lat="48.94575175" lon="-1.02916000"><ele></ele><time>2014-7-6T4:39:54Z</time></trkpt>
<trkpt lat="48.94546349" lon="-1.02927994"><ele></ele><time>2014-7-6T4:39:57Z</time></trkpt>
<trkpt lat="48.94517139" lon="-1.02945889"><ele></ele><time>2014-7-6T4:40:0Z</time></trkpt>
<trkpt lat="48.94492873" lon="-1.02972737"><ele></ele><time>2014-7-6T4:40:3Z</time></trkpt>
<trkpt lat="48.94466923" lon="-1.03008988"><ele></ele><time>2014-7-6T4:40:6Z</time></trkpt>
<trkpt lat="48.94440796" lon="-1.03052323"><ele></ele><time>2014-7-6T4:40:9Z</time></trkpt>
<trkpt lat="48.94412910" lon="-1.03090787"><ele></ele><time>2014-7-6T4:40:12Z</time></trkpt>
<trkpt lat="48.94388233" lon="-1.03120719"><ele></ele><time>2014-7-6T4:40:15Z</time></trkpt>
<trkpt lat="48.94361788" lon="-1.03151833"><ele></ele><time>2014-7-6T4:40:18Z</time></trkpt>
<trkpt lat="48.94334053" lon="-1.03182142"><ele></ele><time>2014-7-6T4:40:21Z</time></trkpt>
<trkpt lat="48.94310608" lon="-1.03195913"><ele></ele><time>2014-7-6T4:40:24Z</time></trkpt>
<trkpt lat="48.94276888" lon="-1.03207413"><ele></ele><time>2014-7-6T4:40:27Z</time></trkpt>
<trkpt lat="48.94252036" lon="-1.03211009"><ele></ele><time>2014-7-6T4:40:30Z</time></trkpt>
<trkpt lat="48.94221903" lon="-1.03215879"><ele></ele><time>2014-7-6T4:40:33Z</time></trkpt>
<trkpt lat="48.94193329" lon="-1.03238787"><ele></ele><time>2014-7-6T4:40:36Z</time></trkpt>
<trkpt lat="48.94170932" lon="-1.03250773"><ele></ele><time>2014-7-6T4:40:39Z</time></trkpt>
<trkpt lat="48.94139878" lon="-1.03269305"><ele></ele><time>2014-7-6T4:40:42Z</time></trkpt>
<trkpt lat="48.94118353" lon="-1.03288248"><ele></ele><time>2014-7-6T4:40:45Z</time></trkpt>
<trkpt lat="48.94085814" lon="-1.03319873"><ele></ele><time>2014-7-6T4:40:48Z</time></trkpt>
<trkpt lat="48.94070517" lon="-1.03331977"><ele></ele><time>2014-7-6T4:40:51Z</time></trkpt>
<trkpt lat="48.94034584" lon="-1.03344566"><ele></ele><time>2014-7-6T4:40:54Z</time></trkpt>
<trkpt lat="48.93991727" lon="-1.03355806"><ele></ele><time>2014-7-6T4:40:57Z</time></trkpt>
<trkpt lat="48.93945568" lon="-1.03371657"><ele></ele><time>2014-7-6T4:41:0Z</time></trkpt>
<trkpt lat="48.93909476" lon="-1.03391002"><ele></ele><time>2014-7-6T4:41:3Z</time></trkpt>
<trkpt lat="48.93901429" lon="-1.03395268"><ele></ele><time>2014-7-6T4:41:6Z</time></trkpt>
<trkpt lat="48.93885269" lon="-1.03393056"><ele></ele><time>2014-7-6T4:41:9Z</time></trkpt>
<trkpt lat="48.93879326" lon="-1.03383760"><ele></ele><time>2014-7-6T4:41:12Z</time></trkpt>
<trkpt lat="48.93869620" lon="-1.03351356"><ele></ele><time>2014-7-6T4:41:15Z</time></trkpt>
<trkpt lat="48.93867063" lon="-1.03295063"><ele></ele><time>2014-7-6T4:41:18Z</time></trkpt>
<trkpt lat="48.93867415" lon="-1.03265449"><ele></ele><time>2014-7-6T4:41:21Z</time></trkpt>
<trkpt lat="48.93868187" lon="-1.03238074"><ele></ele><time>2014-7-6T4:41:24Z</time></trkpt>
<trkpt lat="48.93862537" lon="-1.03229516"><ele></ele><time>2014-7-6T4:41:27Z</time></trkpt>
<trkpt lat="48.93860525" lon="-1.03228988"><ele></ele><time>2014-7-6T4:41:30Z</time></trkpt>
<trkpt lat="48.93842924" lon="-1.03239340"><ele></ele><time>2014-7-6T4:41:33Z</time></trkpt>
<trkpt lat="48.93826386" lon="-1.03248619"><ele></ele><time>2014-7-6T4:41:36Z</time></trkpt>
<trkpt lat="48.93799614" lon="-1.03261979"><ele></ele><time>2014-7-6T4:41:39Z</time></trkpt>
<trkpt lat="48.93766313" lon="-1.03278902"><ele></ele><time>2014-7-6T4:41:42Z</time></trkpt>
<trkpt lat="48.93733825" lon="-1.03298164"><ele></ele><time>2014-7-6T4:41:45Z</time></trkpt>
<trkpt lat="48.93685025" lon="-1.03324106"><ele></ele><time>2014-7-6T4:41:48Z</time></trkpt>
<trkpt lat="48.93677532" lon="-1.03328347"><ele></ele><time>2014-7-6T4:41:51Z</time></trkpt>
<trkpt lat="48.93652696" lon="-1.03350668"><ele></ele><time>2014-7-6T4:41:54Z</time></trkpt>
<trkpt lat="48.93637533" lon="-1.03380273"><ele></ele><time>2014-7-6T4:41:57Z</time></trkpt>
<trkpt lat="48.93630308" lon="-1.03415485"><ele></ele><time>2014-7-6T4:42:0Z</time></trkpt>
<trkpt lat="48.93625983" lon="-1.03449047"><ele></ele><time>2014-7-6T4:42:3Z</time></trkpt>
<trkpt lat="48.93624709" lon="-1.03474746"><ele></ele><time>2014-7-6T4:42:6Z</time></trkpt>
<trkpt lat="48.93622438" lon="-1.03515138"><ele></ele><time>2014-7-6T4:42:9Z</time></trkpt>
<trkpt lat="48.93624164" lon="-1.03542748"><ele></ele><time>2014-7-6T4:42:12Z</time></trkpt>
<trkpt lat="48.93620459" lon="-1.03570802"><ele></ele><time>2014-7-6T4:42:15Z</time></trkpt>
<trkpt lat="48.93616210" lon="-1.03612326"><ele></ele><time>2014-7-6T4:42:18Z</time></trkpt>
<trkpt lat="48.93607048" lon="-1.03644647"><ele></ele><time>2014-7-6T4:42:21Z</time></trkpt>
<trkpt lat="48.93588885" lon="-1.03684184"><ele></ele><time>2014-7-6T4:42:24Z</time></trkpt>
<trkpt lat="48.93567838" lon="-1.03721333"><ele></ele><time>2014-7-6T4:42:27Z</time></trkpt>
<trkpt lat="48.93547487" lon="-1.03757526"><ele></ele><time>2014-7-6T4:42:30Z</time></trkpt>
<trkpt lat="48.93525040" lon="-1.03799930"><ele></ele><time>2014-7-6T4:42:33Z</time></trkpt>
<trkpt lat="48.93514495" lon="-1.03832544"><ele></ele><time>2014-7-6T4:42:36Z</time></trkpt>
<trkpt lat="48.93510003" lon="-1.03887227"><ele></ele><time>2014-7-6T4:42:39Z</time></trkpt>
<trkpt lat="48.93504194" lon="-1.03954827"><ele></ele><time>2014-7-6T4:42:42Z</time></trkpt>
<trkpt lat="48.93498796" lon="-1.04018195"><ele></ele><time>2014-7-6T4:42:45Z</time></trkpt>
<trkpt lat="48.93494949" lon="-1.04064404"><ele></ele><time>2014-7-6T4:42:48Z</time></trkpt>
<trkpt lat="48.93489727" lon="-1.04122574"><ele></ele><time>2014-7-6T4:42:51Z</time></trkpt>
<trkpt lat="48.93484932" lon="-1.04184886"><ele></ele><time>2014-7-6T4:42:54Z</time></trkpt>
<trkpt lat="48.93480272" lon="-1.04241648"><ele></ele><time>2014-7-6T4:42:57Z</time></trkpt>
<trkpt lat="48.93473676" lon="-1.04308938"><ele></ele><time>2014-7-6T4:43:0Z</time></trkpt>
<trkpt lat="48.93469317" lon="-1.04368256"><ele></ele><time>2014-7-6T4:43:3Z</time></trkpt>
<trkpt lat="48.93461069" lon="-1.04441305"><ele></ele><time>2014-7-6T4:43:6Z</time></trkpt>
<trkpt lat="48.93445822" lon="-1.04491965"><ele></ele><time>2014-7-6T4:43:9Z</time></trkpt>
<trkpt lat="48.93419143" lon="-1.04547587"><ele></ele><time>2014-7-6T4:43:12Z</time></trkpt>
<trkpt lat="48.93394282" lon="-1.04590016"><ele></ele><time>2014-7-6T4:43:15Z</time></trkpt>
<trkpt lat="48.93369287" lon="-1.04629990"><ele></ele><time>2014-7-6T4:43:18Z</time></trkpt>
<trkpt lat="48.93354954" lon="-1.04655404"><ele></ele><time>2014-7-6T4:43:21Z</time></trkpt>
<trkpt lat="48.93350654" lon="-1.04683626"><ele></ele><time>2014-7-6T4:43:24Z</time></trkpt>
<trkpt lat="48.93352197" lon="-1.04695704"><ele></ele><time>2014-7-6T4:43:27Z</time></trkpt>
<trkpt lat="48.93355222" lon="-1.04724320"><ele></ele><time>2014-7-6T4:43:30Z</time></trkpt>
<trkpt lat="48.93356019" lon="-1.04729936"><ele></ele><time>2014-7-6T4:43:33Z</time></trkpt>
<trkpt lat="48.93357477" lon="-1.04746808"><ele></ele><time>2014-7-6T4:43:36Z</time></trkpt>
<trkpt lat="48.93359296" lon="-1.04769272"><ele></ele><time>2014-7-6T4:43:39Z</time></trkpt>
<trkpt lat="48.93362305" lon="-1.04791098"><ele></ele><time>2014-7-6T4:43:42Z</time></trkpt>
<trkpt lat="48.93365767" lon="-1.04818943"><ele></ele><time>2014-7-6T4:43:45Z</time></trkpt>
<trkpt lat="48.93368776" lon="-1.04847668"><ele></ele><time>2014-7-6T4:43:48Z</time></trkpt>
<trkpt lat="48.93372154" lon="-1.04905855"><ele></ele><time>2014-7-6T4:43:51Z</time></trkpt>
<trkpt lat="48.93371433" lon="-1.04965920"><ele></ele><time>2014-7-6T4:43:54Z</time></trkpt>
<trkpt lat="48.93368122" lon="-1.05021450"><ele></ele><time>2014-7-6T4:43:57Z</time></trkpt>
<trkpt lat="48.93367125" lon="-1.05072638"><ele></ele><time>2014-7-6T4:44:0Z</time></trkpt>
<trkpt lat="48.93367318" lon="-1.05111069"><ele></ele><time>2014-7-6T4:44:3Z</time></trkpt>
<trkpt lat="48.93368617" lon="-1.05161436"><ele></ele><time>2014-7-6T4:44:6Z</time></trkpt>
<trkpt lat="48.93371676" lon="-1.05210428"><ele></ele><time>2014-7-6T4:44:9Z</time></trkpt>
<trkpt lat="48.93368726" lon="-1.05273125"><ele></ele><time>2014-7-6T4:44:12Z</time></trkpt>
<trkpt lat="48.93357243" lon="-1.05315873"><ele></ele><time>2014-7-6T4:44:15Z</time></trkpt>
<trkpt lat="48.93335123" lon="-1.05366482"><ele></ele><time>2014-7-6T4:44:18Z</time></trkpt>
<trkpt lat="48.93313489" lon="-1.05404888"><ele></ele><time>2014-7-6T4:44:21Z</time></trkpt>
<trkpt lat="48.93293716" lon="-1.05443403"><ele></ele><time>2014-7-6T4:44:24Z</time></trkpt>
<trkpt lat="48.93288477" lon="-1.05468465"><ele></ele><time>2014-7-6T4:44:27Z</time></trkpt>
<trkpt lat="48.93291704" lon="-1.05497500"><ele></ele><time>2014-7-6T4:44:30Z</time></trkpt>
<trkpt lat="48.93301033" lon="-1.05527675"><ele></ele><time>2014-7-6T4:44:33Z</time></trkpt>
<trkpt lat="48.93312693" lon="-1.05565167"><ele></ele><time>2014-7-6T4:44:36Z</time></trkpt>
<trkpt lat="48.93322189" lon="-1.05596943"><ele></ele><time>2014-7-6T4:44:39Z</time></trkpt>
<trkpt lat="48.93335089" lon="-1.05638106"><ele></ele><time>2014-7-6T4:44:42Z</time></trkpt>
<trkpt lat="48.93345659" lon="-1.05672623"><ele></ele><time>2014-7-6T4:44:45Z</time></trkpt>
<trkpt lat="48.93357829" lon="-1.05710778"><ele></ele><time>2014-7-6T4:44:48Z</time></trkpt>
<trkpt lat="48.93365138" lon="-1.05734507"><ele></ele><time>2014-7-6T4:44:51Z</time></trkpt>
<trkpt lat="48.93371098" lon="-1.05751966"><ele></ele><time>2014-7-6T4:44:54Z</time></trkpt>
<trkpt lat="48.93378843" lon="-1.05775486"><ele></ele><time>2014-7-6T4:44:57Z</time></trkpt>
<trkpt lat="48.93384735" lon="-1.05796885"><ele></ele><time>2014-7-6T4:45:0Z</time></trkpt>
<trkpt lat="48.93391399" lon="-1.05819055"><ele></ele><time>2014-7-6T4:45:3Z</time></trkpt>
<trkpt lat="48.93397786" lon="-1.05844418"><ele></ele><time>2014-7-6T4:45:6Z</time></trkpt>
<trkpt lat="48.93402496" lon="-1.05867603"><ele></ele><time>2014-7-6T4:45:9Z</time></trkpt>
<trkpt lat="48.93406260" lon="-1.05894324"><ele></ele><time>2014-7-6T4:45:12Z</time></trkpt>
<trkpt lat="48.93407576" lon="-1.05926737"><ele></ele><time>2014-7-6T4:45:15Z</time></trkpt>
<trkpt lat="48.93407735" lon="-1.05952436"><ele></ele><time>2014-7-6T4:45:18Z</time></trkpt>
<trkpt lat="48.93408347" lon="-1.05984338"><ele></ele><time>2014-7-6T4:45:21Z</time></trkpt>
<trkpt lat="48.93408003" lon="-1.06015334"><ele></ele><time>2014-7-6T4:45:24Z</time></trkpt>
<trkpt lat="48.93407056" lon="-1.06042466"><ele></ele><time>2014-7-6T4:45:27Z</time></trkpt>
<trkpt lat="48.93405765" lon="-1.06069406"><ele></ele><time>2014-7-6T4:45:30Z</time></trkpt>
<trkpt lat="48.93404324" lon="-1.06105398"><ele></ele><time>2014-7-6T4:45:33Z</time></trkpt>
<trkpt lat="48.93400325" lon="-1.06138330"><ele></ele><time>2014-7-6T4:45:36Z</time></trkpt>
<trkpt lat="48.93394944" lon="-1.06166485"><ele></ele><time>2014-7-6T4:45:39Z</time></trkpt>
<trkpt lat="48.93391290" lon="-1.06183123"><ele></ele><time>2014-7-6T4:45:42Z</time></trkpt>
<trkpt lat="48.93388138" lon="-1.06205184"><ele></ele><time>2014-7-6T4:45:45Z</time></trkpt>
<trkpt lat="48.93386202" lon="-1.06225443"><ele></ele><time>2014-7-6T4:45:48Z</time></trkpt>
<trkpt lat="48.93385062" lon="-1.06245694"><ele></ele><time>2014-7-6T4:45:51Z</time></trkpt>
<trkpt lat="48.93383813" lon="-1.06272407"><ele></ele><time>2014-7-6T4:45:54Z</time></trkpt>
<trkpt lat="48.93382514" lon="-1.06292758"><ele></ele><time>2014-7-6T4:45:57Z</time></trkpt>
<trkpt lat="48.93380712" lon="-1.06320754"><ele></ele><time>2014-7-6T4:46:0Z</time></trkpt>
<trkpt lat="48.93378675" lon="-1.06349143"><ele></ele><time>2014-7-6T4:46:3Z</time></trkpt>
<trkpt lat="48.93377057" lon="-1.06372705"><ele></ele><time>2014-7-6T4:46:6Z</time></trkpt>
<trkpt lat="48.93375314" lon="-1.06393383"><ele></ele><time>2014-7-6T4:46:9Z</time></trkpt>
<trkpt lat="48.93373545" lon="-1.06413935"><ele></ele><time>2014-7-6T4:46:12Z</time></trkpt>
<trkpt lat="48.93370603" lon="-1.06442325"><ele></ele><time>2014-7-6T4:46:15Z</time></trkpt>
<trkpt lat="48.93369354" lon="-1.06460287"><ele></ele><time>2014-7-6T4:46:18Z</time></trkpt>
<trkpt lat="48.93367519" lon="-1.06486908"><ele></ele><time>2014-7-6T4:46:21Z</time></trkpt>
<trkpt lat="48.93367007" lon="-1.06504577"><ele></ele><time>2014-7-6T4:46:24Z</time></trkpt>
<trkpt lat="48.93366152" lon="-1.06522707"><ele></ele><time>2014-7-6T4:46:27Z</time></trkpt>
<trkpt lat="48.93365348" lon="-1.06545825"><ele></ele><time>2014-7-6T4:46:30Z</time></trkpt>
<trkpt lat="48.93364065" lon="-1.06569856"><ele></ele><time>2014-7-6T4:46:33Z</time></trkpt>
<trkpt lat="48.93362808" lon="-1.06588472"><ele></ele><time>2014-7-6T4:46:36Z</time></trkpt>
<trkpt lat="48.93361794" lon="-1.06603333"><ele></ele><time>2014-7-6T4:46:39Z</time></trkpt>
<trkpt lat="48.93359598" lon="-1.06630264"><ele></ele><time>2014-7-6T4:46:42Z</time></trkpt>
<trkpt lat="48.93357284" lon="-1.06653113"><ele></ele><time>2014-7-6T4:46:45Z</time></trkpt>
<trkpt lat="48.93353446" lon="-1.06685937"><ele></ele><time>2014-7-6T4:46:48Z</time></trkpt>
<trkpt lat="48.93349682" lon="-1.06717804"><ele></ele><time>2014-7-6T4:46:51Z</time></trkpt>
<trkpt lat="48.93346086" lon="-1.06751785"><ele></ele><time>2014-7-6T4:46:54Z</time></trkpt>
<trkpt lat="48.93341786" lon="-1.06788799"><ele></ele><time>2014-7-6T4:46:57Z</time></trkpt>
<trkpt lat="48.93338014" lon="-1.06825093"><ele></ele><time>2014-7-6T4:47:0Z</time></trkpt>
<trkpt lat="48.93334486" lon="-1.06858335"><ele></ele><time>2014-7-6T4:47:3Z</time></trkpt>
<trkpt lat="48.93329926" lon="-1.06895392"><ele></ele><time>2014-7-6T4:47:6Z</time></trkpt>
<trkpt lat="48.93328358" lon="-1.06917596"><ele></ele><time>2014-7-6T4:47:9Z</time></trkpt>
<trkpt lat="48.93321779" lon="-1.06925055"><ele></ele><time>2014-7-6T4:47:12Z</time></trkpt>
<trkpt lat="48.93314268" lon="-1.06923882"><ele></ele><time>2014-7-6T4:47:15Z</time></trkpt>
<trkpt lat="48.93306658" lon="-1.06921728"><ele></ele><time>2014-7-6T4:47:18Z</time></trkpt>
<trkpt lat="48.93296122" lon="-1.06919523"><ele></ele><time>2014-7-6T4:47:21Z</time></trkpt>
<trkpt lat="48.93283582" lon="-1.06917386"><ele></ele><time>2014-7-6T4:47:24Z</time></trkpt>
<trkpt lat="48.93272527" lon="-1.06916573"><ele></ele><time>2014-7-6T4:47:27Z</time></trkpt>
<trkpt lat="48.93261454" lon="-1.06914804"><ele></ele><time>2014-7-6T4:47:30Z</time></trkpt>
<trkpt lat="48.93248940" lon="-1.06914058"><ele></ele><time>2014-7-6T4:47:33Z</time></trkpt>
<trkpt lat="48.93239812" lon="-1.06913690"><ele></ele><time>2014-7-6T4:47:36Z</time></trkpt>
<trkpt lat="48.93176747" lon="-1.06919750"><ele></ele><time>2014-7-6T4:47:39Z</time></trkpt>
<trkpt lat="48.93175925" lon="-1.06920236"><ele></ele><time>2014-7-6T4:47:42Z</time></trkpt>
<trkpt lat="48.93172145" lon="-1.06922465"><ele></ele><time>2014-7-6T4:47:45Z</time></trkpt>
<trkpt lat="48.93155012" lon="-1.06931208"><ele></ele><time>2014-7-6T4:47:48Z</time></trkpt>
<trkpt lat="48.93146337" lon="-1.06937528"><ele></ele><time>2014-7-6T4:47:51Z</time></trkpt>
<trkpt lat="48.93130763" lon="-1.06941023"><ele></ele><time>2014-7-6T4:47:54Z</time></trkpt>
<trkpt lat="48.93123404" lon="-1.06942498"><ele></ele><time>2014-7-6T4:47:57Z</time></trkpt>
<trkpt lat="48.93119968" lon="-1.06943236"><ele></ele><time>2014-7-6T4:48:0Z</time></trkpt>
<trkpt lat="48.93109364" lon="-1.06945340"><ele></ele><time>2014-7-6T4:48:3Z</time></trkpt>
<trkpt lat="48.93100563" lon="-1.06944510"><ele></ele><time>2014-7-6T4:48:6Z</time></trkpt>
<trkpt lat="48.93089189" lon="-1.06947888"><ele></ele><time>2014-7-6T4:48:9Z</time></trkpt>
<trkpt lat="48.93082174" lon="-1.06949179"><ele></ele><time>2014-7-6T4:48:12Z</time></trkpt>
<trkpt lat="48.93073297" lon="-1.06948617"><ele></ele><time>2014-7-6T4:48:15Z</time></trkpt>
<trkpt lat="48.93064236" lon="-1.06948609"><ele></ele><time>2014-7-6T4:48:18Z</time></trkpt>
<trkpt lat="48.93058470" lon="-1.06939145"><ele></ele><time>2014-7-6T4:48:21Z</time></trkpt>
<trkpt lat="48.93053114" lon="-1.06924427"><ele></ele><time>2014-7-6T4:48:24Z</time></trkpt>
<trkpt lat="48.93050004" lon="-1.06918534"><ele></ele><time>2014-7-6T4:48:27Z</time></trkpt>
<trkpt lat="48.93043357" lon="-1.06901754"><ele></ele><time>2014-7-6T4:48:30Z</time></trkpt>
<trkpt lat="48.93038898" lon="-1.06887446"><ele></ele><time>2014-7-6T4:48:33Z</time></trkpt>
<trkpt lat="48.93030809" lon="-1.06871948"><ele></ele><time>2014-7-6T4:48:36Z</time></trkpt>
<trkpt lat="48.93017910" lon="-1.06857145"><ele></ele><time>2014-7-6T4:48:39Z</time></trkpt>
<trkpt lat="48.93004214" lon="-1.06846836"><ele></ele><time>2014-7-6T4:48:42Z</time></trkpt>
<trkpt lat="48.92984826" lon="-1.06836576"><ele></ele><time>2014-7-6T4:48:45Z</time></trkpt>
<trkpt lat="48.92969722" lon="-1.06827482"><ele></ele><time>2014-7-6T4:48:48Z</time></trkpt>
<trkpt lat="48.92954375" lon="-1.06815462"><ele></ele><time>2014-7-6T4:48:51Z</time></trkpt>
<trkpt lat="48.92937066" lon="-1.06819184"><ele></ele><time>2014-7-6T4:48:54Z</time></trkpt>
<trkpt lat="48.92925348" lon="-1.06829678"><ele></ele><time>2014-7-6T4:48:57Z</time></trkpt>
<trkpt lat="48.92917553" lon="-1.06842175"><ele></ele><time>2014-7-6T4:49:0Z</time></trkpt>
<trkpt lat="48.92909850" lon="-1.06855997"><ele></ele><time>2014-7-6T4:49:3Z</time></trkpt>
<trkpt lat="48.92904175" lon="-1.06869458"><ele></ele><time>2014-7-6T4:49:6Z</time></trkpt>
<trkpt lat="48.92899314" lon="-1.06879919"><ele></ele><time>2014-7-6T4:49:9Z</time></trkpt>
<trkpt lat="48.92893782" lon="-1.06891804"><ele></ele><time>2014-7-6T4:49:12Z</time></trkpt>
<trkpt lat="48.92886816" lon="-1.06907386"><ele></ele><time>2014-7-6T4:49:15Z</time></trkpt>
<trkpt lat="48.92880337" lon="-1.06922289"><ele></ele><time>2014-7-6T4:49:18Z</time></trkpt>
<trkpt lat="48.92874680" lon="-1.06934946"><ele></ele><time>2014-7-6T4:49:21Z</time></trkpt>
<trkpt lat="48.92869952" lon="-1.06946413"><ele></ele><time>2014-7-6T4:49:24Z</time></trkpt>
<trkpt lat="48.92866968" lon="-1.06954308"><ele></ele><time>2014-7-6T4:49:27Z</time></trkpt>
<trkpt lat="48.92865912" lon="-1.06956848"><ele></ele><time>2014-7-6T4:49:30Z</time></trkpt>
<trkpt lat="48.92861084" lon="-1.06964115"><ele></ele><time>2014-7-6T4:49:33Z</time></trkpt>
<trkpt lat="48.92856533" lon="-1.06973888"><ele></ele><time>2014-7-6T4:49:36Z</time></trkpt>
<trkpt lat="48.92851244" lon="-1.06985749"><ele></ele><time>2014-7-6T4:49:39Z</time></trkpt>
<trkpt lat="48.92846810" lon="-1.06996293"><ele></ele><time>2014-7-6T4:49:42Z</time></trkpt>
<trkpt lat="48.92839467" lon="-1.07002915"><ele></ele><time>2014-7-6T4:49:45Z</time></trkpt>
<trkpt lat="48.92834086" lon="-1.07004155"><ele></ele><time>2014-7-6T4:49:48Z</time></trkpt>
<trkpt lat="48.92832343" lon="-1.07003460"><ele></ele><time>2014-7-6T4:49:51Z</time></trkpt>
<trkpt lat="48.92829577" lon="-1.06992639"><ele></ele><time>2014-7-6T4:49:54Z</time></trkpt>
<trkpt lat="48.92830960" lon="-1.06962908"><ele></ele><time>2014-7-6T4:49:57Z</time></trkpt>
<trkpt lat="48.92828906" lon="-1.06931434"><ele></ele><time>2014-7-6T4:50:0Z</time></trkpt>
<trkpt lat="48.92818236" lon="-1.06871503"><ele></ele><time>2014-7-6T4:50:3Z</time></trkpt>
<trkpt lat="48.92810675" lon="-1.06839107"><ele></ele><time>2014-7-6T4:50:6Z</time></trkpt>
<trkpt lat="48.92809703" lon="-1.06834405"><ele></ele><time>2014-7-6T4:50:9Z</time></trkpt>
<trkpt lat="48.92801413" lon="-1.06824665"><ele></ele><time>2014-7-6T4:50:12Z</time></trkpt>
<trkpt lat="48.92798346" lon="-1.06831078"><ele></ele><time>2014-7-6T4:50:15Z</time></trkpt>
<trkpt lat="48.92794314" lon="-1.06840683"><ele></ele><time>2014-7-6T4:50:18Z</time></trkpt>
<trkpt lat="48.92785203" lon="-1.06854346"><ele></ele><time>2014-7-6T4:50:21Z</time></trkpt>
<trkpt lat="48.92779369" lon="-1.06862652"><ele></ele><time>2014-7-6T4:50:24Z</time></trkpt>
<trkpt lat="48.92771892" lon="-1.06872777"><ele></ele><time>2014-7-6T4:50:27Z</time></trkpt>
<trkpt lat="48.92764214" lon="-1.06884152"><ele></ele><time>2014-7-6T4:50:30Z</time></trkpt>
<trkpt lat="48.92755212" lon="-1.06897445"><ele></ele><time>2014-7-6T4:50:33Z</time></trkpt>
<trkpt lat="48.92748917" lon="-1.06906666"><ele></ele><time>2014-7-6T4:50:36Z</time></trkpt>
<trkpt lat="48.92743285" lon="-1.06912877"><ele></ele><time>2014-7-6T4:50:39Z</time></trkpt>
<trkpt lat="48.92736814" lon="-1.06921828"><ele></ele><time>2014-7-6T4:50:42Z</time></trkpt>
<trkpt lat="48.92725683" lon="-1.06935818"><ele></ele><time>2014-7-6T4:50:45Z</time></trkpt>
<trkpt lat="48.92716848" lon="-1.06945608"><ele></ele><time>2014-7-6T4:50:48Z</time></trkpt>
<trkpt lat="48.92706388" lon="-1.06956622"><ele></ele><time>2014-7-6T4:50:51Z</time></trkpt>
<trkpt lat="48.92698333" lon="-1.06965976"><ele></ele><time>2014-7-6T4:50:54Z</time></trkpt>
<trkpt lat="48.92688576" lon="-1.06975607"><ele></ele><time>2014-7-6T4:50:57Z</time></trkpt>
<trkpt lat="48.92679683" lon="-1.06982639"><ele></ele><time>2014-7-6T4:51:0Z</time></trkpt>
<trkpt lat="48.92674847" lon="-1.06986176"><ele></ele><time>2014-7-6T4:51:3Z</time></trkpt>
<trkpt lat="48.92665995" lon="-1.06994407"><ele></ele><time>2014-7-6T4:51:6Z</time></trkpt>
<trkpt lat="48.92662676" lon="-1.06998137"><ele></ele><time>2014-7-6T4:51:9Z</time></trkpt>
<trkpt lat="48.92659374" lon="-1.07001046"><ele></ele><time>2014-7-6T4:51:12Z</time></trkpt>
<trkpt lat="48.92652308" lon="-1.07008179"><ele></ele><time>2014-7-6T4:51:15Z</time></trkpt>
<trkpt lat="48.92644093" lon="-1.07016619"><ele></ele><time>2014-7-6T4:51:18Z</time></trkpt>
<trkpt lat="48.92635846" lon="-1.07024926"><ele></ele><time>2014-7-6T4:51:21Z</time></trkpt>
<trkpt lat="48.92628067" lon="-1.07033257"><ele></ele><time>2014-7-6T4:51:24Z</time></trkpt>
<trkpt lat="48.92618352" lon="-1.07042855"><ele></ele><time>2014-7-6T4:51:27Z</time></trkpt>
<trkpt lat="48.92612619" lon="-1.07049518"><ele></ele><time>2014-7-6T4:51:30Z</time></trkpt>
<trkpt lat="48.92604187" lon="-1.07056995"><ele></ele><time>2014-7-6T4:51:33Z</time></trkpt>
<trkpt lat="48.92593165" lon="-1.07062049"><ele></ele><time>2014-7-6T4:51:36Z</time></trkpt>
<trkpt lat="48.92584926" lon="-1.07057758"><ele></ele><time>2014-7-6T4:51:39Z</time></trkpt>
<trkpt lat="48.92574884" lon="-1.07048278"><ele></ele><time>2014-7-6T4:51:42Z</time></trkpt>
<trkpt lat="48.92566997" lon="-1.07037339"><ele></ele><time>2014-7-6T4:51:45Z</time></trkpt>
<trkpt lat="48.92557089" lon="-1.07029310"><ele></ele><time>2014-7-6T4:51:48Z</time></trkpt>
<trkpt lat="48.92549118" lon="-1.07032763"><ele></ele><time>2014-7-6T4:51:51Z</time></trkpt>
<trkpt lat="48.92546679" lon="-1.07034364"><ele></ele><time>2014-7-6T4:51:54Z</time></trkpt>
<trkpt lat="48.92539546" lon="-1.07037582"><ele></ele><time>2014-7-6T4:51:57Z</time></trkpt>
<trkpt lat="48.92528457" lon="-1.07047507"><ele></ele><time>2014-7-6T4:52:0Z</time></trkpt>
<trkpt lat="48.92519220" lon="-1.07058059"><ele></ele><time>2014-7-6T4:52:3Z</time></trkpt>
<trkpt lat="48.92508600" lon="-1.07066919"><ele></ele><time>2014-7-6T4:52:6Z</time></trkpt>
<trkpt lat="48.92503428" lon="-1.07074178"><ele></ele><time>2014-7-6T4:52:9Z</time></trkpt>
<trkpt lat="48.92501006" lon="-1.07077958"><ele></ele><time>2014-7-6T4:52:12Z</time></trkpt>
<trkpt lat="48.92494233" lon="-1.07087765"><ele></ele><time>2014-7-6T4:52:15Z</time></trkpt>
<trkpt lat="48.92488567" lon="-1.07097706"><ele></ele><time>2014-7-6T4:52:18Z</time></trkpt>
<trkpt lat="48.92485768" lon="-1.07104864"><ele></ele><time>2014-7-6T4:52:21Z</time></trkpt>
<trkpt lat="48.92482868" lon="-1.07114344"><ele></ele><time>2014-7-6T4:52:24Z</time></trkpt>
<trkpt lat="48.92461058" lon="-1.07149296"><ele></ele><time>2014-7-6T4:52:27Z</time></trkpt>
<trkpt lat="48.92450497" lon="-1.07154175"><ele></ele><time>2014-7-6T4:52:30Z</time></trkpt>
<trkpt lat="48.92448602" lon="-1.07155005"><ele></ele><time>2014-7-6T4:52:33Z</time></trkpt>
<trkpt lat="48.92439072" lon="-1.07160352"><ele></ele><time>2014-7-6T4:52:36Z</time></trkpt>
<trkpt lat="48.92428628" lon="-1.07166044"><ele></ele><time>2014-7-6T4:52:39Z</time></trkpt>
<trkpt lat="48.92427606" lon="-1.07166186"><ele></ele><time>2014-7-6T4:52:42Z</time></trkpt>
<trkpt lat="48.92424278" lon="-1.07166245"><ele></ele><time>2014-7-6T4:52:45Z</time></trkpt>
<trkpt lat="48.92421772" lon="-1.07169338"><ele></ele><time>2014-7-6T4:52:48Z</time></trkpt>
<trkpt lat="48.92423607" lon="-1.07203033"><ele></ele><time>2014-7-6T4:52:51Z</time></trkpt>
<trkpt lat="48.92404128" lon="-1.07266392"><ele></ele><time>2014-7-6T4:52:54Z</time></trkpt>
<trkpt lat="48.92403164" lon="-1.07268194"><ele></ele><time>2014-7-6T4:52:57Z</time></trkpt>
<trkpt lat="48.92398688" lon="-1.07275452"><ele></ele><time>2014-7-6T4:53:0Z</time></trkpt>
<trkpt lat="48.92393759" lon="-1.07285863"><ele></ele><time>2014-7-6T4:53:3Z</time></trkpt>
<trkpt lat="48.92388965" lon="-1.07305912"><ele></ele><time>2014-7-6T4:53:6Z</time></trkpt>
<trkpt lat="48.92386694" lon="-1.07309768"><ele></ele><time>2014-7-6T4:53:9Z</time></trkpt>
<trkpt lat="48.92381547" lon="-1.07319793"><ele></ele><time>2014-7-6T4:53:12Z</time></trkpt>
<trkpt lat="48.92376560" lon="-1.07325803"><ele></ele><time>2014-7-6T4:53:15Z</time></trkpt>
<trkpt lat="48.92372092" lon="-1.07332659"><ele></ele><time>2014-7-6T4:53:18Z</time></trkpt>
<trkpt lat="48.92365856" lon="-1.07351602"><ele></ele><time>2014-7-6T4:53:21Z</time></trkpt>
<trkpt lat="48.92360575" lon="-1.07369129"><ele></ele><time>2014-7-6T4:53:24Z</time></trkpt>
<trkpt lat="48.92357298" lon="-1.07378466"><ele></ele><time>2014-7-6T4:53:27Z</time></trkpt>
<trkpt lat="48.92360274" lon="-1.07386672"><ele></ele><time>2014-7-6T4:53:30Z</time></trkpt>
<trkpt lat="48.92363786" lon="-1.07390695"><ele></ele><time>2014-7-6T4:53:33Z</time></trkpt>
<trkpt lat="48.92366124" lon="-1.07399295"><ele></ele><time>2014-7-6T4:53:36Z</time></trkpt>
<trkpt lat="48.92371246" lon="-1.07419244"><ele></ele><time>2014-7-6T4:53:39Z</time></trkpt>
<trkpt lat="48.92371564" lon="-1.07427970"><ele></ele><time>2014-7-6T4:53:42Z</time></trkpt>
<trkpt lat="48.92363987" lon="-1.07442110"><ele></ele><time>2014-7-6T4:53:45Z</time></trkpt>
<trkpt lat="48.92357659" lon="-1.07448522"><ele></ele><time>2014-7-6T4:53:48Z</time></trkpt>
<trkpt lat="48.92348724" lon="-1.07456829"><ele></ele><time>2014-7-6T4:53:51Z</time></trkpt>
<trkpt lat="48.92339420" lon="-1.07461422"><ele></ele><time>2014-7-6T4:53:54Z</time></trkpt>
<trkpt lat="48.92327132" lon="-1.07464540"><ele></ele><time>2014-7-6T4:53:57Z</time></trkpt>
<trkpt lat="48.92315246" lon="-1.07468538"><ele></ele><time>2014-7-6T4:54:0Z</time></trkpt>
<trkpt lat="48.92304492" lon="-1.07471329"><ele></ele><time>2014-7-6T4:54:3Z</time></trkpt>
<trkpt lat="48.92293613" lon="-1.07475235"><ele></ele><time>2014-7-6T4:54:6Z</time></trkpt>
<trkpt lat="48.92284124" lon="-1.07480063"><ele></ele><time>2014-7-6T4:54:9Z</time></trkpt>
<trkpt lat="48.92274770" lon="-1.07494706"><ele></ele><time>2014-7-6T4:54:12Z</time></trkpt>
<trkpt lat="48.92265533" lon="-1.07500766"><ele></ele><time>2014-7-6T4:54:15Z</time></trkpt>
<trkpt lat="48.92259515" lon="-1.07504337"><ele></ele><time>2014-7-6T4:54:18Z</time></trkpt>
<trkpt lat="48.92254167" lon="-1.07507950"><ele></ele><time>2014-7-6T4:54:21Z</time></trkpt>
<trkpt lat="48.92231545" lon="-1.07521386"><ele></ele><time>2014-7-6T4:54:24Z</time></trkpt>
<trkpt lat="48.92223448" lon="-1.07526222"><ele></ele><time>2014-7-6T4:54:27Z</time></trkpt>
<trkpt lat="48.92215535" lon="-1.07527748"><ele></ele><time>2014-7-6T4:54:30Z</time></trkpt>
<trkpt lat="48.92207363" lon="-1.07531117"><ele></ele><time>2014-7-6T4:54:33Z</time></trkpt>
<trkpt lat="48.92201060" lon="-1.07539348"><ele></ele><time>2014-7-6T4:54:36Z</time></trkpt>
<trkpt lat="48.92198419" lon="-1.07556087"><ele></ele><time>2014-7-6T4:54:39Z</time></trkpt>
<trkpt lat="48.92192812" lon="-1.07572499"><ele></ele><time>2014-7-6T4:54:42Z</time></trkpt>
<trkpt lat="48.92189442" lon="-1.07579900"><ele></ele><time>2014-7-6T4:54:45Z</time></trkpt>
<trkpt lat="48.92183743" lon="-1.07586564"><ele></ele><time>2014-7-6T4:54:48Z</time></trkpt>
<trkpt lat="48.92164590" lon="-1.07610729"><ele></ele><time>2014-7-6T4:54:51Z</time></trkpt>
<trkpt lat="48.92156107" lon="-1.07618029"><ele></ele><time>2014-7-6T4:54:54Z</time></trkpt>
<trkpt lat="48.92150148" lon="-1.07618633"><ele></ele><time>2014-7-6T4:54:57Z</time></trkpt>
<trkpt lat="48.92131515" lon="-1.07592850"><ele></ele><time>2014-7-6T4:55:0Z</time></trkpt>
<trkpt lat="48.92109462" lon="-1.07595775"><ele></ele><time>2014-7-6T4:55:3Z</time></trkpt>
<trkpt lat="48.92108607" lon="-1.07596437"><ele></ele><time>2014-7-6T4:55:6Z</time></trkpt>
<trkpt lat="48.92106210" lon="-1.07596739"><ele></ele><time>2014-7-6T4:55:9Z</time></trkpt>
<trkpt lat="48.92103855" lon="-1.07599044"><ele></ele><time>2014-7-6T4:55:12Z</time></trkpt>
<trkpt lat="48.92096613" lon="-1.07605909"><ele></ele><time>2014-7-6T4:55:15Z</time></trkpt>
<trkpt lat="48.92086630" lon="-1.07613805"><ele></ele><time>2014-7-6T4:55:18Z</time></trkpt>
<trkpt lat="48.92077728" lon="-1.07621525"><ele></ele><time>2014-7-6T4:55:21Z</time></trkpt>
<trkpt lat="48.92067075" lon="-1.07630317"><ele></ele><time>2014-7-6T4:55:24Z</time></trkpt>
<trkpt lat="48.92055919" lon="-1.07642194"><ele></ele><time>2014-7-6T4:55:27Z</time></trkpt>
<trkpt lat="48.92044134" lon="-1.07652596"><ele></ele><time>2014-7-6T4:55:30Z</time></trkpt>
<trkpt lat="48.92031100" lon="-1.07663468"><ele></ele><time>2014-7-6T4:55:33Z</time></trkpt>
<trkpt lat="48.92021704" lon="-1.07671296"><ele></ele><time>2014-7-6T4:55:36Z</time></trkpt>
<trkpt lat="48.92007404" lon="-1.07682796"><ele></ele><time>2014-7-6T4:55:39Z</time></trkpt>
<trkpt lat="48.91991747" lon="-1.07698705"><ele></ele><time>2014-7-6T4:55:42Z</time></trkpt>
<trkpt lat="48.91977648" lon="-1.07712845"><ele></ele><time>2014-7-6T4:55:45Z</time></trkpt>
<trkpt lat="48.91962184" lon="-1.07728645"><ele></ele><time>2014-7-6T4:55:48Z</time></trkpt>
<trkpt lat="48.91946669" lon="-1.07741226"><ele></ele><time>2014-7-6T4:55:51Z</time></trkpt>
<trkpt lat="48.91935127" lon="-1.07752257"><ele></ele><time>2014-7-6T4:55:54Z</time></trkpt>
<trkpt lat="48.91924616" lon="-1.07762315"><ele></ele><time>2014-7-6T4:55:57Z</time></trkpt>
<trkpt lat="48.91911607" lon="-1.07773589"><ele></ele><time>2014-7-6T4:56:0Z</time></trkpt>
<trkpt lat="48.91898255" lon="-1.07784888"><ele></ele><time>2014-7-6T4:56:3Z</time></trkpt>
<trkpt lat="48.91883226" lon="-1.07800679"><ele></ele><time>2014-7-6T4:56:6Z</time></trkpt>
<trkpt lat="48.91871508" lon="-1.07810528"><ele></ele><time>2014-7-6T4:56:9Z</time></trkpt>
<trkpt lat="48.91864425" lon="-1.07815356"><ele></ele><time>2014-7-6T4:56:12Z</time></trkpt>
<trkpt lat="48.91855608" lon="-1.07805968"><ele></ele><time>2014-7-6T4:56:15Z</time></trkpt>
<trkpt lat="48.91845055" lon="-1.07788785"><ele></ele><time>2014-7-6T4:56:18Z</time></trkpt>
<trkpt lat="48.91837285" lon="-1.07776363"><ele></ele><time>2014-7-6T4:56:21Z</time></trkpt>
<trkpt lat="48.91825818" lon="-1.07767738"><ele></ele><time>2014-7-6T4:56:24Z</time></trkpt>
<trkpt lat="48.91821963" lon="-1.07769683"><ele></ele><time>2014-7-6T4:56:27Z</time></trkpt>
<trkpt lat="48.91811628" lon="-1.07781057"><ele></ele><time>2014-7-6T4:56:30Z</time></trkpt>
<trkpt lat="48.91803674" lon="-1.07792549"><ele></ele><time>2014-7-6T4:56:33Z</time></trkpt>
<trkpt lat="48.91796649" lon="-1.07809623"><ele></ele><time>2014-7-6T4:56:36Z</time></trkpt>
<trkpt lat="48.91793154" lon="-1.07824752"><ele></ele><time>2014-7-6T4:56:39Z</time></trkpt>
<trkpt lat="48.91787798" lon="-1.07847425"><ele></ele><time>2014-7-6T4:56:42Z</time></trkpt>
<trkpt lat="48.91781218" lon="-1.07870936"><ele></ele><time>2014-7-6T4:56:45Z</time></trkpt>
<trkpt lat="48.91776734" lon="-1.07897616"><ele></ele><time>2014-7-6T4:56:48Z</time></trkpt>
<trkpt lat="48.91774203" lon="-1.07921513"><ele></ele><time>2014-7-6T4:56:51Z</time></trkpt>
<trkpt lat="48.91750909" lon="-1.08010772"><ele></ele><time>2014-7-6T4:56:54Z</time></trkpt>
<trkpt lat="48.91731975" lon="-1.08071373"><ele></ele><time>2014-7-6T4:56:57Z</time></trkpt>
<trkpt lat="48.91712009" lon="-1.08104607"><ele></ele><time>2014-7-6T4:57:0Z</time></trkpt>
<trkpt lat="48.91689562" lon="-1.08130809"><ele></ele><time>2014-7-6T4:57:3Z</time></trkpt>
<trkpt lat="48.91676327" lon="-1.08164169"><ele></ele><time>2014-7-6T4:57:6Z</time></trkpt>
<trkpt lat="48.91677945" lon="-1.08191486"><ele></ele><time>2014-7-6T4:57:9Z</time></trkpt>
<trkpt lat="48.91686260" lon="-1.08239137"><ele></ele><time>2014-7-6T4:57:12Z</time></trkpt>
<trkpt lat="48.91693720" lon="-1.08281717"><ele></ele><time>2014-7-6T4:57:15Z</time></trkpt>
<trkpt lat="48.91702068" lon="-1.08301909"><ele></ele><time>2014-7-6T4:57:18Z</time></trkpt>
<trkpt lat="48.91708623" lon="-1.08313409"><ele></ele><time>2014-7-6T4:57:21Z</time></trkpt>
<trkpt lat="48.91727817" lon="-1.08331623"><ele></ele><time>2014-7-6T4:57:24Z</time></trkpt>
<trkpt lat="48.91732159" lon="-1.08333056"><ele></ele><time>2014-7-6T4:57:27Z</time></trkpt>
<trkpt lat="48.91768092" lon="-1.08344179"><ele></ele><time>2014-7-6T4:57:30Z</time></trkpt>
<trkpt lat="48.91794588" lon="-1.08353843"><ele></ele><time>2014-7-6T4:57:33Z</time></trkpt>
<trkpt lat="48.91841216" lon="-1.08368595"><ele></ele><time>2014-7-6T4:57:36Z</time></trkpt>
<trkpt lat="48.91896235" lon="-1.08388393"><ele></ele><time>2014-7-6T4:57:39Z</time></trkpt>
<trkpt lat="48.91926083" lon="-1.08402626"><ele></ele><time>2014-7-6T4:57:42Z</time></trkpt>
<trkpt lat="48.91970423" lon="-1.08449380"><ele></ele><time>2014-7-6T4:57:45Z</time></trkpt>
<trkpt lat="48.92006054" lon="-1.08496453"><ele></ele><time>2014-7-6T4:57:48Z</time></trkpt>
<trkpt lat="48.92017144" lon="-1.08512403"><ele></ele><time>2014-7-6T4:57:51Z</time></trkpt>
<trkpt lat="48.92020958" lon="-1.08517097"><ele></ele><time>2014-7-6T4:57:54Z</time></trkpt>
<trkpt lat="48.92040563" lon="-1.08547708"><ele></ele><time>2014-7-6T4:57:57Z</time></trkpt>
<trkpt lat="48.92044963" lon="-1.08553994"><ele></ele><time>2014-7-6T4:58:0Z</time></trkpt>
<trkpt lat="48.92065407" lon="-1.08582560"><ele></ele><time>2014-7-6T4:58:3Z</time></trkpt>
<trkpt lat="48.92095397" lon="-1.08605686"><ele></ele><time>2014-7-6T4:58:6Z</time></trkpt>
<trkpt lat="48.92143493" lon="-1.08620195"><ele></ele><time>2014-7-6T4:58:9Z</time></trkpt>
<trkpt lat="48.92181957" lon="-1.08651183"><ele></ele><time>2014-7-6T4:58:12Z</time></trkpt>
<trkpt lat="48.92188964" lon="-1.08664175"><ele></ele><time>2014-7-6T4:58:15Z</time></trkpt>
<trkpt lat="48.92216759" lon="-1.08733200"><ele></ele><time>2014-7-6T4:58:18Z</time></trkpt>
<trkpt lat="48.92223096" lon="-1.08761036"><ele></ele><time>2014-7-6T4:58:21Z</time></trkpt>
<trkpt lat="48.92242592" lon="-1.08787389"><ele></ele><time>2014-7-6T4:58:24Z</time></trkpt>
<trkpt lat="48.92252365" lon="-1.08789928"><ele></ele><time>2014-7-6T4:58:27Z</time></trkpt>
<trkpt lat="48.92314249" lon="-1.08804957"><ele></ele><time>2014-7-6T4:58:30Z</time></trkpt>
<trkpt lat="48.92364062" lon="-1.08822685"><ele></ele><time>2014-7-6T4:58:33Z</time></trkpt>
<trkpt lat="48.92399250" lon="-1.08854712"><ele></ele><time>2014-7-6T4:58:36Z</time></trkpt>
<trkpt lat="48.92442014" lon="-1.08926536"><ele></ele><time>2014-7-6T4:58:39Z</time></trkpt>
<trkpt lat="48.92465374" lon="-1.08964909"><ele></ele><time>2014-7-6T4:58:42Z</time></trkpt>
<trkpt lat="48.92501484" lon="-1.09000825"><ele></ele><time>2014-7-6T4:58:45Z</time></trkpt>
<trkpt lat="48.92518725" lon="-1.09014329"><ele></ele><time>2014-7-6T4:58:48Z</time></trkpt>
<trkpt lat="48.92537534" lon="-1.09008855"><ele></ele><time>2014-7-6T4:58:51Z</time></trkpt>
<trkpt lat="48.92547970" lon="-1.09004379"><ele></ele><time>2014-7-6T4:58:54Z</time></trkpt>
<trkpt lat="48.92554734" lon="-1.09000415"><ele></ele><time>2014-7-6T4:58:57Z</time></trkpt>
<trkpt lat="48.92559453" lon="-1.08984129"><ele></ele><time>2014-7-6T4:59:0Z</time></trkpt>
<trkpt lat="48.92561716" lon="-1.08976132"><ele></ele><time>2014-7-6T4:59:3Z</time></trkpt>
<trkpt lat="48.92567709" lon="-1.08964129"><ele></ele><time>2014-7-6T4:59:6Z</time></trkpt>
<trkpt lat="48.92570802" lon="-1.08959218"><ele></ele><time>2014-7-6T4:59:9Z</time></trkpt>
<trkpt lat="48.92576124" lon="-1.08949645"><ele></ele><time>2014-7-6T4:59:12Z</time></trkpt>
<trkpt lat="48.92580693" lon="-1.08939596"><ele></ele><time>2014-7-6T4:59:15Z</time></trkpt>
<trkpt lat="48.92595772" lon="-1.08937165"><ele></ele><time>2014-7-6T4:59:18Z</time></trkpt>
<trkpt lat="48.92604489" lon="-1.08945345"><ele></ele><time>2014-7-6T4:59:21Z</time></trkpt>
<trkpt lat="48.92621412" lon="-1.08958656"><ele></ele><time>2014-7-6T4:59:24Z</time></trkpt>
<trkpt lat="48.92644856" lon="-1.08966837"><ele></ele><time>2014-7-6T4:59:27Z</time></trkpt>
<trkpt lat="48.92657219" lon="-1.08975009"><ele></ele><time>2014-7-6T4:59:30Z</time></trkpt>
<trkpt lat="48.92687344" lon="-1.08988353"><ele></ele><time>2014-7-6T4:59:33Z</time></trkpt>
<trkpt lat="48.92712716" lon="-1.08996869"><ele></ele><time>2014-7-6T4:59:36Z</time></trkpt>
<trkpt lat="48.92742740" lon="-1.09018276"><ele></ele><time>2014-7-6T4:59:39Z</time></trkpt>
<trkpt lat="48.92784725" lon="-1.09060069"><ele></ele><time>2014-7-6T4:59:42Z</time></trkpt>
<trkpt lat="48.92811296" lon="-1.09104929"><ele></ele><time>2014-7-6T4:59:45Z</time></trkpt>
<trkpt lat="48.92844764" lon="-1.09153418"><ele></ele><time>2014-7-6T4:59:48Z</time></trkpt>
<trkpt lat="48.92854605" lon="-1.09164985"><ele></ele><time>2014-7-6T4:59:51Z</time></trkpt>
<trkpt lat="48.92887814" lon="-1.09191849"><ele></ele><time>2014-7-6T4:59:54Z</time></trkpt>
<trkpt lat="48.92921920" lon="-1.09203734"><ele></ele><time>2014-7-6T4:59:57Z</time></trkpt>
<trkpt lat="48.92941793" lon="-1.09217506"><ele></ele><time>2014-7-6T5:0:0Z</time></trkpt>
<trkpt lat="48.92964358" lon="-1.09239936"><ele></ele><time>2014-7-6T5:0:3Z</time></trkpt>
<trkpt lat="48.92985413" lon="-1.09271963"><ele></ele><time>2014-7-6T5:0:6Z</time></trkpt>
<trkpt lat="48.92988003" lon="-1.09277386"><ele></ele><time>2014-7-6T5:0:9Z</time></trkpt>
<trkpt lat="48.93002545" lon="-1.09298659"><ele></ele><time>2014-7-6T5:0:12Z</time></trkpt>
<trkpt lat="48.93020835" lon="-1.09313395"><ele></ele><time>2014-7-6T5:0:15Z</time></trkpt>
<trkpt lat="48.93036878" lon="-1.09323554"><ele></ele><time>2014-7-6T5:0:18Z</time></trkpt>
<trkpt lat="48.93057556" lon="-1.09334299"><ele></ele><time>2014-7-6T5:0:21Z</time></trkpt>
<trkpt lat="48.93081302" lon="-1.09351197"><ele></ele><time>2014-7-6T5:0:24Z</time></trkpt>
<trkpt lat="48.93103313" lon="-1.09367718"><ele></ele><time>2014-7-6T5:0:27Z</time></trkpt>
<trkpt lat="48.93125273" lon="-1.09370358"><ele></ele><time>2014-7-6T5:0:30Z</time></trkpt>
<trkpt lat="48.93139204" lon="-1.09375966"><ele></ele><time>2014-7-6T5:0:33Z</time></trkpt>
<trkpt lat="48.93159966" lon="-1.09384080"><ele></ele><time>2014-7-6T5:0:36Z</time></trkpt>
<trkpt lat="48.93176202" lon="-1.09389687"><ele></ele><time>2014-7-6T5:0:39Z</time></trkpt>
<trkpt lat="48.93184265" lon="-1.09398966"><ele></ele><time>2014-7-6T5:0:42Z</time></trkpt>
<trkpt lat="48.93182035" lon="-1.09419912"><ele></ele><time>2014-7-6T5:0:45Z</time></trkpt>
<trkpt lat="48.93169739" lon="-1.09468192"><ele></ele><time>2014-7-6T5:0:48Z</time></trkpt>
<trkpt lat="48.93168432" lon="-1.09474680"><ele></ele><time>2014-7-6T5:0:51Z</time></trkpt>
<trkpt lat="48.93165582" lon="-1.09491963"><ele></ele><time>2014-7-6T5:0:54Z</time></trkpt>
<trkpt lat="48.93161500" lon="-1.09493438"><ele></ele><time>2014-7-6T5:0:57Z</time></trkpt>
<trkpt lat="48.93160125" lon="-1.09493505"><ele></ele><time>2014-7-6T5:1:0Z</time></trkpt>
<trkpt lat="48.93158784" lon="-1.09494109"><ele></ele><time>2014-7-6T5:1:3Z</time></trkpt>
<trkpt lat="48.93154040" lon="-1.09485534"><ele></ele><time>2014-7-6T5:1:6Z</time></trkpt>
<trkpt lat="48.93151894" lon="-1.09482366"><ele></ele><time>2014-7-6T5:1:9Z</time></trkpt>
<trkpt lat="48.93144476" lon="-1.09473489"><ele></ele><time>2014-7-6T5:1:12Z</time></trkpt>
</trkseg></trk></gpx>